<?xml version="1.0" encoding="UTF-8" standalone="no" ?>
<gpx xmlns="http://www.topografix.com/GPX/1/1" xmlns:gpxtpx="http://www.garmin.com/xmlschemas/TrackPointExtension/v1" creator="OruxMaps v.7.4.22" version="1.1" xmlns:xsi="http://www.w3.org/2001/XMLSchema-instance" xsi:schemaLocation="http://www.topografix.com/GPX/1/1 http://www.topografix.com/GPX/1/1/gpx.xsd">
<metadata>
<name><![CDATA[2020-06-25 09:53]]></name>
<link href="https://www.oruxmaps.com">
<text>OruxMaps</text>
</link>
<time>2020-06-25T07:53:06Z</time><bounds maxlat="44.4524603" maxlon="3.8946055" minlat="44.3614048" minlon="3.7454715"/>
</metadata>
<wpt lat="44.3637433" lon="3.7459424">
<ele>906.98</ele>
<time>2020-06-25T07:53:09Z</time>
<name><![CDATA[0000019]]></name>
<sym>Waypoint</sym>
<type>Point de départ</type>
<extensions>
<om:oruxmapsextensions xmlns:om="http://www.oruxmaps.com/oruxmapsextensions/1/0">
<om:ext type="ICON" subtype="0">38</om:ext>
</om:oruxmapsextensions>
</extensions>
</wpt>
<wpt lat="44.4524603" lon="3.7476075">
<ele>1415.60</ele>
<time>2020-06-25T14:20:45Z</time>
<name><![CDATA[0000020]]></name>
<desc><![CDATA[<p><br /><h3>Nom: Segment: 1</h3><br />Heure de départ: 09:53 25 juin 2020<br/>Heure d'arrivée: 16:16 25 juin 2020<br/>Distance: 37,8km (06:23)<br/>Temps déplacement: 04:39<br/>Vitesse moyenne: 5,91 km/h<br/>Vitesse moyenne mouv.: 8,02 km/h<br/>Vitesse Max.: 47,55 km/h<br/>Altitude minimale: 898 m<br/>Altitude maximale: 1581 m<br/>Vitesse de montée: 375,6 m/h<br/>Vitesse de descente: -350,6 m/h<br/>Gain d'altitude: 1143 m<br/>Perte d'altitude: -626 m<br/>Temps de montée: 03:02<br/>Temps de descente: 01:47<br/></p>]]></desc>
<sym>Waypoint</sym>
<type>Point d'arrivée</type>
<extensions>
<om:oruxmapsextensions xmlns:om="http://www.oruxmaps.com/oruxmapsextensions/1/0">
<om:ext type="ICON" subtype="0">15</om:ext>
</om:oruxmapsextensions>
</extensions>
</wpt>
<trk>
<name><![CDATA[2020-06-25 09:53]]></name>
<desc><![CDATA[<p>Heure de départ: 09:53 25 juin 2020<br/>Heure d'arrivée: 16:16 25 juin 2020<br/>Distance: 37,8 km (06:23)<br/>Temps déplacement: 04:39<br/>Vitesse moyenne: 5,91 km/h<br/>Vitesse moyenne mouv.: 8,13 km/h<br/>Vitesse Max.: 47,55 km/h<br/>Altitude minimale: 898 m<br/>Altitude maximale: 1581 m<br/>Vitesse de montée: 231,3 m/h<br/>Vitesse de descente: -310,3 m/h<br/>Gain d'altitude: 1056 m<br/>Perte d'altitude: -545 m<br/>Temps de montée: 04:34<br/>Temps de descente: 01:45<br/></p><hr align="center" width="480" style="height: 2px; width: 517px"/>]]></desc>
<type>Indéfini</type>
<extensions>
<om:oruxmapsextensions xmlns:om="http://www.oruxmaps.com/oruxmapsextensions/1/0">
<om:ext type="TYPE" subtype="0">0</om:ext>
<om:ext type="DIFFICULTY">0</om:ext>
</om:oruxmapsextensions>
</extensions>
<trkseg>
<trkpt lat="44.3637433" lon="3.7459424">
<ele>906.98</ele>
<time>2020-06-25T07:53:10Z</time>
</trkpt>
<trkpt lat="44.3637707" lon="3.7456936">
<ele>900.74</ele>
<time>2020-06-25T07:54:55Z</time>
</trkpt>
<trkpt lat="44.3638768" lon="3.7454715">
<ele>900.19</ele>
<time>2020-06-25T07:55:07Z</time>
</trkpt>
<trkpt lat="44.3639711" lon="3.7457045">
<ele>898.82</ele>
<time>2020-06-25T07:55:26Z</time>
</trkpt>
<trkpt lat="44.3638984" lon="3.7459564">
<ele>902.78</ele>
<time>2020-06-25T07:55:37Z</time>
</trkpt>
<trkpt lat="44.3638597" lon="3.7462247">
<ele>905.18</ele>
<time>2020-06-25T07:55:48Z</time>
</trkpt>
<trkpt lat="44.3638119" lon="3.7464813">
<ele>904.53</ele>
<time>2020-06-25T07:55:58Z</time>
</trkpt>
<trkpt lat="44.3637548" lon="3.7467317">
<ele>905.16</ele>
<time>2020-06-25T07:56:08Z</time>
</trkpt>
<trkpt lat="44.3636984" lon="3.7469897">
<ele>907.51</ele>
<time>2020-06-25T07:56:20Z</time>
</trkpt>
<trkpt lat="44.3637037" lon="3.7472509">
<ele>909.03</ele>
<time>2020-06-25T07:56:33Z</time>
</trkpt>
<trkpt lat="44.3638290" lon="3.7470657">
<ele>912.02</ele>
<time>2020-06-25T07:57:04Z</time>
</trkpt>
<trkpt lat="44.3638799" lon="3.7468067">
<ele>912.56</ele>
<time>2020-06-25T07:57:15Z</time>
</trkpt>
<trkpt lat="44.3639972" lon="3.7466129">
<ele>911.92</ele>
<time>2020-06-25T07:57:26Z</time>
</trkpt>
<trkpt lat="44.3641866" lon="3.7465268">
<ele>912.90</ele>
<time>2020-06-25T07:57:37Z</time>
</trkpt>
<trkpt lat="44.3643743" lon="3.7465010">
<ele>913.85</ele>
<time>2020-06-25T07:57:48Z</time>
</trkpt>
<trkpt lat="44.3645605" lon="3.7464691">
<ele>915.17</ele>
<time>2020-06-25T07:57:59Z</time>
</trkpt>
<trkpt lat="44.3647585" lon="3.7464695">
<ele>916.63</ele>
<time>2020-06-25T07:58:10Z</time>
</trkpt>
<trkpt lat="44.3649514" lon="3.7464975">
<ele>918.58</ele>
<time>2020-06-25T07:58:21Z</time>
</trkpt>
<trkpt lat="44.3651336" lon="3.7465389">
<ele>917.89</ele>
<time>2020-06-25T07:58:31Z</time>
</trkpt>
<trkpt lat="44.3649590" lon="3.7466255">
<ele>922.34</ele>
<time>2020-06-25T07:58:53Z</time>
</trkpt>
<trkpt lat="44.3647783" lon="3.7466504">
<ele>923.75</ele>
<time>2020-06-25T07:59:02Z</time>
</trkpt>
<trkpt lat="44.3645953" lon="3.7467370">
<ele>926.39</ele>
<time>2020-06-25T07:59:12Z</time>
</trkpt>
<trkpt lat="44.3644261" lon="3.7468625">
<ele>927.65</ele>
<time>2020-06-25T07:59:21Z</time>
</trkpt>
<trkpt lat="44.3642786" lon="3.7470075">
<ele>928.43</ele>
<time>2020-06-25T07:59:30Z</time>
</trkpt>
<trkpt lat="44.3641678" lon="3.7472190">
<ele>929.01</ele>
<time>2020-06-25T07:59:39Z</time>
</trkpt>
<trkpt lat="44.3641045" lon="3.7474807">
<ele>930.44</ele>
<time>2020-06-25T07:59:49Z</time>
</trkpt>
<trkpt lat="44.3640635" lon="3.7477307">
<ele>931.66</ele>
<time>2020-06-25T07:59:58Z</time>
</trkpt>
<trkpt lat="44.3640395" lon="3.7480089">
<ele>932.38</ele>
<time>2020-06-25T08:00:08Z</time>
</trkpt>
<trkpt lat="44.3640098" lon="3.7482850">
<ele>934.32</ele>
<time>2020-06-25T08:00:18Z</time>
</trkpt>
<trkpt lat="44.3640043" lon="3.7485770">
<ele>934.84</ele>
<time>2020-06-25T08:00:28Z</time>
</trkpt>
<trkpt lat="44.3639912" lon="3.7488541">
<ele>937.54</ele>
<time>2020-06-25T08:00:38Z</time>
</trkpt>
<trkpt lat="44.3639824" lon="3.7491273">
<ele>940.07</ele>
<time>2020-06-25T08:00:46Z</time>
</trkpt>
<trkpt lat="44.3639459" lon="3.7493880">
<ele>941.47</ele>
<time>2020-06-25T08:00:55Z</time>
</trkpt>
<trkpt lat="44.3639176" lon="3.7496638">
<ele>942.64</ele>
<time>2020-06-25T08:01:04Z</time>
</trkpt>
<trkpt lat="44.3639168" lon="3.7499216">
<ele>942.37</ele>
<time>2020-06-25T08:01:13Z</time>
</trkpt>
<trkpt lat="44.3639483" lon="3.7501814">
<ele>945.34</ele>
<time>2020-06-25T08:01:22Z</time>
</trkpt>
<trkpt lat="44.3639551" lon="3.7504385">
<ele>947.39</ele>
<time>2020-06-25T08:01:31Z</time>
</trkpt>
<trkpt lat="44.3640120" lon="3.7506966">
<ele>947.99</ele>
<time>2020-06-25T08:01:40Z</time>
</trkpt>
<trkpt lat="44.3640520" lon="3.7509512">
<ele>948.70</ele>
<time>2020-06-25T08:01:49Z</time>
</trkpt>
<trkpt lat="44.3640564" lon="3.7512127">
<ele>951.10</ele>
<time>2020-06-25T08:01:58Z</time>
</trkpt>
<trkpt lat="44.3640844" lon="3.7514894">
<ele>952.99</ele>
<time>2020-06-25T08:02:07Z</time>
</trkpt>
<trkpt lat="44.3641023" lon="3.7517493">
<ele>955.92</ele>
<time>2020-06-25T08:02:16Z</time>
</trkpt>
<trkpt lat="44.3641191" lon="3.7520232">
<ele>956.73</ele>
<time>2020-06-25T08:02:25Z</time>
</trkpt>
<trkpt lat="44.3641227" lon="3.7522888">
<ele>957.90</ele>
<time>2020-06-25T08:02:34Z</time>
</trkpt>
<trkpt lat="44.3641074" lon="3.7525423">
<ele>958.71</ele>
<time>2020-06-25T08:02:42Z</time>
</trkpt>
<trkpt lat="44.3641071" lon="3.7528095">
<ele>960.46</ele>
<time>2020-06-25T08:02:51Z</time>
</trkpt>
<trkpt lat="44.3640913" lon="3.7530811">
<ele>962.40</ele>
<time>2020-06-25T08:02:59Z</time>
</trkpt>
<trkpt lat="44.3640861" lon="3.7533427">
<ele>963.70</ele>
<time>2020-06-25T08:03:07Z</time>
</trkpt>
<trkpt lat="44.3640506" lon="3.7536029">
<ele>964.41</ele>
<time>2020-06-25T08:03:16Z</time>
</trkpt>
<trkpt lat="44.3639896" lon="3.7538640">
<ele>965.11</ele>
<time>2020-06-25T08:03:25Z</time>
</trkpt>
<trkpt lat="44.3639140" lon="3.7541023">
<ele>967.84</ele>
<time>2020-06-25T08:03:34Z</time>
</trkpt>
<trkpt lat="44.3638746" lon="3.7543623">
<ele>968.43</ele>
<time>2020-06-25T08:03:43Z</time>
</trkpt>
<trkpt lat="44.3638224" lon="3.7546093">
<ele>968.14</ele>
<time>2020-06-25T08:03:51Z</time>
</trkpt>
<trkpt lat="44.3637768" lon="3.7548826">
<ele>969.23</ele>
<time>2020-06-25T08:04:00Z</time>
</trkpt>
<trkpt lat="44.3637974" lon="3.7551382">
<ele>971.13</ele>
<time>2020-06-25T08:04:08Z</time>
</trkpt>
<trkpt lat="44.3637949" lon="3.7553958">
<ele>973.07</ele>
<time>2020-06-25T08:04:16Z</time>
</trkpt>
<trkpt lat="44.3636767" lon="3.7556114">
<ele>974.31</ele>
<time>2020-06-25T08:04:24Z</time>
</trkpt>
<trkpt lat="44.3635565" lon="3.7557991">
<ele>977.19</ele>
<time>2020-06-25T08:04:33Z</time>
</trkpt>
<trkpt lat="44.3634146" lon="3.7559774">
<ele>978.59</ele>
<time>2020-06-25T08:04:41Z</time>
</trkpt>
<trkpt lat="44.3632678" lon="3.7561485">
<ele>980.88</ele>
<time>2020-06-25T08:04:50Z</time>
</trkpt>
<trkpt lat="44.3630994" lon="3.7562864">
<ele>982.10</ele>
<time>2020-06-25T08:04:59Z</time>
</trkpt>
<trkpt lat="44.3628991" lon="3.7563254">
<ele>981.43</ele>
<time>2020-06-25T08:05:08Z</time>
</trkpt>
<trkpt lat="44.3627128" lon="3.7562900">
<ele>983.60</ele>
<time>2020-06-25T08:05:17Z</time>
</trkpt>
<trkpt lat="44.3625328" lon="3.7563289">
<ele>985.59</ele>
<time>2020-06-25T08:05:26Z</time>
</trkpt>
<trkpt lat="44.3623507" lon="3.7563997">
<ele>987.88</ele>
<time>2020-06-25T08:05:35Z</time>
</trkpt>
<trkpt lat="44.3621742" lon="3.7564720">
<ele>988.99</ele>
<time>2020-06-25T08:05:44Z</time>
</trkpt>
<trkpt lat="44.3620003" lon="3.7565403">
<ele>990.65</ele>
<time>2020-06-25T08:05:53Z</time>
</trkpt>
<trkpt lat="44.3618405" lon="3.7566707">
<ele>991.31</ele>
<time>2020-06-25T08:06:02Z</time>
</trkpt>
<trkpt lat="44.3617248" lon="3.7568762">
<ele>992.32</ele>
<time>2020-06-25T08:06:11Z</time>
</trkpt>
<trkpt lat="44.3616317" lon="3.7571232">
<ele>994.16</ele>
<time>2020-06-25T08:06:21Z</time>
</trkpt>
<trkpt lat="44.3615517" lon="3.7573731">
<ele>996.27</ele>
<time>2020-06-25T08:06:31Z</time>
</trkpt>
<trkpt lat="44.3614844" lon="3.7576220">
<ele>997.44</ele>
<time>2020-06-25T08:06:41Z</time>
</trkpt>
<trkpt lat="44.3614742" lon="3.7578981">
<ele>999.40</ele>
<time>2020-06-25T08:06:51Z</time>
</trkpt>
<trkpt lat="44.3614474" lon="3.7581638">
<ele>1000.18</ele>
<time>2020-06-25T08:07:00Z</time>
</trkpt>
<trkpt lat="44.3614183" lon="3.7584229">
<ele>1001.74</ele>
<time>2020-06-25T08:07:09Z</time>
</trkpt>
<trkpt lat="44.3614048" lon="3.7586990">
<ele>1003.80</ele>
<time>2020-06-25T08:07:18Z</time>
</trkpt>
<trkpt lat="44.3614434" lon="3.7589557">
<ele>1005.02</ele>
<time>2020-06-25T08:07:27Z</time>
</trkpt>
<trkpt lat="44.3614906" lon="3.7592308">
<ele>1006.36</ele>
<time>2020-06-25T08:07:36Z</time>
</trkpt>
<trkpt lat="44.3614885" lon="3.7594856">
<ele>1007.28</ele>
<time>2020-06-25T08:07:44Z</time>
</trkpt>
<trkpt lat="44.3615030" lon="3.7597643">
<ele>1008.81</ele>
<time>2020-06-25T08:07:53Z</time>
</trkpt>
<trkpt lat="44.3615017" lon="3.7600242">
<ele>1009.29</ele>
<time>2020-06-25T08:08:01Z</time>
</trkpt>
<trkpt lat="44.3614973" lon="3.7602848">
<ele>1010.98</ele>
<time>2020-06-25T08:08:09Z</time>
</trkpt>
<trkpt lat="44.3614686" lon="3.7605478">
<ele>1013.11</ele>
<time>2020-06-25T08:08:17Z</time>
</trkpt>
<trkpt lat="44.3614291" lon="3.7608227">
<ele>1014.73</ele>
<time>2020-06-25T08:08:26Z</time>
</trkpt>
<trkpt lat="44.3614161" lon="3.7610991">
<ele>1017.24</ele>
<time>2020-06-25T08:08:35Z</time>
</trkpt>
<trkpt lat="44.3614305" lon="3.7613590">
<ele>1018.83</ele>
<time>2020-06-25T08:08:44Z</time>
</trkpt>
<trkpt lat="44.3614467" lon="3.7616109">
<ele>1021.51</ele>
<time>2020-06-25T08:08:52Z</time>
</trkpt>
<trkpt lat="44.3614832" lon="3.7618734">
<ele>1021.91</ele>
<time>2020-06-25T08:09:01Z</time>
</trkpt>
<trkpt lat="44.3615633" lon="3.7621201">
<ele>1022.93</ele>
<time>2020-06-25T08:09:09Z</time>
</trkpt>
<trkpt lat="44.3615889" lon="3.7623902">
<ele>1025.21</ele>
<time>2020-06-25T08:09:18Z</time>
</trkpt>
<trkpt lat="44.3616848" lon="3.7626346">
<ele>1027.05</ele>
<time>2020-06-25T08:09:27Z</time>
</trkpt>
<trkpt lat="44.3618456" lon="3.7627779">
<ele>1030.21</ele>
<time>2020-06-25T08:09:35Z</time>
</trkpt>
<trkpt lat="44.3619693" lon="3.7629726">
<ele>1031.93</ele>
<time>2020-06-25T08:09:44Z</time>
</trkpt>
<trkpt lat="44.3620606" lon="3.7631913">
<ele>1034.26</ele>
<time>2020-06-25T08:09:52Z</time>
</trkpt>
<trkpt lat="44.3621595" lon="3.7634038">
<ele>1036.27</ele>
<time>2020-06-25T08:10:00Z</time>
</trkpt>
<trkpt lat="44.3623523" lon="3.7634691">
<ele>1036.53</ele>
<time>2020-06-25T08:11:11Z</time>
</trkpt>
<trkpt lat="44.3625292" lon="3.7634048">
<ele>1037.71</ele>
<time>2020-06-25T08:11:20Z</time>
</trkpt>
<trkpt lat="44.3626848" lon="3.7632479">
<ele>1037.31</ele>
<time>2020-06-25T08:11:29Z</time>
</trkpt>
<trkpt lat="44.3628038" lon="3.7630572">
<ele>1039.77</ele>
<time>2020-06-25T08:11:40Z</time>
</trkpt>
<trkpt lat="44.3629395" lon="3.7628586">
<ele>1041.22</ele>
<time>2020-06-25T08:11:52Z</time>
</trkpt>
<trkpt lat="44.3630709" lon="3.7626671">
<ele>1041.71</ele>
<time>2020-06-25T08:12:02Z</time>
</trkpt>
<trkpt lat="44.3632179" lon="3.7624930">
<ele>1045.01</ele>
<time>2020-06-25T08:12:14Z</time>
</trkpt>
<trkpt lat="44.3633655" lon="3.7623296">
<ele>1046.81</ele>
<time>2020-06-25T08:12:25Z</time>
</trkpt>
<trkpt lat="44.3635087" lon="3.7621448">
<ele>1048.69</ele>
<time>2020-06-25T08:12:36Z</time>
</trkpt>
<trkpt lat="44.3636524" lon="3.7619846">
<ele>1050.71</ele>
<time>2020-06-25T08:12:45Z</time>
</trkpt>
<trkpt lat="44.3637836" lon="3.7617993">
<ele>1053.85</ele>
<time>2020-06-25T08:13:23Z</time>
</trkpt>
<trkpt lat="44.3639244" lon="3.7616398">
<ele>1054.57</ele>
<time>2020-06-25T08:13:32Z</time>
</trkpt>
<trkpt lat="44.3640987" lon="3.7615738">
<ele>1057.53</ele>
<time>2020-06-25T08:13:41Z</time>
</trkpt>
<trkpt lat="44.3642938" lon="3.7615308">
<ele>1059.37</ele>
<time>2020-06-25T08:13:51Z</time>
</trkpt>
<trkpt lat="44.3644569" lon="3.7614091">
<ele>1059.96</ele>
<time>2020-06-25T08:14:00Z</time>
</trkpt>
<trkpt lat="44.3646194" lon="3.7612742">
<ele>1062.46</ele>
<time>2020-06-25T08:14:09Z</time>
</trkpt>
<trkpt lat="44.3647788" lon="3.7611478">
<ele>1064.29</ele>
<time>2020-06-25T08:14:18Z</time>
</trkpt>
<trkpt lat="44.3649490" lon="3.7610193">
<ele>1065.69</ele>
<time>2020-06-25T08:14:28Z</time>
</trkpt>
<trkpt lat="44.3651213" lon="3.7608868">
<ele>1067.42</ele>
<time>2020-06-25T08:14:38Z</time>
</trkpt>
<trkpt lat="44.3653135" lon="3.7608128">
<ele>1068.90</ele>
<time>2020-06-25T08:14:51Z</time>
</trkpt>
<trkpt lat="44.3655025" lon="3.7607366">
<ele>1070.22</ele>
<time>2020-06-25T08:15:00Z</time>
</trkpt>
<trkpt lat="44.3656866" lon="3.7606480">
<ele>1072.36</ele>
<time>2020-06-25T08:15:09Z</time>
</trkpt>
<trkpt lat="44.3658634" lon="3.7605853">
<ele>1074.10</ele>
<time>2020-06-25T08:15:17Z</time>
</trkpt>
<trkpt lat="44.3660319" lon="3.7604855">
<ele>1074.81</ele>
<time>2020-06-25T08:15:25Z</time>
</trkpt>
<trkpt lat="44.3661836" lon="3.7603347">
<ele>1076.62</ele>
<time>2020-06-25T08:15:35Z</time>
</trkpt>
<trkpt lat="44.3663362" lon="3.7601802">
<ele>1078.08</ele>
<time>2020-06-25T08:15:45Z</time>
</trkpt>
<trkpt lat="44.3664927" lon="3.7600526">
<ele>1079.65</ele>
<time>2020-06-25T08:15:53Z</time>
</trkpt>
<trkpt lat="44.3666533" lon="3.7599209">
<ele>1081.82</ele>
<time>2020-06-25T08:16:03Z</time>
</trkpt>
<trkpt lat="44.3668241" lon="3.7597799">
<ele>1082.48</ele>
<time>2020-06-25T08:16:13Z</time>
</trkpt>
<trkpt lat="44.3669658" lon="3.7595918">
<ele>1084.12</ele>
<time>2020-06-25T08:16:23Z</time>
</trkpt>
<trkpt lat="44.3671101" lon="3.7594239">
<ele>1084.84</ele>
<time>2020-06-25T08:16:33Z</time>
</trkpt>
<trkpt lat="44.3672823" lon="3.7592963">
<ele>1086.43</ele>
<time>2020-06-25T08:16:42Z</time>
</trkpt>
<trkpt lat="44.3674474" lon="3.7594344">
<ele>1091.18</ele>
<time>2020-06-25T08:16:52Z</time>
</trkpt>
<trkpt lat="44.3674930" lon="3.7596896">
<ele>1093.30</ele>
<time>2020-06-25T08:16:59Z</time>
</trkpt>
<trkpt lat="44.3675271" lon="3.7599519">
<ele>1094.32</ele>
<time>2020-06-25T08:17:07Z</time>
</trkpt>
<trkpt lat="44.3675259" lon="3.7602348">
<ele>1094.95</ele>
<time>2020-06-25T08:17:16Z</time>
</trkpt>
<trkpt lat="44.3675184" lon="3.7604953">
<ele>1095.64</ele>
<time>2020-06-25T08:17:25Z</time>
</trkpt>
<trkpt lat="44.3675024" lon="3.7607608">
<ele>1098.50</ele>
<time>2020-06-25T08:17:35Z</time>
</trkpt>
<trkpt lat="44.3674998" lon="3.7610189">
<ele>1099.89</ele>
<time>2020-06-25T08:17:44Z</time>
</trkpt>
<trkpt lat="44.3674946" lon="3.7612932">
<ele>1100.48</ele>
<time>2020-06-25T08:17:54Z</time>
</trkpt>
<trkpt lat="44.3675142" lon="3.7615448">
<ele>1102.46</ele>
<time>2020-06-25T08:18:03Z</time>
</trkpt>
<trkpt lat="44.3676661" lon="3.7616858">
<ele>1104.93</ele>
<time>2020-06-25T08:18:12Z</time>
</trkpt>
<trkpt lat="44.3678597" lon="3.7617016">
<ele>1107.48</ele>
<time>2020-06-25T08:18:22Z</time>
</trkpt>
<trkpt lat="44.3680500" lon="3.7617506">
<ele>1108.84</ele>
<time>2020-06-25T08:18:32Z</time>
</trkpt>
<trkpt lat="44.3682394" lon="3.7617609">
<ele>1111.26</ele>
<time>2020-06-25T08:18:41Z</time>
</trkpt>
<trkpt lat="44.3684206" lon="3.7618259">
<ele>1112.32</ele>
<time>2020-06-25T08:18:51Z</time>
</trkpt>
<trkpt lat="44.3685995" lon="3.7619012">
<ele>1112.74</ele>
<time>2020-06-25T08:19:02Z</time>
</trkpt>
<trkpt lat="44.3686299" lon="3.7621627">
<ele>1114.73</ele>
<time>2020-06-25T08:19:12Z</time>
</trkpt>
<trkpt lat="44.3685451" lon="3.7624158">
<ele>1117.29</ele>
<time>2020-06-25T08:19:22Z</time>
</trkpt>
<trkpt lat="44.3685860" lon="3.7626666">
<ele>1118.95</ele>
<time>2020-06-25T08:19:31Z</time>
</trkpt>
<trkpt lat="44.3686545" lon="3.7629014">
<ele>1120.32</ele>
<time>2020-06-25T08:19:40Z</time>
</trkpt>
<trkpt lat="44.3686756" lon="3.7631541">
<ele>1121.70</ele>
<time>2020-06-25T08:19:49Z</time>
</trkpt>
<trkpt lat="44.3686247" lon="3.7633972">
<ele>1123.45</ele>
<time>2020-06-25T08:19:58Z</time>
</trkpt>
<trkpt lat="44.3685896" lon="3.7636445">
<ele>1125.14</ele>
<time>2020-06-25T08:20:08Z</time>
</trkpt>
<trkpt lat="44.3685407" lon="3.7639081">
<ele>1126.48</ele>
<time>2020-06-25T08:20:20Z</time>
</trkpt>
<trkpt lat="44.3684851" lon="3.7641564">
<ele>1128.45</ele>
<time>2020-06-25T08:20:31Z</time>
</trkpt>
<trkpt lat="44.3683974" lon="3.7643873">
<ele>1130.72</ele>
<time>2020-06-25T08:20:41Z</time>
</trkpt>
<trkpt lat="44.3682620" lon="3.7645810">
<ele>1132.25</ele>
<time>2020-06-25T08:20:51Z</time>
</trkpt>
<trkpt lat="44.3681188" lon="3.7647572">
<ele>1133.37</ele>
<time>2020-06-25T08:21:01Z</time>
</trkpt>
<trkpt lat="44.3679839" lon="3.7649478">
<ele>1135.43</ele>
<time>2020-06-25T08:21:11Z</time>
</trkpt>
<trkpt lat="44.3679119" lon="3.7652062">
<ele>1136.54</ele>
<time>2020-06-25T08:21:20Z</time>
</trkpt>
<trkpt lat="44.3679809" lon="3.7654621">
<ele>1139.57</ele>
<time>2020-06-25T08:21:30Z</time>
</trkpt>
<trkpt lat="44.3681060" lon="3.7656439">
<ele>1141.22</ele>
<time>2020-06-25T08:21:39Z</time>
</trkpt>
<trkpt lat="44.3682572" lon="3.7658246">
<ele>1143.63</ele>
<time>2020-06-25T08:21:48Z</time>
</trkpt>
<trkpt lat="44.3684010" lon="3.7660076">
<ele>1144.38</ele>
<time>2020-06-25T08:21:57Z</time>
</trkpt>
<trkpt lat="44.3685413" lon="3.7661795">
<ele>1147.18</ele>
<time>2020-06-25T08:22:05Z</time>
</trkpt>
<trkpt lat="44.3686566" lon="3.7663940">
<ele>1149.01</ele>
<time>2020-06-25T08:22:12Z</time>
</trkpt>
<trkpt lat="44.3686854" lon="3.7666698">
<ele>1149.73</ele>
<time>2020-06-25T08:22:19Z</time>
</trkpt>
<trkpt lat="44.3686324" lon="3.7669447">
<ele>1150.16</ele>
<time>2020-06-25T08:22:26Z</time>
</trkpt>
<trkpt lat="44.3685272" lon="3.7671762">
<ele>1152.01</ele>
<time>2020-06-25T08:22:33Z</time>
</trkpt>
<trkpt lat="44.3684087" lon="3.7674163">
<ele>1153.59</ele>
<time>2020-06-25T08:22:40Z</time>
</trkpt>
<trkpt lat="44.3683570" lon="3.7676680">
<ele>1154.99</ele>
<time>2020-06-25T08:22:47Z</time>
</trkpt>
<trkpt lat="44.3683436" lon="3.7679259">
<ele>1157.13</ele>
<time>2020-06-25T08:22:54Z</time>
</trkpt>
<trkpt lat="44.3682967" lon="3.7681875">
<ele>1158.86</ele>
<time>2020-06-25T08:23:01Z</time>
</trkpt>
<trkpt lat="44.3682412" lon="3.7684539">
<ele>1160.17</ele>
<time>2020-06-25T08:23:08Z</time>
</trkpt>
<trkpt lat="44.3681962" lon="3.7687104">
<ele>1161.45</ele>
<time>2020-06-25T08:23:15Z</time>
</trkpt>
<trkpt lat="44.3681515" lon="3.7689803">
<ele>1164.20</ele>
<time>2020-06-25T08:23:22Z</time>
</trkpt>
<trkpt lat="44.3681382" lon="3.7692488">
<ele>1165.92</ele>
<time>2020-06-25T08:23:29Z</time>
</trkpt>
<trkpt lat="44.3681636" lon="3.7695174">
<ele>1167.75</ele>
<time>2020-06-25T08:23:36Z</time>
</trkpt>
<trkpt lat="44.3681405" lon="3.7697766">
<ele>1170.15</ele>
<time>2020-06-25T08:23:44Z</time>
</trkpt>
<trkpt lat="44.3681616" lon="3.7700557">
<ele>1171.08</ele>
<time>2020-06-25T08:23:51Z</time>
</trkpt>
<trkpt lat="44.3682129" lon="3.7703254">
<ele>1173.97</ele>
<time>2020-06-25T08:23:58Z</time>
</trkpt>
<trkpt lat="44.3682220" lon="3.7705955">
<ele>1176.20</ele>
<time>2020-06-25T08:24:05Z</time>
</trkpt>
<trkpt lat="44.3681348" lon="3.7708325">
<ele>1176.76</ele>
<time>2020-06-25T08:24:12Z</time>
</trkpt>
<trkpt lat="44.3680699" lon="3.7710780">
<ele>1178.62</ele>
<time>2020-06-25T08:24:19Z</time>
</trkpt>
<trkpt lat="44.3680152" lon="3.7713423">
<ele>1180.92</ele>
<time>2020-06-25T08:24:27Z</time>
</trkpt>
<trkpt lat="44.3680665" lon="3.7716144">
<ele>1184.16</ele>
<time>2020-06-25T08:24:36Z</time>
</trkpt>
<trkpt lat="44.3682213" lon="3.7717975">
<ele>1186.29</ele>
<time>2020-06-25T08:24:44Z</time>
</trkpt>
<trkpt lat="44.3684011" lon="3.7719231">
<ele>1187.24</ele>
<time>2020-06-25T08:24:52Z</time>
</trkpt>
<trkpt lat="44.3685703" lon="3.7720535">
<ele>1190.12</ele>
<time>2020-06-25T08:25:01Z</time>
</trkpt>
<trkpt lat="44.3687519" lon="3.7721810">
<ele>1191.91</ele>
<time>2020-06-25T08:25:11Z</time>
</trkpt>
<trkpt lat="44.3689283" lon="3.7723231">
<ele>1194.46</ele>
<time>2020-06-25T08:25:20Z</time>
</trkpt>
<trkpt lat="44.3691276" lon="3.7723991">
<ele>1196.31</ele>
<time>2020-06-25T08:25:29Z</time>
</trkpt>
<trkpt lat="44.3692934" lon="3.7725108">
<ele>1196.39</ele>
<time>2020-06-25T08:25:38Z</time>
</trkpt>
<trkpt lat="44.3694688" lon="3.7726066">
<ele>1194.55</ele>
<time>2020-06-25T08:25:45Z</time>
</trkpt>
<trkpt lat="44.3696308" lon="3.7727216">
<ele>1196.85</ele>
<time>2020-06-25T08:25:53Z</time>
</trkpt>
<trkpt lat="44.3697984" lon="3.7728538">
<ele>1200.46</ele>
<time>2020-06-25T08:26:03Z</time>
</trkpt>
<trkpt lat="44.3700053" lon="3.7729085">
<ele>1205.24</ele>
<time>2020-06-25T08:26:13Z</time>
</trkpt>
<trkpt lat="44.3702032" lon="3.7729173">
<ele>1206.61</ele>
<time>2020-06-25T08:26:19Z</time>
</trkpt>
<trkpt lat="44.3703899" lon="3.7729055">
<ele>1207.50</ele>
<time>2020-06-25T08:26:26Z</time>
</trkpt>
<trkpt lat="44.3705855" lon="3.7728784">
<ele>1208.57</ele>
<time>2020-06-25T08:26:35Z</time>
</trkpt>
<trkpt lat="44.3707678" lon="3.7729285">
<ele>1210.93</ele>
<time>2020-06-25T08:26:44Z</time>
</trkpt>
<trkpt lat="44.3709486" lon="3.7729719">
<ele>1213.35</ele>
<time>2020-06-25T08:26:54Z</time>
</trkpt>
<trkpt lat="44.3711466" lon="3.7729805">
<ele>1215.38</ele>
<time>2020-06-25T08:27:04Z</time>
</trkpt>
<trkpt lat="44.3713444" lon="3.7729869">
<ele>1219.21</ele>
<time>2020-06-25T08:27:14Z</time>
</trkpt>
<trkpt lat="44.3715277" lon="3.7730161">
<ele>1219.95</ele>
<time>2020-06-25T08:27:23Z</time>
</trkpt>
<trkpt lat="44.3717157" lon="3.7730582">
<ele>1220.79</ele>
<time>2020-06-25T08:27:32Z</time>
</trkpt>
<trkpt lat="44.3718968" lon="3.7731308">
<ele>1221.92</ele>
<time>2020-06-25T08:27:41Z</time>
</trkpt>
<trkpt lat="44.3720771" lon="3.7732062">
<ele>1223.46</ele>
<time>2020-06-25T08:27:50Z</time>
</trkpt>
<trkpt lat="44.3722513" lon="3.7732850">
<ele>1224.36</ele>
<time>2020-06-25T08:27:59Z</time>
</trkpt>
<trkpt lat="44.3724322" lon="3.7733786">
<ele>1226.65</ele>
<time>2020-06-25T08:28:09Z</time>
</trkpt>
<trkpt lat="44.3726039" lon="3.7734593">
<ele>1228.59</ele>
<time>2020-06-25T08:28:18Z</time>
</trkpt>
<trkpt lat="44.3727715" lon="3.7735779">
<ele>1230.79</ele>
<time>2020-06-25T08:28:27Z</time>
</trkpt>
<trkpt lat="44.3729327" lon="3.7737037">
<ele>1231.43</ele>
<time>2020-06-25T08:28:36Z</time>
</trkpt>
<trkpt lat="44.3731031" lon="3.7738400">
<ele>1232.66</ele>
<time>2020-06-25T08:28:46Z</time>
</trkpt>
<trkpt lat="44.3732656" lon="3.7740020">
<ele>1234.53</ele>
<time>2020-06-25T08:28:56Z</time>
</trkpt>
<trkpt lat="44.3734244" lon="3.7741389">
<ele>1236.61</ele>
<time>2020-06-25T08:29:05Z</time>
</trkpt>
<trkpt lat="44.3735756" lon="3.7742808">
<ele>1238.59</ele>
<time>2020-06-25T08:29:14Z</time>
</trkpt>
<trkpt lat="44.3737231" lon="3.7744397">
<ele>1240.34</ele>
<time>2020-06-25T08:29:23Z</time>
</trkpt>
<trkpt lat="44.3738366" lon="3.7746439">
<ele>1241.94</ele>
<time>2020-06-25T08:29:32Z</time>
</trkpt>
<trkpt lat="44.3738931" lon="3.7748962">
<ele>1242.63</ele>
<time>2020-06-25T08:29:41Z</time>
</trkpt>
<trkpt lat="44.3739277" lon="3.7751504">
<ele>1242.83</ele>
<time>2020-06-25T08:29:49Z</time>
</trkpt>
<trkpt lat="44.3739309" lon="3.7754339">
<ele>1242.97</ele>
<time>2020-06-25T08:29:58Z</time>
</trkpt>
<trkpt lat="44.3738746" lon="3.7756788">
<ele>1245.53</ele>
<time>2020-06-25T08:33:05Z</time>
</trkpt>
<trkpt lat="44.3738634" lon="3.7759330">
<ele>1247.21</ele>
<time>2020-06-25T08:35:51Z</time>
</trkpt>
<trkpt lat="44.3738085" lon="3.7761758">
<ele>1247.89</ele>
<time>2020-06-25T08:36:02Z</time>
</trkpt>
<trkpt lat="44.3738563" lon="3.7764336">
<ele>1248.76</ele>
<time>2020-06-25T08:36:17Z</time>
</trkpt>
<trkpt lat="44.3739626" lon="3.7766704">
<ele>1249.49</ele>
<time>2020-06-25T08:36:27Z</time>
</trkpt>
<trkpt lat="44.3740535" lon="3.7769236">
<ele>1249.32</ele>
<time>2020-06-25T08:36:35Z</time>
</trkpt>
<trkpt lat="44.3741517" lon="3.7771596">
<ele>1249.71</ele>
<time>2020-06-25T08:36:44Z</time>
</trkpt>
<trkpt lat="44.3742266" lon="3.7773926">
<ele>1250.45</ele>
<time>2020-06-25T08:36:52Z</time>
</trkpt>
<trkpt lat="44.3743159" lon="3.7776276">
<ele>1250.44</ele>
<time>2020-06-25T08:36:59Z</time>
</trkpt>
<trkpt lat="44.3743906" lon="3.7778845">
<ele>1250.40</ele>
<time>2020-06-25T08:37:08Z</time>
</trkpt>
<trkpt lat="44.3743802" lon="3.7781435">
<ele>1250.79</ele>
<time>2020-06-25T08:37:18Z</time>
</trkpt>
<trkpt lat="44.3742632" lon="3.7783352">
<ele>1250.25</ele>
<time>2020-06-25T08:37:27Z</time>
</trkpt>
<trkpt lat="44.3741218" lon="3.7785256">
<ele>1250.59</ele>
<time>2020-06-25T08:37:35Z</time>
</trkpt>
<trkpt lat="44.3739936" lon="3.7787040">
<ele>1251.79</ele>
<time>2020-06-25T08:37:42Z</time>
</trkpt>
<trkpt lat="44.3738648" lon="3.7789229">
<ele>1252.24</ele>
<time>2020-06-25T08:37:50Z</time>
</trkpt>
<trkpt lat="44.3737370" lon="3.7791154">
<ele>1252.46</ele>
<time>2020-06-25T08:37:58Z</time>
</trkpt>
<trkpt lat="44.3736458" lon="3.7793493">
<ele>1252.80</ele>
<time>2020-06-25T08:38:05Z</time>
</trkpt>
<trkpt lat="44.3735487" lon="3.7795803">
<ele>1253.10</ele>
<time>2020-06-25T08:38:12Z</time>
</trkpt>
<trkpt lat="44.3734428" lon="3.7797941">
<ele>1253.97</ele>
<time>2020-06-25T08:38:20Z</time>
</trkpt>
<trkpt lat="44.3733515" lon="3.7800342">
<ele>1256.00</ele>
<time>2020-06-25T08:38:30Z</time>
</trkpt>
<trkpt lat="44.3732869" lon="3.7802810">
<ele>1255.25</ele>
<time>2020-06-25T08:38:39Z</time>
</trkpt>
<trkpt lat="44.3732731" lon="3.7805400">
<ele>1254.93</ele>
<time>2020-06-25T08:38:48Z</time>
</trkpt>
<trkpt lat="44.3732366" lon="3.7808085">
<ele>1255.94</ele>
<time>2020-06-25T08:38:57Z</time>
</trkpt>
<trkpt lat="44.3732040" lon="3.7810815">
<ele>1256.47</ele>
<time>2020-06-25T08:39:06Z</time>
</trkpt>
<trkpt lat="44.3731867" lon="3.7813363">
<ele>1257.23</ele>
<time>2020-06-25T08:39:14Z</time>
</trkpt>
<trkpt lat="44.3731934" lon="3.7815886">
<ele>1258.80</ele>
<time>2020-06-25T08:39:22Z</time>
</trkpt>
<trkpt lat="44.3731631" lon="3.7818566">
<ele>1259.03</ele>
<time>2020-06-25T08:39:30Z</time>
</trkpt>
<trkpt lat="44.3731052" lon="3.7820949">
<ele>1258.61</ele>
<time>2020-06-25T08:39:37Z</time>
</trkpt>
<trkpt lat="44.3730186" lon="3.7823517">
<ele>1259.11</ele>
<time>2020-06-25T08:39:45Z</time>
</trkpt>
<trkpt lat="44.3729181" lon="3.7825854">
<ele>1259.49</ele>
<time>2020-06-25T08:39:52Z</time>
</trkpt>
<trkpt lat="44.3728141" lon="3.7827908">
<ele>1260.94</ele>
<time>2020-06-25T08:39:59Z</time>
</trkpt>
<trkpt lat="44.3727209" lon="3.7830347">
<ele>1261.99</ele>
<time>2020-06-25T08:40:07Z</time>
</trkpt>
<trkpt lat="44.3726510" lon="3.7833008">
<ele>1262.09</ele>
<time>2020-06-25T08:40:15Z</time>
</trkpt>
<trkpt lat="44.3725821" lon="3.7835398">
<ele>1262.24</ele>
<time>2020-06-25T08:40:22Z</time>
</trkpt>
<trkpt lat="44.3724833" lon="3.7837678">
<ele>1262.85</ele>
<time>2020-06-25T08:40:30Z</time>
</trkpt>
<trkpt lat="44.3723848" lon="3.7839814">
<ele>1264.32</ele>
<time>2020-06-25T08:40:38Z</time>
</trkpt>
<trkpt lat="44.3723382" lon="3.7842262">
<ele>1264.16</ele>
<time>2020-06-25T08:40:47Z</time>
</trkpt>
<trkpt lat="44.3723244" lon="3.7844908">
<ele>1263.83</ele>
<time>2020-06-25T08:40:55Z</time>
</trkpt>
<trkpt lat="44.3723154" lon="3.7847804">
<ele>1263.23</ele>
<time>2020-06-25T08:41:03Z</time>
</trkpt>
<trkpt lat="44.3723004" lon="3.7850533">
<ele>1263.55</ele>
<time>2020-06-25T08:41:10Z</time>
</trkpt>
<trkpt lat="44.3722726" lon="3.7853218">
<ele>1264.02</ele>
<time>2020-06-25T08:41:18Z</time>
</trkpt>
<trkpt lat="44.3721933" lon="3.7855586">
<ele>1269.92</ele>
<time>2020-06-25T08:42:06Z</time>
</trkpt>
<trkpt lat="44.3721417" lon="3.7858347">
<ele>1269.73</ele>
<time>2020-06-25T08:42:12Z</time>
</trkpt>
<trkpt lat="44.3720933" lon="3.7860804">
<ele>1269.66</ele>
<time>2020-06-25T08:42:17Z</time>
</trkpt>
<trkpt lat="44.3720530" lon="3.7863735">
<ele>1269.96</ele>
<time>2020-06-25T08:42:23Z</time>
</trkpt>
<trkpt lat="44.3720155" lon="3.7866545">
<ele>1270.32</ele>
<time>2020-06-25T08:42:29Z</time>
</trkpt>
<trkpt lat="44.3719879" lon="3.7869188">
<ele>1270.43</ele>
<time>2020-06-25T08:43:00Z</time>
</trkpt>
<trkpt lat="44.3719773" lon="3.7871843">
<ele>1270.23</ele>
<time>2020-06-25T08:43:07Z</time>
</trkpt>
<trkpt lat="44.3719651" lon="3.7874533">
<ele>1276.12</ele>
<time>2020-06-25T08:44:35Z</time>
</trkpt>
<trkpt lat="44.3719970" lon="3.7877065">
<ele>1274.35</ele>
<time>2020-06-25T08:44:40Z</time>
</trkpt>
<trkpt lat="44.3720245" lon="3.7880056">
<ele>1274.25</ele>
<time>2020-06-25T08:44:46Z</time>
</trkpt>
<trkpt lat="44.3720776" lon="3.7882931">
<ele>1274.41</ele>
<time>2020-06-25T08:44:51Z</time>
</trkpt>
<trkpt lat="44.3721550" lon="3.7885291">
<ele>1274.76</ele>
<time>2020-06-25T08:44:55Z</time>
</trkpt>
<trkpt lat="44.3722654" lon="3.7887587">
<ele>1275.14</ele>
<time>2020-06-25T08:44:59Z</time>
</trkpt>
<trkpt lat="44.3724091" lon="3.7889605">
<ele>1274.45</ele>
<time>2020-06-25T08:45:03Z</time>
</trkpt>
<trkpt lat="44.3725551" lon="3.7891688">
<ele>1273.00</ele>
<time>2020-06-25T08:45:07Z</time>
</trkpt>
<trkpt lat="44.3727199" lon="3.7893786">
<ele>1272.53</ele>
<time>2020-06-25T08:45:11Z</time>
</trkpt>
<trkpt lat="44.3728672" lon="3.7895325">
<ele>1272.67</ele>
<time>2020-06-25T08:45:14Z</time>
</trkpt>
<trkpt lat="44.3730120" lon="3.7896941">
<ele>1271.13</ele>
<time>2020-06-25T08:45:17Z</time>
</trkpt>
<trkpt lat="44.3731403" lon="3.7898830">
<ele>1270.77</ele>
<time>2020-06-25T08:45:20Z</time>
</trkpt>
<trkpt lat="44.3732420" lon="3.7901035">
<ele>1269.41</ele>
<time>2020-06-25T08:45:23Z</time>
</trkpt>
<trkpt lat="44.3732500" lon="3.7904196">
<ele>1268.23</ele>
<time>2020-06-25T08:45:27Z</time>
</trkpt>
<trkpt lat="44.3731111" lon="3.7905859">
<ele>1269.45</ele>
<time>2020-06-25T08:51:47Z</time>
</trkpt>
<trkpt lat="44.3729080" lon="3.7906155">
<ele>1270.30</ele>
<time>2020-06-25T08:51:55Z</time>
</trkpt>
<trkpt lat="44.3727249" lon="3.7906516">
<ele>1271.63</ele>
<time>2020-06-25T08:52:02Z</time>
</trkpt>
<trkpt lat="44.3725379" lon="3.7906295">
<ele>1271.65</ele>
<time>2020-06-25T08:52:08Z</time>
</trkpt>
<trkpt lat="44.3723527" lon="3.7906357">
<ele>1271.07</ele>
<time>2020-06-25T08:52:14Z</time>
</trkpt>
<trkpt lat="44.3721752" lon="3.7905864">
<ele>1270.61</ele>
<time>2020-06-25T08:52:19Z</time>
</trkpt>
<trkpt lat="44.3719804" lon="3.7905950">
<ele>1270.28</ele>
<time>2020-06-25T08:52:25Z</time>
</trkpt>
<trkpt lat="44.3717965" lon="3.7906005">
<ele>1270.68</ele>
<time>2020-06-25T08:52:30Z</time>
</trkpt>
<trkpt lat="44.3716093" lon="3.7906860">
<ele>1271.75</ele>
<time>2020-06-25T08:52:36Z</time>
</trkpt>
<trkpt lat="44.3714847" lon="3.7908878">
<ele>1271.90</ele>
<time>2020-06-25T08:52:43Z</time>
</trkpt>
<trkpt lat="44.3715958" lon="3.7911213">
<ele>1270.21</ele>
<time>2020-06-25T08:52:53Z</time>
</trkpt>
<trkpt lat="44.3716930" lon="3.7913624">
<ele>1270.28</ele>
<time>2020-06-25T08:53:25Z</time>
</trkpt>
<trkpt lat="44.3717386" lon="3.7916092">
<ele>1270.19</ele>
<time>2020-06-25T08:53:30Z</time>
</trkpt>
<trkpt lat="44.3717193" lon="3.7918850">
<ele>1268.97</ele>
<time>2020-06-25T08:53:35Z</time>
</trkpt>
<trkpt lat="44.3716588" lon="3.7921457">
<ele>1268.54</ele>
<time>2020-06-25T08:53:40Z</time>
</trkpt>
<trkpt lat="44.3715813" lon="3.7923761">
<ele>1268.35</ele>
<time>2020-06-25T08:53:45Z</time>
</trkpt>
<trkpt lat="44.3714980" lon="3.7926109">
<ele>1267.82</ele>
<time>2020-06-25T08:53:51Z</time>
</trkpt>
<trkpt lat="44.3714717" lon="3.7928671">
<ele>1265.79</ele>
<time>2020-06-25T08:54:10Z</time>
</trkpt>
<trkpt lat="44.3715227" lon="3.7931137">
<ele>1266.63</ele>
<time>2020-06-25T08:54:18Z</time>
</trkpt>
<trkpt lat="44.3714986" lon="3.7933801">
<ele>1268.78</ele>
<time>2020-06-25T08:54:22Z</time>
</trkpt>
<trkpt lat="44.3714833" lon="3.7936374">
<ele>1267.45</ele>
<time>2020-06-25T08:54:30Z</time>
</trkpt>
<trkpt lat="44.3715045" lon="3.7939172">
<ele>1266.98</ele>
<time>2020-06-25T08:54:34Z</time>
</trkpt>
<trkpt lat="44.3715300" lon="3.7941742">
<ele>1271.36</ele>
<time>2020-06-25T08:54:41Z</time>
</trkpt>
<trkpt lat="44.3715472" lon="3.7944322">
<ele>1276.24</ele>
<time>2020-06-25T08:54:53Z</time>
</trkpt>
<trkpt lat="44.3716240" lon="3.7946732">
<ele>1274.95</ele>
<time>2020-06-25T08:54:59Z</time>
</trkpt>
<trkpt lat="44.3717179" lon="3.7949119">
<ele>1275.98</ele>
<time>2020-06-25T08:55:06Z</time>
</trkpt>
<trkpt lat="44.3718236" lon="3.7951262">
<ele>1275.01</ele>
<time>2020-06-25T08:55:13Z</time>
</trkpt>
<trkpt lat="44.3719055" lon="3.7953525">
<ele>1274.35</ele>
<time>2020-06-25T08:55:20Z</time>
</trkpt>
<trkpt lat="44.3719976" lon="3.7955755">
<ele>1272.48</ele>
<time>2020-06-25T08:55:26Z</time>
</trkpt>
<trkpt lat="44.3720111" lon="3.7958374">
<ele>1275.35</ele>
<time>2020-06-25T08:55:37Z</time>
</trkpt>
<trkpt lat="44.3719248" lon="3.7960769">
<ele>1267.55</ele>
<time>2020-06-25T08:55:48Z</time>
</trkpt>
<trkpt lat="44.3718206" lon="3.7962851">
<ele>1268.69</ele>
<time>2020-06-25T09:00:46Z</time>
</trkpt>
<trkpt lat="44.3716364" lon="3.7962849">
<ele>1267.82</ele>
<time>2020-06-25T09:04:27Z</time>
</trkpt>
<trkpt lat="44.3715281" lon="3.7960752">
<ele>1275.40</ele>
<time>2020-06-25T09:10:23Z</time>
</trkpt>
<trkpt lat="44.3714419" lon="3.7958533">
<ele>1273.72</ele>
<time>2020-06-25T09:12:07Z</time>
</trkpt>
<trkpt lat="44.3712885" lon="3.7957079">
<ele>1271.73</ele>
<time>2020-06-25T09:15:09Z</time>
</trkpt>
<trkpt lat="44.3711614" lon="3.7958996">
<ele>1272.64</ele>
<time>2020-06-25T09:15:38Z</time>
</trkpt>
<trkpt lat="44.3709804" lon="3.7959239">
<ele>1274.33</ele>
<time>2020-06-25T09:16:37Z</time>
</trkpt>
<trkpt lat="44.3708275" lon="3.7957839">
<ele>1275.82</ele>
<time>2020-06-25T09:16:48Z</time>
</trkpt>
<trkpt lat="44.3706642" lon="3.7958998">
<ele>1275.04</ele>
<time>2020-06-25T09:18:05Z</time>
</trkpt>
<trkpt lat="44.3706070" lon="3.7961499">
<ele>1277.41</ele>
<time>2020-06-25T09:18:14Z</time>
</trkpt>
<trkpt lat="44.3704557" lon="3.7963539">
<ele>1277.08</ele>
<time>2020-06-25T09:18:22Z</time>
</trkpt>
<trkpt lat="44.3703834" lon="3.7965913">
<ele>1277.07</ele>
<time>2020-06-25T09:18:51Z</time>
</trkpt>
<trkpt lat="44.3703372" lon="3.7968419">
<ele>1285.07</ele>
<time>2020-06-25T09:19:05Z</time>
</trkpt>
<trkpt lat="44.3703561" lon="3.7970922">
<ele>1284.95</ele>
<time>2020-06-25T09:19:13Z</time>
</trkpt>
<trkpt lat="44.3703837" lon="3.7973532">
<ele>1287.10</ele>
<time>2020-06-25T09:19:23Z</time>
</trkpt>
<trkpt lat="44.3703314" lon="3.7975973">
<ele>1289.82</ele>
<time>2020-06-25T09:19:36Z</time>
</trkpt>
<trkpt lat="44.3702779" lon="3.7978569">
<ele>1285.90</ele>
<time>2020-06-25T09:20:06Z</time>
</trkpt>
<trkpt lat="44.3701652" lon="3.7980531">
<ele>1296.73</ele>
<time>2020-06-25T09:20:38Z</time>
</trkpt>
<trkpt lat="44.3700884" lon="3.7982841">
<ele>1299.03</ele>
<time>2020-06-25T09:21:01Z</time>
</trkpt>
<trkpt lat="44.3700829" lon="3.7985647">
<ele>1300.23</ele>
<time>2020-06-25T09:21:11Z</time>
</trkpt>
<trkpt lat="44.3701001" lon="3.7988213">
<ele>1301.23</ele>
<time>2020-06-25T09:21:20Z</time>
</trkpt>
<trkpt lat="44.3699856" lon="3.7990178">
<ele>1303.99</ele>
<time>2020-06-25T09:21:43Z</time>
</trkpt>
<trkpt lat="44.3698768" lon="3.7992198">
<ele>1304.47</ele>
<time>2020-06-25T09:22:13Z</time>
</trkpt>
<trkpt lat="44.3698344" lon="3.7994737">
<ele>1308.52</ele>
<time>2020-06-25T09:22:24Z</time>
</trkpt>
<trkpt lat="44.3698290" lon="3.7997354">
<ele>1315.62</ele>
<time>2020-06-25T09:23:04Z</time>
</trkpt>
<trkpt lat="44.3697756" lon="3.7999800">
<ele>1313.35</ele>
<time>2020-06-25T09:23:15Z</time>
</trkpt>
<trkpt lat="44.3698592" lon="3.8002217">
<ele>1314.36</ele>
<time>2020-06-25T09:25:17Z</time>
</trkpt>
<trkpt lat="44.3699455" lon="3.8004563">
<ele>1315.99</ele>
<time>2020-06-25T09:25:35Z</time>
</trkpt>
<trkpt lat="44.3700549" lon="3.8006565">
<ele>1317.71</ele>
<time>2020-06-25T09:25:44Z</time>
</trkpt>
<trkpt lat="44.3701443" lon="3.8008996">
<ele>1318.63</ele>
<time>2020-06-25T09:25:50Z</time>
</trkpt>
<trkpt lat="44.3702677" lon="3.8011072">
<ele>1321.96</ele>
<time>2020-06-25T09:25:56Z</time>
</trkpt>
<trkpt lat="44.3703902" lon="3.8013361">
<ele>1319.24</ele>
<time>2020-06-25T09:26:02Z</time>
</trkpt>
<trkpt lat="44.3705358" lon="3.8014963">
<ele>1318.80</ele>
<time>2020-06-25T09:26:06Z</time>
</trkpt>
<trkpt lat="44.3706768" lon="3.8016843">
<ele>1318.36</ele>
<time>2020-06-25T09:26:14Z</time>
</trkpt>
<trkpt lat="44.3707985" lon="3.8018789">
<ele>1317.78</ele>
<time>2020-06-25T09:26:21Z</time>
</trkpt>
<trkpt lat="44.3709385" lon="3.8020655">
<ele>1318.65</ele>
<time>2020-06-25T09:26:34Z</time>
</trkpt>
<trkpt lat="44.3710844" lon="3.8022554">
<ele>1320.63</ele>
<time>2020-06-25T09:26:42Z</time>
</trkpt>
<trkpt lat="44.3711939" lon="3.8024924">
<ele>1321.01</ele>
<time>2020-06-25T09:26:49Z</time>
</trkpt>
<trkpt lat="44.3712972" lon="3.8027307">
<ele>1321.48</ele>
<time>2020-06-25T09:26:56Z</time>
</trkpt>
<trkpt lat="44.3713922" lon="3.8029594">
<ele>1320.53</ele>
<time>2020-06-25T09:27:04Z</time>
</trkpt>
<trkpt lat="44.3714815" lon="3.8032222">
<ele>1322.25</ele>
<time>2020-06-25T09:27:11Z</time>
</trkpt>
<trkpt lat="44.3715110" lon="3.8034731">
<ele>1320.04</ele>
<time>2020-06-25T09:27:19Z</time>
</trkpt>
<trkpt lat="44.3716260" lon="3.8036767">
<ele>1317.87</ele>
<time>2020-06-25T09:27:36Z</time>
</trkpt>
<trkpt lat="44.3717540" lon="3.8038826">
<ele>1317.72</ele>
<time>2020-06-25T09:28:37Z</time>
</trkpt>
<trkpt lat="44.3718280" lon="3.8041145">
<ele>1319.12</ele>
<time>2020-06-25T09:28:45Z</time>
</trkpt>
<trkpt lat="44.3719008" lon="3.8043742">
<ele>1321.24</ele>
<time>2020-06-25T09:28:53Z</time>
</trkpt>
<trkpt lat="44.3718908" lon="3.8046356">
<ele>1322.11</ele>
<time>2020-06-25T09:29:01Z</time>
</trkpt>
<trkpt lat="44.3719432" lon="3.8049066">
<ele>1321.88</ele>
<time>2020-06-25T09:29:09Z</time>
</trkpt>
<trkpt lat="44.3719873" lon="3.8051610">
<ele>1322.74</ele>
<time>2020-06-25T09:29:17Z</time>
</trkpt>
<trkpt lat="44.3720507" lon="3.8054010">
<ele>1323.12</ele>
<time>2020-06-25T09:29:26Z</time>
</trkpt>
<trkpt lat="44.3720961" lon="3.8056691">
<ele>1322.64</ele>
<time>2020-06-25T09:29:45Z</time>
</trkpt>
<trkpt lat="44.3720578" lon="3.8059257">
<ele>1329.58</ele>
<time>2020-06-25T09:30:28Z</time>
</trkpt>
<trkpt lat="44.3719345" lon="3.8061185">
<ele>1328.15</ele>
<time>2020-06-25T09:31:04Z</time>
</trkpt>
<trkpt lat="44.3720524" lon="3.8063126">
<ele>1326.56</ele>
<time>2020-06-25T09:33:14Z</time>
</trkpt>
<trkpt lat="44.3719759" lon="3.8063992">
<ele>1277.98</ele>
<time>2020-06-25T09:59:48Z</time>
</trkpt>
<trkpt lat="44.3718329" lon="3.8065778">
<ele>1326.37</ele>
<time>2020-06-25T10:04:30Z</time>
</trkpt>
<trkpt lat="44.3717354" lon="3.8068222">
<ele>1325.91</ele>
<time>2020-06-25T10:04:37Z</time>
</trkpt>
<trkpt lat="44.3715812" lon="3.8070158">
<ele>1325.09</ele>
<time>2020-06-25T10:04:45Z</time>
</trkpt>
<trkpt lat="44.3714178" lon="3.8071763">
<ele>1324.31</ele>
<time>2020-06-25T10:04:52Z</time>
</trkpt>
<trkpt lat="44.3713048" lon="3.8073753">
<ele>1322.15</ele>
<time>2020-06-25T10:04:58Z</time>
</trkpt>
<trkpt lat="44.3712260" lon="3.8076039">
<ele>1324.32</ele>
<time>2020-06-25T10:05:04Z</time>
</trkpt>
<trkpt lat="44.3712004" lon="3.8078556">
<ele>1323.72</ele>
<time>2020-06-25T10:05:27Z</time>
</trkpt>
<trkpt lat="44.3710844" lon="3.8080481">
<ele>1324.24</ele>
<time>2020-06-25T10:05:57Z</time>
</trkpt>
<trkpt lat="44.3709788" lon="3.8082772">
<ele>1323.79</ele>
<time>2020-06-25T10:06:06Z</time>
</trkpt>
<trkpt lat="44.3708755" lon="3.8084967">
<ele>1322.96</ele>
<time>2020-06-25T10:06:25Z</time>
</trkpt>
<trkpt lat="44.3707359" lon="3.8086762">
<ele>1324.10</ele>
<time>2020-06-25T10:06:36Z</time>
</trkpt>
<trkpt lat="44.3705800" lon="3.8088458">
<ele>1322.59</ele>
<time>2020-06-25T10:06:45Z</time>
</trkpt>
<trkpt lat="44.3704280" lon="3.8090061">
<ele>1322.52</ele>
<time>2020-06-25T10:06:55Z</time>
</trkpt>
<trkpt lat="44.3702628" lon="3.8091086">
<ele>1322.54</ele>
<time>2020-06-25T10:07:20Z</time>
</trkpt>
<trkpt lat="44.3701037" lon="3.8092533">
<ele>1322.48</ele>
<time>2020-06-25T10:07:42Z</time>
</trkpt>
<trkpt lat="44.3701610" lon="3.8094988">
<ele>1323.58</ele>
<time>2020-06-25T10:09:20Z</time>
</trkpt>
<trkpt lat="44.3701326" lon="3.8097699">
<ele>1326.01</ele>
<time>2020-06-25T10:09:31Z</time>
</trkpt>
<trkpt lat="44.3701166" lon="3.8100256">
<ele>1325.33</ele>
<time>2020-06-25T10:09:39Z</time>
</trkpt>
<trkpt lat="44.3700743" lon="3.8103086">
<ele>1324.42</ele>
<time>2020-06-25T10:09:46Z</time>
</trkpt>
<trkpt lat="44.3700511" lon="3.8105989">
<ele>1324.47</ele>
<time>2020-06-25T10:09:53Z</time>
</trkpt>
<trkpt lat="44.3701006" lon="3.8108517">
<ele>1326.76</ele>
<time>2020-06-25T10:09:59Z</time>
</trkpt>
<trkpt lat="44.3700855" lon="3.8111078">
<ele>1326.30</ele>
<time>2020-06-25T10:10:06Z</time>
</trkpt>
<trkpt lat="44.3700485" lon="3.8113709">
<ele>1326.56</ele>
<time>2020-06-25T10:10:13Z</time>
</trkpt>
<trkpt lat="44.3699883" lon="3.8116110">
<ele>1328.51</ele>
<time>2020-06-25T10:10:21Z</time>
</trkpt>
<trkpt lat="44.3699558" lon="3.8118870">
<ele>1327.18</ele>
<time>2020-06-25T10:10:30Z</time>
</trkpt>
<trkpt lat="44.3698961" lon="3.8121431">
<ele>1323.97</ele>
<time>2020-06-25T10:10:38Z</time>
</trkpt>
<trkpt lat="44.3697052" lon="3.8122200">
<ele>1323.67</ele>
<time>2020-06-25T10:10:45Z</time>
</trkpt>
<trkpt lat="44.3695306" lon="3.8122903">
<ele>1323.20</ele>
<time>2020-06-25T10:10:52Z</time>
</trkpt>
<trkpt lat="44.3693821" lon="3.8124661">
<ele>1323.50</ele>
<time>2020-06-25T10:11:00Z</time>
</trkpt>
<trkpt lat="44.3692014" lon="3.8125815">
<ele>1325.29</ele>
<time>2020-06-25T10:11:08Z</time>
</trkpt>
<trkpt lat="44.3690452" lon="3.8127521">
<ele>1326.21</ele>
<time>2020-06-25T10:11:22Z</time>
</trkpt>
<trkpt lat="44.3688820" lon="3.8128598">
<ele>1326.17</ele>
<time>2020-06-25T10:11:30Z</time>
</trkpt>
<trkpt lat="44.3687465" lon="3.8130393">
<ele>1326.12</ele>
<time>2020-06-25T10:11:40Z</time>
</trkpt>
<trkpt lat="44.3686351" lon="3.8132618">
<ele>1325.59</ele>
<time>2020-06-25T10:11:49Z</time>
</trkpt>
<trkpt lat="44.3684737" lon="3.8133934">
<ele>1326.90</ele>
<time>2020-06-25T10:12:01Z</time>
</trkpt>
<trkpt lat="44.3683638" lon="3.8136061">
<ele>1326.26</ele>
<time>2020-06-25T10:12:22Z</time>
</trkpt>
<trkpt lat="44.3683081" lon="3.8138596">
<ele>1329.12</ele>
<time>2020-06-25T10:13:09Z</time>
</trkpt>
<trkpt lat="44.3683122" lon="3.8141352">
<ele>1330.39</ele>
<time>2020-06-25T10:13:19Z</time>
</trkpt>
<trkpt lat="44.3683280" lon="3.8143919">
<ele>1330.55</ele>
<time>2020-06-25T10:13:30Z</time>
</trkpt>
<trkpt lat="44.3683039" lon="3.8146638">
<ele>1328.45</ele>
<time>2020-06-25T10:13:41Z</time>
</trkpt>
<trkpt lat="44.3684375" lon="3.8148633">
<ele>1325.55</ele>
<time>2020-06-25T10:13:54Z</time>
</trkpt>
<trkpt lat="44.3685792" lon="3.8150411">
<ele>1325.52</ele>
<time>2020-06-25T10:14:05Z</time>
</trkpt>
<trkpt lat="44.3687190" lon="3.8152093">
<ele>1322.73</ele>
<time>2020-06-25T10:16:46Z</time>
</trkpt>
<trkpt lat="44.3688788" lon="3.8153644">
<ele>1323.85</ele>
<time>2020-06-25T10:16:56Z</time>
</trkpt>
<trkpt lat="44.3690821" lon="3.8154356">
<ele>1325.18</ele>
<time>2020-06-25T10:17:01Z</time>
</trkpt>
<trkpt lat="44.3692782" lon="3.8155691">
<ele>1326.22</ele>
<time>2020-06-25T10:17:07Z</time>
</trkpt>
<trkpt lat="44.3694716" lon="3.8156595">
<ele>1326.39</ele>
<time>2020-06-25T10:17:12Z</time>
</trkpt>
<trkpt lat="44.3696529" lon="3.8157494">
<ele>1328.01</ele>
<time>2020-06-25T10:17:19Z</time>
</trkpt>
<trkpt lat="44.3698222" lon="3.8158435">
<ele>1327.31</ele>
<time>2020-06-25T10:17:23Z</time>
</trkpt>
<trkpt lat="44.3700077" lon="3.8159564">
<ele>1327.22</ele>
<time>2020-06-25T10:17:31Z</time>
</trkpt>
<trkpt lat="44.3701815" lon="3.8160727">
<ele>1327.14</ele>
<time>2020-06-25T10:17:37Z</time>
</trkpt>
<trkpt lat="44.3703266" lon="3.8162275">
<ele>1327.21</ele>
<time>2020-06-25T10:17:43Z</time>
</trkpt>
<trkpt lat="44.3705170" lon="3.8163831">
<ele>1326.41</ele>
<time>2020-06-25T10:17:50Z</time>
</trkpt>
<trkpt lat="44.3706828" lon="3.8165172">
<ele>1326.79</ele>
<time>2020-06-25T10:17:56Z</time>
</trkpt>
<trkpt lat="44.3708543" lon="3.8165978">
<ele>1327.47</ele>
<time>2020-06-25T10:18:01Z</time>
</trkpt>
<trkpt lat="44.3710109" lon="3.8167758">
<ele>1327.45</ele>
<time>2020-06-25T10:18:07Z</time>
</trkpt>
<trkpt lat="44.3711437" lon="3.8169688">
<ele>1327.86</ele>
<time>2020-06-25T10:18:13Z</time>
</trkpt>
<trkpt lat="44.3712926" lon="3.8171416">
<ele>1327.58</ele>
<time>2020-06-25T10:18:20Z</time>
</trkpt>
<trkpt lat="44.3714284" lon="3.8173284">
<ele>1328.41</ele>
<time>2020-06-25T10:18:26Z</time>
</trkpt>
<trkpt lat="44.3715592" lon="3.8175355">
<ele>1328.67</ele>
<time>2020-06-25T10:18:32Z</time>
</trkpt>
<trkpt lat="44.3716854" lon="3.8177787">
<ele>1329.52</ele>
<time>2020-06-25T10:18:38Z</time>
</trkpt>
<trkpt lat="44.3717224" lon="3.8180321">
<ele>1329.29</ele>
<time>2020-06-25T10:18:43Z</time>
</trkpt>
<trkpt lat="44.3716903" lon="3.8183015">
<ele>1328.83</ele>
<time>2020-06-25T10:18:49Z</time>
</trkpt>
<trkpt lat="44.3716282" lon="3.8185429">
<ele>1328.02</ele>
<time>2020-06-25T10:18:54Z</time>
</trkpt>
<trkpt lat="44.3715093" lon="3.8187588">
<ele>1327.46</ele>
<time>2020-06-25T10:19:00Z</time>
</trkpt>
<trkpt lat="44.3714664" lon="3.8190321">
<ele>1326.45</ele>
<time>2020-06-25T10:19:08Z</time>
</trkpt>
<trkpt lat="44.3713999" lon="3.8192963">
<ele>1326.72</ele>
<time>2020-06-25T10:19:14Z</time>
</trkpt>
<trkpt lat="44.3713673" lon="3.8195795">
<ele>1326.66</ele>
<time>2020-06-25T10:19:21Z</time>
</trkpt>
<trkpt lat="44.3712830" lon="3.8198259">
<ele>1326.35</ele>
<time>2020-06-25T10:19:29Z</time>
</trkpt>
<trkpt lat="44.3712651" lon="3.8200786">
<ele>1327.81</ele>
<time>2020-06-25T10:20:16Z</time>
</trkpt>
<trkpt lat="44.3712924" lon="3.8203798">
<ele>1329.98</ele>
<time>2020-06-25T10:20:36Z</time>
</trkpt>
<trkpt lat="44.3713714" lon="3.8206149">
<ele>1329.43</ele>
<time>2020-06-25T10:20:41Z</time>
</trkpt>
<trkpt lat="44.3714737" lon="3.8208613">
<ele>1327.44</ele>
<time>2020-06-25T10:20:48Z</time>
</trkpt>
<trkpt lat="44.3715703" lon="3.8210845">
<ele>1328.17</ele>
<time>2020-06-25T10:20:56Z</time>
</trkpt>
<trkpt lat="44.3716671" lon="3.8213314">
<ele>1328.54</ele>
<time>2020-06-25T10:21:04Z</time>
</trkpt>
<trkpt lat="44.3717689" lon="3.8215752">
<ele>1330.52</ele>
<time>2020-06-25T10:21:10Z</time>
</trkpt>
<trkpt lat="44.3718901" lon="3.8217805">
<ele>1329.99</ele>
<time>2020-06-25T10:21:17Z</time>
</trkpt>
<trkpt lat="44.3720295" lon="3.8219466">
<ele>1330.26</ele>
<time>2020-06-25T10:21:36Z</time>
</trkpt>
<trkpt lat="44.3721820" lon="3.8221183">
<ele>1330.24</ele>
<time>2020-06-25T10:21:43Z</time>
</trkpt>
<trkpt lat="44.3723596" lon="3.8221871">
<ele>1328.31</ele>
<time>2020-06-25T10:22:17Z</time>
</trkpt>
<trkpt lat="44.3724710" lon="3.8223980">
<ele>1328.99</ele>
<time>2020-06-25T10:22:36Z</time>
</trkpt>
<trkpt lat="44.3725539" lon="3.8226282">
<ele>1329.27</ele>
<time>2020-06-25T10:22:44Z</time>
</trkpt>
<trkpt lat="44.3727526" lon="3.8226629">
<ele>1330.23</ele>
<time>2020-06-25T10:22:52Z</time>
</trkpt>
<trkpt lat="44.3729435" lon="3.8226598">
<ele>1331.41</ele>
<time>2020-06-25T10:22:58Z</time>
</trkpt>
<trkpt lat="44.3731454" lon="3.8226884">
<ele>1330.88</ele>
<time>2020-06-25T10:23:03Z</time>
</trkpt>
<trkpt lat="44.3733413" lon="3.8227118">
<ele>1331.09</ele>
<time>2020-06-25T10:23:08Z</time>
</trkpt>
<trkpt lat="44.3735492" lon="3.8227588">
<ele>1331.40</ele>
<time>2020-06-25T10:23:14Z</time>
</trkpt>
<trkpt lat="44.3737303" lon="3.8228107">
<ele>1333.12</ele>
<time>2020-06-25T10:23:21Z</time>
</trkpt>
<trkpt lat="44.3736140" lon="3.8226102">
<ele>1327.27</ele>
<time>2020-06-25T10:24:54Z</time>
</trkpt>
<trkpt lat="44.3737209" lon="3.8228261">
<ele>1329.08</ele>
<time>2020-06-25T10:25:35Z</time>
</trkpt>
<trkpt lat="44.3738866" lon="3.8229710">
<ele>1332.09</ele>
<time>2020-06-25T10:26:44Z</time>
</trkpt>
<trkpt lat="44.3740460" lon="3.8231069">
<ele>1332.69</ele>
<time>2020-06-25T10:26:51Z</time>
</trkpt>
<trkpt lat="44.3742186" lon="3.8232678">
<ele>1334.61</ele>
<time>2020-06-25T10:26:55Z</time>
</trkpt>
<trkpt lat="44.3743718" lon="3.8234368">
<ele>1334.85</ele>
<time>2020-06-25T10:27:01Z</time>
</trkpt>
<trkpt lat="44.3745139" lon="3.8236225">
<ele>1334.00</ele>
<time>2020-06-25T10:27:07Z</time>
</trkpt>
<trkpt lat="44.3747004" lon="3.8237657">
<ele>1337.05</ele>
<time>2020-06-25T10:27:13Z</time>
</trkpt>
<trkpt lat="44.3748633" lon="3.8239313">
<ele>1337.41</ele>
<time>2020-06-25T10:27:19Z</time>
</trkpt>
<trkpt lat="44.3750364" lon="3.8240823">
<ele>1337.91</ele>
<time>2020-06-25T10:27:26Z</time>
</trkpt>
<trkpt lat="44.3751781" lon="3.8242901">
<ele>1336.67</ele>
<time>2020-06-25T10:27:33Z</time>
</trkpt>
<trkpt lat="44.3753443" lon="3.8244753">
<ele>1336.80</ele>
<time>2020-06-25T10:27:39Z</time>
</trkpt>
<trkpt lat="44.3754933" lon="3.8246479">
<ele>1337.40</ele>
<time>2020-06-25T10:27:45Z</time>
</trkpt>
<trkpt lat="44.3756313" lon="3.8248153">
<ele>1338.39</ele>
<time>2020-06-25T10:27:51Z</time>
</trkpt>
<trkpt lat="44.3757384" lon="3.8250525">
<ele>1337.50</ele>
<time>2020-06-25T10:27:57Z</time>
</trkpt>
<trkpt lat="44.3758039" lon="3.8253173">
<ele>1337.74</ele>
<time>2020-06-25T10:28:03Z</time>
</trkpt>
<trkpt lat="44.3758123" lon="3.8255772">
<ele>1338.78</ele>
<time>2020-06-25T10:28:09Z</time>
</trkpt>
<trkpt lat="44.3757796" lon="3.8258710">
<ele>1341.03</ele>
<time>2020-06-25T10:28:15Z</time>
</trkpt>
<trkpt lat="44.3756935" lon="3.8261400">
<ele>1342.17</ele>
<time>2020-06-25T10:28:21Z</time>
</trkpt>
<trkpt lat="44.3755905" lon="3.8263957">
<ele>1342.42</ele>
<time>2020-06-25T10:28:26Z</time>
</trkpt>
<trkpt lat="44.3755246" lon="3.8266515">
<ele>1344.01</ele>
<time>2020-06-25T10:28:31Z</time>
</trkpt>
<trkpt lat="44.3754823" lon="3.8269135">
<ele>1346.15</ele>
<time>2020-06-25T10:28:36Z</time>
</trkpt>
<trkpt lat="44.3753997" lon="3.8271666">
<ele>1346.88</ele>
<time>2020-06-25T10:28:42Z</time>
</trkpt>
<trkpt lat="44.3752634" lon="3.8273601">
<ele>1346.85</ele>
<time>2020-06-25T10:28:46Z</time>
</trkpt>
<trkpt lat="44.3750971" lon="3.8275236">
<ele>1347.36</ele>
<time>2020-06-25T10:28:50Z</time>
</trkpt>
<trkpt lat="44.3749311" lon="3.8276423">
<ele>1345.97</ele>
<time>2020-06-25T10:28:55Z</time>
</trkpt>
<trkpt lat="44.3747330" lon="3.8277286">
<ele>1347.42</ele>
<time>2020-06-25T10:29:01Z</time>
</trkpt>
<trkpt lat="44.3745513" lon="3.8277785">
<ele>1348.51</ele>
<time>2020-06-25T10:29:07Z</time>
</trkpt>
<trkpt lat="44.3743496" lon="3.8278132">
<ele>1348.65</ele>
<time>2020-06-25T10:29:14Z</time>
</trkpt>
<trkpt lat="44.3741674" lon="3.8278809">
<ele>1347.67</ele>
<time>2020-06-25T10:29:19Z</time>
</trkpt>
<trkpt lat="44.3739830" lon="3.8280319">
<ele>1346.54</ele>
<time>2020-06-25T10:29:25Z</time>
</trkpt>
<trkpt lat="44.3738302" lon="3.8282331">
<ele>1345.52</ele>
<time>2020-06-25T10:29:31Z</time>
</trkpt>
<trkpt lat="44.3738017" lon="3.8285192">
<ele>1345.49</ele>
<time>2020-06-25T10:29:38Z</time>
</trkpt>
<trkpt lat="44.3738807" lon="3.8287495">
<ele>1346.64</ele>
<time>2020-06-25T10:29:44Z</time>
</trkpt>
<trkpt lat="44.3739817" lon="3.8289620">
<ele>1348.07</ele>
<time>2020-06-25T10:29:50Z</time>
</trkpt>
<trkpt lat="44.3741154" lon="3.8291818">
<ele>1348.15</ele>
<time>2020-06-25T10:29:57Z</time>
</trkpt>
<trkpt lat="44.3742466" lon="3.8293947">
<ele>1351.84</ele>
<time>2020-06-25T10:30:04Z</time>
</trkpt>
<trkpt lat="44.3743676" lon="3.8296148">
<ele>1350.87</ele>
<time>2020-06-25T10:30:11Z</time>
</trkpt>
<trkpt lat="44.3744799" lon="3.8298494">
<ele>1351.23</ele>
<time>2020-06-25T10:30:18Z</time>
</trkpt>
<trkpt lat="44.3745451" lon="3.8301049">
<ele>1352.18</ele>
<time>2020-06-25T10:30:26Z</time>
</trkpt>
<trkpt lat="44.3745997" lon="3.8303483">
<ele>1353.96</ele>
<time>2020-06-25T10:30:34Z</time>
</trkpt>
<trkpt lat="44.3746502" lon="3.8305974">
<ele>1354.57</ele>
<time>2020-06-25T10:30:40Z</time>
</trkpt>
<trkpt lat="44.3746610" lon="3.8308890">
<ele>1355.44</ele>
<time>2020-06-25T10:30:47Z</time>
</trkpt>
<trkpt lat="44.3746628" lon="3.8311470">
<ele>1357.36</ele>
<time>2020-06-25T10:30:54Z</time>
</trkpt>
<trkpt lat="44.3746468" lon="3.8314127">
<ele>1355.42</ele>
<time>2020-06-25T10:30:59Z</time>
</trkpt>
<trkpt lat="44.3746040" lon="3.8316617">
<ele>1357.05</ele>
<time>2020-06-25T10:31:04Z</time>
</trkpt>
<trkpt lat="44.3745433" lon="3.8319228">
<ele>1357.33</ele>
<time>2020-06-25T10:31:08Z</time>
</trkpt>
<trkpt lat="44.3744279" lon="3.8322215">
<ele>1357.89</ele>
<time>2020-06-25T10:31:13Z</time>
</trkpt>
<trkpt lat="44.3743126" lon="3.8324479">
<ele>1357.08</ele>
<time>2020-06-25T10:31:17Z</time>
</trkpt>
<trkpt lat="44.3741923" lon="3.8326988">
<ele>1356.63</ele>
<time>2020-06-25T10:31:21Z</time>
</trkpt>
<trkpt lat="44.3740799" lon="3.8329457">
<ele>1358.82</ele>
<time>2020-06-25T10:31:25Z</time>
</trkpt>
<trkpt lat="44.3739969" lon="3.8331961">
<ele>1359.74</ele>
<time>2020-06-25T10:31:29Z</time>
</trkpt>
<trkpt lat="44.3738995" lon="3.8334129">
<ele>1360.47</ele>
<time>2020-06-25T10:31:33Z</time>
</trkpt>
<trkpt lat="44.3737759" lon="3.8336010">
<ele>1359.63</ele>
<time>2020-06-25T10:31:37Z</time>
</trkpt>
<trkpt lat="44.3736460" lon="3.8338429">
<ele>1359.37</ele>
<time>2020-06-25T10:31:42Z</time>
</trkpt>
<trkpt lat="44.3735174" lon="3.8340611">
<ele>1359.88</ele>
<time>2020-06-25T10:31:47Z</time>
</trkpt>
<trkpt lat="44.3733789" lon="3.8342633">
<ele>1360.93</ele>
<time>2020-06-25T10:31:52Z</time>
</trkpt>
<trkpt lat="44.3732530" lon="3.8344666">
<ele>1362.17</ele>
<time>2020-06-25T10:31:58Z</time>
</trkpt>
<trkpt lat="44.3732345" lon="3.8347680">
<ele>1361.26</ele>
<time>2020-06-25T10:32:03Z</time>
</trkpt>
<trkpt lat="44.3733470" lon="3.8350196">
<ele>1360.13</ele>
<time>2020-06-25T10:32:09Z</time>
</trkpt>
<trkpt lat="44.3735182" lon="3.8351232">
<ele>1360.97</ele>
<time>2020-06-25T10:32:15Z</time>
</trkpt>
<trkpt lat="44.3736621" lon="3.8349350">
<ele>1361.51</ele>
<time>2020-06-25T10:32:20Z</time>
</trkpt>
<trkpt lat="44.3738369" lon="3.8348112">
<ele>1363.38</ele>
<time>2020-06-25T10:32:26Z</time>
</trkpt>
<trkpt lat="44.3740213" lon="3.8348069">
<ele>1364.11</ele>
<time>2020-06-25T10:32:32Z</time>
</trkpt>
<trkpt lat="44.3742353" lon="3.8348166">
<ele>1366.63</ele>
<time>2020-06-25T10:32:39Z</time>
</trkpt>
<trkpt lat="44.3744162" lon="3.8348442">
<ele>1366.45</ele>
<time>2020-06-25T10:32:44Z</time>
</trkpt>
<trkpt lat="44.3746130" lon="3.8349399">
<ele>1368.12</ele>
<time>2020-06-25T10:32:50Z</time>
</trkpt>
<trkpt lat="44.3747923" lon="3.8350748">
<ele>1368.14</ele>
<time>2020-06-25T10:32:56Z</time>
</trkpt>
<trkpt lat="44.3749557" lon="3.8351846">
<ele>1367.22</ele>
<time>2020-06-25T10:33:01Z</time>
</trkpt>
<trkpt lat="44.3751521" lon="3.8352878">
<ele>1367.33</ele>
<time>2020-06-25T10:33:07Z</time>
</trkpt>
<trkpt lat="44.3753445" lon="3.8354127">
<ele>1367.81</ele>
<time>2020-06-25T10:33:13Z</time>
</trkpt>
<trkpt lat="44.3754867" lon="3.8355675">
<ele>1368.98</ele>
<time>2020-06-25T10:33:18Z</time>
</trkpt>
<trkpt lat="44.3755642" lon="3.8357950">
<ele>1368.41</ele>
<time>2020-06-25T10:33:22Z</time>
</trkpt>
<trkpt lat="44.3756767" lon="3.8360776">
<ele>1367.79</ele>
<time>2020-06-25T10:33:26Z</time>
</trkpt>
<trkpt lat="44.3757464" lon="3.8363836">
<ele>1366.68</ele>
<time>2020-06-25T10:33:30Z</time>
</trkpt>
<trkpt lat="44.3757086" lon="3.8366685">
<ele>1367.04</ele>
<time>2020-06-25T10:33:34Z</time>
</trkpt>
<trkpt lat="44.3756256" lon="3.8369786">
<ele>1367.73</ele>
<time>2020-06-25T10:33:38Z</time>
</trkpt>
<trkpt lat="44.3756853" lon="3.8372835">
<ele>1365.90</ele>
<time>2020-06-25T10:33:42Z</time>
</trkpt>
<trkpt lat="44.3758254" lon="3.8374857">
<ele>1364.34</ele>
<time>2020-06-25T10:33:46Z</time>
</trkpt>
<trkpt lat="44.3759634" lon="3.8376801">
<ele>1365.13</ele>
<time>2020-06-25T10:33:50Z</time>
</trkpt>
<trkpt lat="44.3761159" lon="3.8379008">
<ele>1366.29</ele>
<time>2020-06-25T10:33:55Z</time>
</trkpt>
<trkpt lat="44.3762733" lon="3.8381032">
<ele>1368.36</ele>
<time>2020-06-25T10:34:01Z</time>
</trkpt>
<trkpt lat="44.3764697" lon="3.8382426">
<ele>1369.46</ele>
<time>2020-06-25T10:34:06Z</time>
</trkpt>
<trkpt lat="44.3766745" lon="3.8383477">
<ele>1369.82</ele>
<time>2020-06-25T10:34:11Z</time>
</trkpt>
<trkpt lat="44.3768772" lon="3.8384128">
<ele>1368.87</ele>
<time>2020-06-25T10:34:16Z</time>
</trkpt>
<trkpt lat="44.3770386" lon="3.8386019">
<ele>1370.09</ele>
<time>2020-06-25T10:34:21Z</time>
</trkpt>
<trkpt lat="44.3771041" lon="3.8388598">
<ele>1370.97</ele>
<time>2020-06-25T10:34:26Z</time>
</trkpt>
<trkpt lat="44.3770993" lon="3.8391310">
<ele>1373.60</ele>
<time>2020-06-25T10:34:31Z</time>
</trkpt>
<trkpt lat="44.3770484" lon="3.8393802">
<ele>1375.90</ele>
<time>2020-06-25T10:34:36Z</time>
</trkpt>
<trkpt lat="44.3769837" lon="3.8396279">
<ele>1378.00</ele>
<time>2020-06-25T10:34:41Z</time>
</trkpt>
<trkpt lat="44.3769064" lon="3.8398995">
<ele>1378.21</ele>
<time>2020-06-25T10:34:46Z</time>
</trkpt>
<trkpt lat="44.3767978" lon="3.8401548">
<ele>1376.29</ele>
<time>2020-06-25T10:34:51Z</time>
</trkpt>
<trkpt lat="44.3766552" lon="3.8403821">
<ele>1376.10</ele>
<time>2020-06-25T10:34:56Z</time>
</trkpt>
<trkpt lat="44.3765390" lon="3.8406337">
<ele>1377.09</ele>
<time>2020-06-25T10:35:01Z</time>
</trkpt>
<trkpt lat="44.3764294" lon="3.8408586">
<ele>1376.73</ele>
<time>2020-06-25T10:35:06Z</time>
</trkpt>
<trkpt lat="44.3765120" lon="3.8410973">
<ele>1376.27</ele>
<time>2020-06-25T10:35:17Z</time>
</trkpt>
<trkpt lat="44.3767237" lon="3.8412311">
<ele>1376.09</ele>
<time>2020-06-25T10:41:40Z</time>
</trkpt>
<trkpt lat="44.3769203" lon="3.8412644">
<ele>1376.43</ele>
<time>2020-06-25T10:41:44Z</time>
</trkpt>
<trkpt lat="44.3771284" lon="3.8412531">
<ele>1376.94</ele>
<time>2020-06-25T10:41:49Z</time>
</trkpt>
<trkpt lat="44.3773480" lon="3.8411954">
<ele>1377.19</ele>
<time>2020-06-25T10:41:54Z</time>
</trkpt>
<trkpt lat="44.3775813" lon="3.8411346">
<ele>1375.74</ele>
<time>2020-06-25T10:41:59Z</time>
</trkpt>
<trkpt lat="44.3777647" lon="3.8411119">
<ele>1375.73</ele>
<time>2020-06-25T10:42:03Z</time>
</trkpt>
<trkpt lat="44.3779595" lon="3.8411375">
<ele>1377.66</ele>
<time>2020-06-25T10:42:08Z</time>
</trkpt>
<trkpt lat="44.3781325" lon="3.8412644">
<ele>1378.49</ele>
<time>2020-06-25T10:42:13Z</time>
</trkpt>
<trkpt lat="44.3782433" lon="3.8415092">
<ele>1357.69</ele>
<time>2020-06-25T10:42:18Z</time>
</trkpt>
<trkpt lat="44.3782768" lon="3.8417951">
<ele>1359.39</ele>
<time>2020-06-25T10:42:23Z</time>
</trkpt>
<trkpt lat="44.3782998" lon="3.8420773">
<ele>1359.78</ele>
<time>2020-06-25T10:42:28Z</time>
</trkpt>
<trkpt lat="44.3784339" lon="3.8423139">
<ele>1359.58</ele>
<time>2020-06-25T10:42:33Z</time>
</trkpt>
<trkpt lat="44.3785685" lon="3.8425338">
<ele>1359.73</ele>
<time>2020-06-25T10:42:38Z</time>
</trkpt>
<trkpt lat="44.3786722" lon="3.8427452">
<ele>1358.47</ele>
<time>2020-06-25T10:42:43Z</time>
</trkpt>
<trkpt lat="44.3787809" lon="3.8429532">
<ele>1359.59</ele>
<time>2020-06-25T10:42:48Z</time>
</trkpt>
<trkpt lat="44.3788731" lon="3.8431772">
<ele>1360.86</ele>
<time>2020-06-25T10:42:53Z</time>
</trkpt>
<trkpt lat="44.3789537" lon="3.8434233">
<ele>1362.18</ele>
<time>2020-06-25T10:42:58Z</time>
</trkpt>
<trkpt lat="44.3789946" lon="3.8436692">
<ele>1363.15</ele>
<time>2020-06-25T10:43:03Z</time>
</trkpt>
<trkpt lat="44.3790289" lon="3.8439190">
<ele>1362.81</ele>
<time>2020-06-25T10:43:08Z</time>
</trkpt>
<trkpt lat="44.3791050" lon="3.8442158">
<ele>1363.74</ele>
<time>2020-06-25T10:43:14Z</time>
</trkpt>
<trkpt lat="44.3791828" lon="3.8444983">
<ele>1365.14</ele>
<time>2020-06-25T10:43:19Z</time>
</trkpt>
<trkpt lat="44.3792165" lon="3.8447592">
<ele>1385.18</ele>
<time>2020-06-25T10:43:25Z</time>
</trkpt>
<trkpt lat="44.3791933" lon="3.8450379">
<ele>1366.22</ele>
<time>2020-06-25T10:43:32Z</time>
</trkpt>
<trkpt lat="44.3791430" lon="3.8452808">
<ele>1368.99</ele>
<time>2020-06-25T10:43:38Z</time>
</trkpt>
<trkpt lat="44.3791475" lon="3.8455390">
<ele>1369.77</ele>
<time>2020-06-25T10:43:53Z</time>
</trkpt>
<trkpt lat="44.3791476" lon="3.8458317">
<ele>1369.61</ele>
<time>2020-06-25T10:44:00Z</time>
</trkpt>
<trkpt lat="44.3791687" lon="3.8461254">
<ele>1388.40</ele>
<time>2020-06-25T10:44:06Z</time>
</trkpt>
<trkpt lat="44.3791834" lon="3.8464302">
<ele>1354.30</ele>
<time>2020-06-25T10:44:13Z</time>
</trkpt>
<trkpt lat="44.3791533" lon="3.8467255">
<ele>1354.93</ele>
<time>2020-06-25T10:44:20Z</time>
</trkpt>
<trkpt lat="44.3790993" lon="3.8469922">
<ele>1356.39</ele>
<time>2020-06-25T10:44:27Z</time>
</trkpt>
<trkpt lat="44.3790266" lon="3.8472255">
<ele>1356.90</ele>
<time>2020-06-25T10:44:33Z</time>
</trkpt>
<trkpt lat="44.3789875" lon="3.8474948">
<ele>1368.68</ele>
<time>2020-06-25T10:44:38Z</time>
</trkpt>
<trkpt lat="44.3789813" lon="3.8477964">
<ele>1357.24</ele>
<time>2020-06-25T10:44:45Z</time>
</trkpt>
<trkpt lat="44.3789935" lon="3.8480524">
<ele>1359.56</ele>
<time>2020-06-25T10:44:50Z</time>
</trkpt>
<trkpt lat="44.3789973" lon="3.8483210">
<ele>1360.35</ele>
<time>2020-06-25T10:44:58Z</time>
</trkpt>
<trkpt lat="44.3789443" lon="3.8485958">
<ele>1398.41</ele>
<time>2020-06-25T10:45:03Z</time>
</trkpt>
<trkpt lat="44.3788555" lon="3.8488675">
<ele>1379.08</ele>
<time>2020-06-25T10:45:09Z</time>
</trkpt>
<trkpt lat="44.3787587" lon="3.8491575">
<ele>1399.21</ele>
<time>2020-06-25T10:45:16Z</time>
</trkpt>
<trkpt lat="44.3786728" lon="3.8493888">
<ele>1366.82</ele>
<time>2020-06-25T10:45:21Z</time>
</trkpt>
<trkpt lat="44.3785520" lon="3.8496354">
<ele>1382.65</ele>
<time>2020-06-25T10:45:27Z</time>
</trkpt>
<trkpt lat="44.3783847" lon="3.8498119">
<ele>1382.69</ele>
<time>2020-06-25T10:45:33Z</time>
</trkpt>
<trkpt lat="44.3782164" lon="3.8499431">
<ele>1382.59</ele>
<time>2020-06-25T10:45:38Z</time>
</trkpt>
<trkpt lat="44.3780528" lon="3.8500956">
<ele>1400.56</ele>
<time>2020-06-25T10:45:42Z</time>
</trkpt>
<trkpt lat="44.3778580" lon="3.8502648">
<ele>1382.06</ele>
<time>2020-06-25T10:45:46Z</time>
</trkpt>
<trkpt lat="44.3776576" lon="3.8504392">
<ele>1380.45</ele>
<time>2020-06-25T10:45:50Z</time>
</trkpt>
<trkpt lat="44.3774997" lon="3.8506108">
<ele>1380.57</ele>
<time>2020-06-25T10:45:54Z</time>
</trkpt>
<trkpt lat="44.3773247" lon="3.8507514">
<ele>1380.32</ele>
<time>2020-06-25T10:45:58Z</time>
</trkpt>
<trkpt lat="44.3771607" lon="3.8508635">
<ele>1380.86</ele>
<time>2020-06-25T10:46:02Z</time>
</trkpt>
<trkpt lat="44.3769794" lon="3.8509633">
<ele>1383.12</ele>
<time>2020-06-25T10:46:07Z</time>
</trkpt>
<trkpt lat="44.3767982" lon="3.8510513">
<ele>1367.97</ele>
<time>2020-06-25T10:46:12Z</time>
</trkpt>
<trkpt lat="44.3766285" lon="3.8512039">
<ele>1372.41</ele>
<time>2020-06-25T10:46:18Z</time>
</trkpt>
<trkpt lat="44.3764133" lon="3.8513330">
<ele>1369.84</ele>
<time>2020-06-25T10:46:25Z</time>
</trkpt>
<trkpt lat="44.3762273" lon="3.8514195">
<ele>1370.10</ele>
<time>2020-06-25T10:46:31Z</time>
</trkpt>
<trkpt lat="44.3760499" lon="3.8515189">
<ele>1371.29</ele>
<time>2020-06-25T10:46:36Z</time>
</trkpt>
<trkpt lat="44.3758644" lon="3.8516609">
<ele>1389.68</ele>
<time>2020-06-25T10:46:41Z</time>
</trkpt>
<trkpt lat="44.3756612" lon="3.8517770">
<ele>1390.65</ele>
<time>2020-06-25T10:46:46Z</time>
</trkpt>
<trkpt lat="44.3754727" lon="3.8518423">
<ele>1390.38</ele>
<time>2020-06-25T10:46:52Z</time>
</trkpt>
<trkpt lat="44.3754393" lon="3.8521168">
<ele>1406.90</ele>
<time>2020-06-25T10:47:56Z</time>
</trkpt>
<trkpt lat="44.3754082" lon="3.8523692">
<ele>1366.78</ele>
<time>2020-06-25T10:50:13Z</time>
</trkpt>
<trkpt lat="44.3753987" lon="3.8522507">
<ele>1406.81</ele>
<time>2020-06-25T11:38:46Z</time>
</trkpt>
<trkpt lat="44.3754095" lon="3.8519946">
<ele>1405.70</ele>
<time>2020-06-25T11:44:36Z</time>
</trkpt>
<trkpt lat="44.3755556" lon="3.8518352">
<ele>1406.52</ele>
<time>2020-06-25T11:44:46Z</time>
</trkpt>
<trkpt lat="44.3753742" lon="3.8517768">
<ele>1405.31</ele>
<time>2020-06-25T11:46:10Z</time>
</trkpt>
<trkpt lat="44.3751871" lon="3.8518009">
<ele>1406.06</ele>
<time>2020-06-25T11:46:18Z</time>
</trkpt>
<trkpt lat="44.3750033" lon="3.8517925">
<ele>1406.98</ele>
<time>2020-06-25T11:46:26Z</time>
</trkpt>
<trkpt lat="44.3748403" lon="3.8516686">
<ele>1407.61</ele>
<time>2020-06-25T11:46:34Z</time>
</trkpt>
<trkpt lat="44.3746743" lon="3.8515495">
<ele>1407.80</ele>
<time>2020-06-25T11:46:42Z</time>
</trkpt>
<trkpt lat="44.3745438" lon="3.8513444">
<ele>1407.57</ele>
<time>2020-06-25T11:46:52Z</time>
</trkpt>
<trkpt lat="44.3744238" lon="3.8511329">
<ele>1407.40</ele>
<time>2020-06-25T11:47:01Z</time>
</trkpt>
<trkpt lat="44.3743100" lon="3.8509030">
<ele>1408.20</ele>
<time>2020-06-25T11:47:11Z</time>
</trkpt>
<trkpt lat="44.3741580" lon="3.8507496">
<ele>1408.62</ele>
<time>2020-06-25T11:47:20Z</time>
</trkpt>
<trkpt lat="44.3739986" lon="3.8506177">
<ele>1409.05</ele>
<time>2020-06-25T11:47:29Z</time>
</trkpt>
<trkpt lat="44.3738406" lon="3.8504961">
<ele>1409.50</ele>
<time>2020-06-25T11:47:37Z</time>
</trkpt>
<trkpt lat="44.3737181" lon="3.8503103">
<ele>1409.65</ele>
<time>2020-06-25T11:47:45Z</time>
</trkpt>
<trkpt lat="44.3735951" lon="3.8500988">
<ele>1409.14</ele>
<time>2020-06-25T11:47:54Z</time>
</trkpt>
<trkpt lat="44.3734151" lon="3.8501537">
<ele>1408.91</ele>
<time>2020-06-25T11:48:03Z</time>
</trkpt>
<trkpt lat="44.3733738" lon="3.8504304">
<ele>1410.02</ele>
<time>2020-06-25T11:48:09Z</time>
</trkpt>
<trkpt lat="44.3733833" lon="3.8506898">
<ele>1409.65</ele>
<time>2020-06-25T11:48:13Z</time>
</trkpt>
<trkpt lat="44.3733923" lon="3.8509514">
<ele>1409.07</ele>
<time>2020-06-25T11:48:17Z</time>
</trkpt>
<trkpt lat="44.3733906" lon="3.8512402">
<ele>1408.92</ele>
<time>2020-06-25T11:48:21Z</time>
</trkpt>
<trkpt lat="44.3733512" lon="3.8515430">
<ele>1408.37</ele>
<time>2020-06-25T11:48:25Z</time>
</trkpt>
<trkpt lat="44.3732945" lon="3.8518497">
<ele>1409.44</ele>
<time>2020-06-25T11:48:29Z</time>
</trkpt>
<trkpt lat="44.3732745" lon="3.8521200">
<ele>1409.76</ele>
<time>2020-06-25T11:48:33Z</time>
</trkpt>
<trkpt lat="44.3732456" lon="3.8523760">
<ele>1410.88</ele>
<time>2020-06-25T11:48:37Z</time>
</trkpt>
<trkpt lat="44.3731540" lon="3.8525969">
<ele>1412.72</ele>
<time>2020-06-25T11:48:41Z</time>
</trkpt>
<trkpt lat="44.3729996" lon="3.8528195">
<ele>1412.19</ele>
<time>2020-06-25T11:48:46Z</time>
</trkpt>
<trkpt lat="44.3728357" lon="3.8529731">
<ele>1410.98</ele>
<time>2020-06-25T11:48:50Z</time>
</trkpt>
<trkpt lat="44.3726478" lon="3.8530771">
<ele>1410.12</ele>
<time>2020-06-25T11:48:54Z</time>
</trkpt>
<trkpt lat="44.3724462" lon="3.8530985">
<ele>1409.97</ele>
<time>2020-06-25T11:48:58Z</time>
</trkpt>
<trkpt lat="44.3722501" lon="3.8530503">
<ele>1408.31</ele>
<time>2020-06-25T11:49:03Z</time>
</trkpt>
<trkpt lat="44.3720706" lon="3.8529815">
<ele>1410.20</ele>
<time>2020-06-25T11:49:09Z</time>
</trkpt>
<trkpt lat="44.3718980" lon="3.8528688">
<ele>1412.09</ele>
<time>2020-06-25T11:49:15Z</time>
</trkpt>
<trkpt lat="44.3717326" lon="3.8527197">
<ele>1413.94</ele>
<time>2020-06-25T11:49:22Z</time>
</trkpt>
<trkpt lat="44.3716324" lon="3.8524967">
<ele>1413.77</ele>
<time>2020-06-25T11:49:29Z</time>
</trkpt>
<trkpt lat="44.3714515" lon="3.8524770">
<ele>1411.61</ele>
<time>2020-06-25T11:49:35Z</time>
</trkpt>
<trkpt lat="44.3714103" lon="3.8527689">
<ele>1413.24</ele>
<time>2020-06-25T11:49:40Z</time>
</trkpt>
<trkpt lat="44.3714406" lon="3.8530634">
<ele>1413.25</ele>
<time>2020-06-25T11:49:45Z</time>
</trkpt>
<trkpt lat="44.3714932" lon="3.8533269">
<ele>1411.90</ele>
<time>2020-06-25T11:49:52Z</time>
</trkpt>
<trkpt lat="44.3715991" lon="3.8535430">
<ele>1411.55</ele>
<time>2020-06-25T11:49:59Z</time>
</trkpt>
<trkpt lat="44.3717528" lon="3.8537119">
<ele>1411.98</ele>
<time>2020-06-25T11:50:04Z</time>
</trkpt>
<trkpt lat="44.3719062" lon="3.8539163">
<ele>1412.86</ele>
<time>2020-06-25T11:50:09Z</time>
</trkpt>
<trkpt lat="44.3720450" lon="3.8541323">
<ele>1414.22</ele>
<time>2020-06-25T11:50:14Z</time>
</trkpt>
<trkpt lat="44.3721891" lon="3.8543299">
<ele>1411.86</ele>
<time>2020-06-25T11:50:20Z</time>
</trkpt>
<trkpt lat="44.3723050" lon="3.8545705">
<ele>1411.87</ele>
<time>2020-06-25T11:50:27Z</time>
</trkpt>
<trkpt lat="44.3723753" lon="3.8548157">
<ele>1411.78</ele>
<time>2020-06-25T11:50:32Z</time>
</trkpt>
<trkpt lat="44.3723620" lon="3.8550764">
<ele>1411.55</ele>
<time>2020-06-25T11:50:36Z</time>
</trkpt>
<trkpt lat="44.3724060" lon="3.8553841">
<ele>1410.86</ele>
<time>2020-06-25T11:50:40Z</time>
</trkpt>
<trkpt lat="44.3724882" lon="3.8556409">
<ele>1410.45</ele>
<time>2020-06-25T11:50:44Z</time>
</trkpt>
<trkpt lat="44.3726010" lon="3.8558657">
<ele>1412.06</ele>
<time>2020-06-25T11:50:49Z</time>
</trkpt>
<trkpt lat="44.3727240" lon="3.8560586">
<ele>1412.10</ele>
<time>2020-06-25T11:50:54Z</time>
</trkpt>
<trkpt lat="44.3729095" lon="3.8562308">
<ele>1412.72</ele>
<time>2020-06-25T11:50:59Z</time>
</trkpt>
<trkpt lat="44.3730798" lon="3.8563747">
<ele>1414.29</ele>
<time>2020-06-25T11:51:04Z</time>
</trkpt>
<trkpt lat="44.3732818" lon="3.8565075">
<ele>1415.73</ele>
<time>2020-06-25T11:51:09Z</time>
</trkpt>
<trkpt lat="44.3734399" lon="3.8566612">
<ele>1416.53</ele>
<time>2020-06-25T11:51:13Z</time>
</trkpt>
<trkpt lat="44.3735961" lon="3.8568211">
<ele>1416.62</ele>
<time>2020-06-25T11:51:18Z</time>
</trkpt>
<trkpt lat="44.3737590" lon="3.8569409">
<ele>1417.41</ele>
<time>2020-06-25T11:51:23Z</time>
</trkpt>
<trkpt lat="44.3739513" lon="3.8570392">
<ele>1422.38</ele>
<time>2020-06-25T11:51:30Z</time>
</trkpt>
<trkpt lat="44.3741307" lon="3.8570940">
<ele>1421.57</ele>
<time>2020-06-25T11:51:34Z</time>
</trkpt>
<trkpt lat="44.3743188" lon="3.8571537">
<ele>1420.16</ele>
<time>2020-06-25T11:51:40Z</time>
</trkpt>
<trkpt lat="44.3745099" lon="3.8571926">
<ele>1421.20</ele>
<time>2020-06-25T11:51:47Z</time>
</trkpt>
<trkpt lat="44.3746964" lon="3.8571489">
<ele>1423.35</ele>
<time>2020-06-25T11:51:51Z</time>
</trkpt>
<trkpt lat="44.3748790" lon="3.8571018">
<ele>1422.81</ele>
<time>2020-06-25T11:51:58Z</time>
</trkpt>
<trkpt lat="44.3750841" lon="3.8571082">
<ele>1424.41</ele>
<time>2020-06-25T11:52:03Z</time>
</trkpt>
<trkpt lat="44.3752812" lon="3.8571294">
<ele>1428.71</ele>
<time>2020-06-25T11:52:09Z</time>
</trkpt>
<trkpt lat="44.3754894" lon="3.8571497">
<ele>1430.04</ele>
<time>2020-06-25T11:52:15Z</time>
</trkpt>
<trkpt lat="44.3756692" lon="3.8571817">
<ele>1424.69</ele>
<time>2020-06-25T11:52:19Z</time>
</trkpt>
<trkpt lat="44.3758496" lon="3.8571945">
<ele>1424.35</ele>
<time>2020-06-25T11:52:23Z</time>
</trkpt>
<trkpt lat="44.3760778" lon="3.8572099">
<ele>1424.93</ele>
<time>2020-06-25T11:52:29Z</time>
</trkpt>
<trkpt lat="44.3762752" lon="3.8572688">
<ele>1425.02</ele>
<time>2020-06-25T11:52:34Z</time>
</trkpt>
<trkpt lat="44.3765142" lon="3.8573248">
<ele>1427.09</ele>
<time>2020-06-25T11:52:40Z</time>
</trkpt>
<trkpt lat="44.3766934" lon="3.8573970">
<ele>1424.22</ele>
<time>2020-06-25T11:52:44Z</time>
</trkpt>
<trkpt lat="44.3768806" lon="3.8575634">
<ele>1423.99</ele>
<time>2020-06-25T11:52:49Z</time>
</trkpt>
<trkpt lat="44.3770399" lon="3.8577521">
<ele>1429.27</ele>
<time>2020-06-25T11:52:54Z</time>
</trkpt>
<trkpt lat="44.3771854" lon="3.8579378">
<ele>1429.58</ele>
<time>2020-06-25T11:52:59Z</time>
</trkpt>
<trkpt lat="44.3773187" lon="3.8581580">
<ele>1428.79</ele>
<time>2020-06-25T11:53:04Z</time>
</trkpt>
<trkpt lat="44.3774579" lon="3.8583780">
<ele>1429.36</ele>
<time>2020-06-25T11:53:09Z</time>
</trkpt>
<trkpt lat="44.3775745" lon="3.8586055">
<ele>1430.46</ele>
<time>2020-06-25T11:53:14Z</time>
</trkpt>
<trkpt lat="44.3777114" lon="3.8587892">
<ele>1434.11</ele>
<time>2020-06-25T11:53:19Z</time>
</trkpt>
<trkpt lat="44.3778609" lon="3.8589811">
<ele>1432.22</ele>
<time>2020-06-25T11:53:24Z</time>
</trkpt>
<trkpt lat="44.3780074" lon="3.8591897">
<ele>1431.18</ele>
<time>2020-06-25T11:53:29Z</time>
</trkpt>
<trkpt lat="44.3781420" lon="3.8594042">
<ele>1430.41</ele>
<time>2020-06-25T11:53:34Z</time>
</trkpt>
<trkpt lat="44.3782817" lon="3.8595858">
<ele>1430.99</ele>
<time>2020-06-25T11:53:40Z</time>
</trkpt>
<trkpt lat="44.3784441" lon="3.8597294">
<ele>1433.65</ele>
<time>2020-06-25T11:53:46Z</time>
</trkpt>
<trkpt lat="44.3786191" lon="3.8598328">
<ele>1434.67</ele>
<time>2020-06-25T11:53:52Z</time>
</trkpt>
<trkpt lat="44.3787837" lon="3.8599939">
<ele>1434.88</ele>
<time>2020-06-25T11:53:58Z</time>
</trkpt>
<trkpt lat="44.3789294" lon="3.8601492">
<ele>1434.30</ele>
<time>2020-06-25T11:54:03Z</time>
</trkpt>
<trkpt lat="44.3790699" lon="3.8603100">
<ele>1434.09</ele>
<time>2020-06-25T11:54:08Z</time>
</trkpt>
<trkpt lat="44.3792086" lon="3.8605204">
<ele>1431.75</ele>
<time>2020-06-25T11:54:13Z</time>
</trkpt>
<trkpt lat="44.3793655" lon="3.8607242">
<ele>1431.74</ele>
<time>2020-06-25T11:54:18Z</time>
</trkpt>
<trkpt lat="44.3795027" lon="3.8609120">
<ele>1432.51</ele>
<time>2020-06-25T11:54:23Z</time>
</trkpt>
<trkpt lat="44.3796839" lon="3.8609404">
<ele>1431.62</ele>
<time>2020-06-25T11:54:34Z</time>
</trkpt>
<trkpt lat="44.3798666" lon="3.8610127">
<ele>1430.20</ele>
<time>2020-06-25T11:54:49Z</time>
</trkpt>
<trkpt lat="44.3800487" lon="3.8610851">
<ele>1422.30</ele>
<time>2020-06-25T11:55:55Z</time>
</trkpt>
<trkpt lat="44.3802299" lon="3.8611016">
<ele>1423.28</ele>
<time>2020-06-25T11:56:00Z</time>
</trkpt>
<trkpt lat="44.3804504" lon="3.8611752">
<ele>1420.35</ele>
<time>2020-06-25T11:56:05Z</time>
</trkpt>
<trkpt lat="44.3806397" lon="3.8612902">
<ele>1418.73</ele>
<time>2020-06-25T11:56:08Z</time>
</trkpt>
<trkpt lat="44.3809294" lon="3.8614275">
<ele>1418.24</ele>
<time>2020-06-25T11:56:11Z</time>
</trkpt>
<trkpt lat="44.3811985" lon="3.8614253">
<ele>1416.13</ele>
<time>2020-06-25T11:56:14Z</time>
</trkpt>
<trkpt lat="44.3813785" lon="3.8614063">
<ele>1415.28</ele>
<time>2020-06-25T11:56:16Z</time>
</trkpt>
<trkpt lat="44.3815635" lon="3.8613711">
<ele>1414.98</ele>
<time>2020-06-25T11:56:18Z</time>
</trkpt>
<trkpt lat="44.3818302" lon="3.8613179">
<ele>1414.70</ele>
<time>2020-06-25T11:56:21Z</time>
</trkpt>
<trkpt lat="44.3820695" lon="3.8612860">
<ele>1414.34</ele>
<time>2020-06-25T11:56:24Z</time>
</trkpt>
<trkpt lat="44.3822646" lon="3.8612643">
<ele>1413.71</ele>
<time>2020-06-25T11:56:27Z</time>
</trkpt>
<trkpt lat="44.3824444" lon="3.8612366">
<ele>1413.69</ele>
<time>2020-06-25T11:56:31Z</time>
</trkpt>
<trkpt lat="44.3826316" lon="3.8611977">
<ele>1413.98</ele>
<time>2020-06-25T11:56:36Z</time>
</trkpt>
<trkpt lat="44.3828289" lon="3.8611462">
<ele>1413.64</ele>
<time>2020-06-25T11:56:41Z</time>
</trkpt>
<trkpt lat="44.3830338" lon="3.8611048">
<ele>1413.11</ele>
<time>2020-06-25T11:56:47Z</time>
</trkpt>
<trkpt lat="44.3832228" lon="3.8611315">
<ele>1413.78</ele>
<time>2020-06-25T11:56:53Z</time>
</trkpt>
<trkpt lat="44.3834120" lon="3.8611545">
<ele>1419.21</ele>
<time>2020-06-25T11:57:01Z</time>
</trkpt>
<trkpt lat="44.3835281" lon="3.8613731">
<ele>1420.86</ele>
<time>2020-06-25T11:57:08Z</time>
</trkpt>
<trkpt lat="44.3835198" lon="3.8616512">
<ele>1422.19</ele>
<time>2020-06-25T11:57:15Z</time>
</trkpt>
<trkpt lat="44.3834556" lon="3.8619054">
<ele>1424.80</ele>
<time>2020-06-25T11:57:21Z</time>
</trkpt>
<trkpt lat="44.3834499" lon="3.8621964">
<ele>1425.85</ele>
<time>2020-06-25T11:57:28Z</time>
</trkpt>
<trkpt lat="44.3834642" lon="3.8624572">
<ele>1426.88</ele>
<time>2020-06-25T11:57:34Z</time>
</trkpt>
<trkpt lat="44.3835228" lon="3.8627005">
<ele>1426.45</ele>
<time>2020-06-25T11:57:40Z</time>
</trkpt>
<trkpt lat="44.3836042" lon="3.8629604">
<ele>1424.29</ele>
<time>2020-06-25T11:57:45Z</time>
</trkpt>
<trkpt lat="44.3836961" lon="3.8631914">
<ele>1419.04</ele>
<time>2020-06-25T11:57:49Z</time>
</trkpt>
<trkpt lat="44.3837870" lon="3.8634320">
<ele>1418.36</ele>
<time>2020-06-25T11:57:53Z</time>
</trkpt>
<trkpt lat="44.3838545" lon="3.8637060">
<ele>1417.30</ele>
<time>2020-06-25T11:57:58Z</time>
</trkpt>
<trkpt lat="44.3839330" lon="3.8639630">
<ele>1416.02</ele>
<time>2020-06-25T11:58:02Z</time>
</trkpt>
<trkpt lat="44.3840837" lon="3.8641843">
<ele>1418.19</ele>
<time>2020-06-25T11:58:06Z</time>
</trkpt>
<trkpt lat="44.3841908" lon="3.8644306">
<ele>1417.76</ele>
<time>2020-06-25T11:58:10Z</time>
</trkpt>
<trkpt lat="44.3842516" lon="3.8647118">
<ele>1417.49</ele>
<time>2020-06-25T11:58:14Z</time>
</trkpt>
<trkpt lat="44.3842166" lon="3.8650170">
<ele>1414.80</ele>
<time>2020-06-25T11:58:18Z</time>
</trkpt>
<trkpt lat="44.3841115" lon="3.8652896">
<ele>1415.57</ele>
<time>2020-06-25T11:58:22Z</time>
</trkpt>
<trkpt lat="44.3841114" lon="3.8656182">
<ele>1415.70</ele>
<time>2020-06-25T11:58:26Z</time>
</trkpt>
<trkpt lat="44.3842004" lon="3.8658403">
<ele>1415.32</ele>
<time>2020-06-25T11:58:29Z</time>
</trkpt>
<trkpt lat="44.3843399" lon="3.8660939">
<ele>1415.16</ele>
<time>2020-06-25T11:58:33Z</time>
</trkpt>
<trkpt lat="44.3844689" lon="3.8663223">
<ele>1415.07</ele>
<time>2020-06-25T11:58:37Z</time>
</trkpt>
<trkpt lat="44.3846403" lon="3.8665465">
<ele>1415.23</ele>
<time>2020-06-25T11:58:42Z</time>
</trkpt>
<trkpt lat="44.3848396" lon="3.8666838">
<ele>1415.15</ele>
<time>2020-06-25T11:58:47Z</time>
</trkpt>
<trkpt lat="44.3849930" lon="3.8668506">
<ele>1413.88</ele>
<time>2020-06-25T11:58:51Z</time>
</trkpt>
<trkpt lat="44.3851244" lon="3.8670342">
<ele>1413.91</ele>
<time>2020-06-25T11:58:55Z</time>
</trkpt>
<trkpt lat="44.3852843" lon="3.8672045">
<ele>1413.23</ele>
<time>2020-06-25T11:59:00Z</time>
</trkpt>
<trkpt lat="44.3854246" lon="3.8673994">
<ele>1413.85</ele>
<time>2020-06-25T11:59:05Z</time>
</trkpt>
<trkpt lat="44.3855817" lon="3.8675816">
<ele>1413.79</ele>
<time>2020-06-25T11:59:11Z</time>
</trkpt>
<trkpt lat="44.3857178" lon="3.8677552">
<ele>1413.56</ele>
<time>2020-06-25T11:59:16Z</time>
</trkpt>
<trkpt lat="44.3858399" lon="3.8679457">
<ele>1413.63</ele>
<time>2020-06-25T11:59:21Z</time>
</trkpt>
<trkpt lat="44.3858570" lon="3.8682303">
<ele>1414.38</ele>
<time>2020-06-25T11:59:26Z</time>
</trkpt>
<trkpt lat="44.3857708" lon="3.8684892">
<ele>1414.28</ele>
<time>2020-06-25T11:59:30Z</time>
</trkpt>
<trkpt lat="44.3857234" lon="3.8687412">
<ele>1414.14</ele>
<time>2020-06-25T11:59:34Z</time>
</trkpt>
<trkpt lat="44.3857425" lon="3.8690310">
<ele>1415.74</ele>
<time>2020-06-25T11:59:39Z</time>
</trkpt>
<trkpt lat="44.3857878" lon="3.8693000">
<ele>1417.26</ele>
<time>2020-06-25T11:59:44Z</time>
</trkpt>
<trkpt lat="44.3857841" lon="3.8695897">
<ele>1417.66</ele>
<time>2020-06-25T11:59:50Z</time>
</trkpt>
<trkpt lat="44.3857800" lon="3.8698693">
<ele>1417.36</ele>
<time>2020-06-25T11:59:54Z</time>
</trkpt>
<trkpt lat="44.3858325" lon="3.8701659">
<ele>1416.40</ele>
<time>2020-06-25T11:59:57Z</time>
</trkpt>
<trkpt lat="44.3858829" lon="3.8704334">
<ele>1415.46</ele>
<time>2020-06-25T12:00:00Z</time>
</trkpt>
<trkpt lat="44.3859125" lon="3.8707184">
<ele>1414.97</ele>
<time>2020-06-25T12:00:03Z</time>
</trkpt>
<trkpt lat="44.3859161" lon="3.8709724">
<ele>1413.10</ele>
<time>2020-06-25T12:00:06Z</time>
</trkpt>
<trkpt lat="44.3860462" lon="3.8712292">
<ele>1412.60</ele>
<time>2020-06-25T12:00:10Z</time>
</trkpt>
<trkpt lat="44.3862175" lon="3.8713884">
<ele>1412.57</ele>
<time>2020-06-25T12:00:14Z</time>
</trkpt>
<trkpt lat="44.3863721" lon="3.8715422">
<ele>1412.15</ele>
<time>2020-06-25T12:00:18Z</time>
</trkpt>
<trkpt lat="44.3864914" lon="3.8717430">
<ele>1411.42</ele>
<time>2020-06-25T12:00:23Z</time>
</trkpt>
<trkpt lat="44.3864735" lon="3.8720239">
<ele>1411.26</ele>
<time>2020-06-25T12:00:31Z</time>
</trkpt>
<trkpt lat="44.3864480" lon="3.8723009">
<ele>1414.07</ele>
<time>2020-06-25T12:00:39Z</time>
</trkpt>
<trkpt lat="44.3864510" lon="3.8725759">
<ele>1413.13</ele>
<time>2020-06-25T12:00:49Z</time>
</trkpt>
<trkpt lat="44.3864334" lon="3.8728393">
<ele>1413.26</ele>
<time>2020-06-25T12:01:00Z</time>
</trkpt>
<trkpt lat="44.3864147" lon="3.8731068">
<ele>1413.26</ele>
<time>2020-06-25T12:01:10Z</time>
</trkpt>
<trkpt lat="44.3863577" lon="3.8733770">
<ele>1413.20</ele>
<time>2020-06-25T12:01:17Z</time>
</trkpt>
<trkpt lat="44.3862678" lon="3.8736331">
<ele>1412.51</ele>
<time>2020-06-25T12:01:22Z</time>
</trkpt>
<trkpt lat="44.3861862" lon="3.8739107">
<ele>1413.21</ele>
<time>2020-06-25T12:01:27Z</time>
</trkpt>
<trkpt lat="44.3861578" lon="3.8742021">
<ele>1412.94</ele>
<time>2020-06-25T12:01:33Z</time>
</trkpt>
<trkpt lat="44.3861181" lon="3.8744774">
<ele>1413.26</ele>
<time>2020-06-25T12:01:38Z</time>
</trkpt>
<trkpt lat="44.3860573" lon="3.8747248">
<ele>1413.73</ele>
<time>2020-06-25T12:01:44Z</time>
</trkpt>
<trkpt lat="44.3859028" lon="3.8749542">
<ele>1411.82</ele>
<time>2020-06-25T12:01:51Z</time>
</trkpt>
<trkpt lat="44.3857242" lon="3.8750460">
<ele>1411.22</ele>
<time>2020-06-25T12:01:58Z</time>
</trkpt>
<trkpt lat="44.3857754" lon="3.8752883">
<ele>1410.43</ele>
<time>2020-06-25T12:02:16Z</time>
</trkpt>
<trkpt lat="44.3858532" lon="3.8755246">
<ele>1408.92</ele>
<time>2020-06-25T12:02:26Z</time>
</trkpt>
<trkpt lat="44.3859022" lon="3.8758052">
<ele>1408.00</ele>
<time>2020-06-25T12:02:35Z</time>
</trkpt>
<trkpt lat="44.3858342" lon="3.8760439">
<ele>1407.77</ele>
<time>2020-06-25T12:02:43Z</time>
</trkpt>
<trkpt lat="44.3856987" lon="3.8762591">
<ele>1411.43</ele>
<time>2020-06-25T12:04:13Z</time>
</trkpt>
<trkpt lat="44.3855457" lon="3.8764418">
<ele>1411.02</ele>
<time>2020-06-25T12:04:18Z</time>
</trkpt>
<trkpt lat="44.3854959" lon="3.8766971">
<ele>1409.31</ele>
<time>2020-06-25T12:04:24Z</time>
</trkpt>
<trkpt lat="44.3854493" lon="3.8769424">
<ele>1409.59</ele>
<time>2020-06-25T12:04:31Z</time>
</trkpt>
<trkpt lat="44.3853716" lon="3.8772055">
<ele>1409.58</ele>
<time>2020-06-25T12:04:38Z</time>
</trkpt>
<trkpt lat="44.3852776" lon="3.8774515">
<ele>1409.65</ele>
<time>2020-06-25T12:04:44Z</time>
</trkpt>
<trkpt lat="44.3851753" lon="3.8776948">
<ele>1408.32</ele>
<time>2020-06-25T12:04:50Z</time>
</trkpt>
<trkpt lat="44.3850717" lon="3.8779566">
<ele>1408.08</ele>
<time>2020-06-25T12:04:56Z</time>
</trkpt>
<trkpt lat="44.3849488" lon="3.8782002">
<ele>1407.45</ele>
<time>2020-06-25T12:05:01Z</time>
</trkpt>
<trkpt lat="44.3848262" lon="3.8784253">
<ele>1407.91</ele>
<time>2020-06-25T12:05:06Z</time>
</trkpt>
<trkpt lat="44.3847151" lon="3.8786415">
<ele>1407.37</ele>
<time>2020-06-25T12:05:12Z</time>
</trkpt>
<trkpt lat="44.3846030" lon="3.8788836">
<ele>1408.11</ele>
<time>2020-06-25T12:05:18Z</time>
</trkpt>
<trkpt lat="44.3845284" lon="3.8791550">
<ele>1409.30</ele>
<time>2020-06-25T12:05:24Z</time>
</trkpt>
<trkpt lat="44.3844885" lon="3.8794229">
<ele>1409.67</ele>
<time>2020-06-25T12:05:30Z</time>
</trkpt>
<trkpt lat="44.3844608" lon="3.8796722">
<ele>1408.91</ele>
<time>2020-06-25T12:05:35Z</time>
</trkpt>
<trkpt lat="44.3844808" lon="3.8799630">
<ele>1409.68</ele>
<time>2020-06-25T12:05:42Z</time>
</trkpt>
<trkpt lat="44.3844983" lon="3.8802265">
<ele>1408.62</ele>
<time>2020-06-25T12:05:47Z</time>
</trkpt>
<trkpt lat="44.3845139" lon="3.8804783">
<ele>1408.31</ele>
<time>2020-06-25T12:05:52Z</time>
</trkpt>
<trkpt lat="44.3844904" lon="3.8807354">
<ele>1406.74</ele>
<time>2020-06-25T12:05:56Z</time>
</trkpt>
<trkpt lat="44.3844222" lon="3.8810089">
<ele>1406.49</ele>
<time>2020-06-25T12:06:02Z</time>
</trkpt>
<trkpt lat="44.3843387" lon="3.8812425">
<ele>1407.27</ele>
<time>2020-06-25T12:06:08Z</time>
</trkpt>
<trkpt lat="44.3842521" lon="3.8814818">
<ele>1407.22</ele>
<time>2020-06-25T12:06:13Z</time>
</trkpt>
<trkpt lat="44.3841369" lon="3.8817276">
<ele>1405.68</ele>
<time>2020-06-25T12:06:18Z</time>
</trkpt>
<trkpt lat="44.3841158" lon="3.8820068">
<ele>1405.38</ele>
<time>2020-06-25T12:06:23Z</time>
</trkpt>
<trkpt lat="44.3843060" lon="3.8820606">
<ele>1403.18</ele>
<time>2020-06-25T12:06:27Z</time>
</trkpt>
<trkpt lat="44.3844900" lon="3.8820144">
<ele>1402.44</ele>
<time>2020-06-25T12:06:30Z</time>
</trkpt>
<trkpt lat="44.3846741" lon="3.8820376">
<ele>1401.75</ele>
<time>2020-06-25T12:06:33Z</time>
</trkpt>
<trkpt lat="44.3848283" lon="3.8821808">
<ele>1401.22</ele>
<time>2020-06-25T12:06:36Z</time>
</trkpt>
<trkpt lat="44.3849364" lon="3.8824007">
<ele>1400.06</ele>
<time>2020-06-25T12:06:40Z</time>
</trkpt>
<trkpt lat="44.3849979" lon="3.8826868">
<ele>1399.24</ele>
<time>2020-06-25T12:06:45Z</time>
</trkpt>
<trkpt lat="44.3850276" lon="3.8829893">
<ele>1398.95</ele>
<time>2020-06-25T12:06:50Z</time>
</trkpt>
<trkpt lat="44.3850497" lon="3.8832566">
<ele>1398.21</ele>
<time>2020-06-25T12:06:54Z</time>
</trkpt>
<trkpt lat="44.3850538" lon="3.8835124">
<ele>1398.72</ele>
<time>2020-06-25T12:06:57Z</time>
</trkpt>
<trkpt lat="44.3850134" lon="3.8837656">
<ele>1399.74</ele>
<time>2020-06-25T12:07:01Z</time>
</trkpt>
<trkpt lat="44.3849779" lon="3.8840367">
<ele>1401.03</ele>
<time>2020-06-25T12:07:12Z</time>
</trkpt>
<trkpt lat="44.3849495" lon="3.8843149">
<ele>1398.30</ele>
<time>2020-06-25T12:07:17Z</time>
</trkpt>
<trkpt lat="44.3851009" lon="3.8844705">
<ele>1397.42</ele>
<time>2020-06-25T12:07:28Z</time>
</trkpt>
<trkpt lat="44.3853006" lon="3.8845570">
<ele>1398.28</ele>
<time>2020-06-25T12:07:35Z</time>
</trkpt>
<trkpt lat="44.3855052" lon="3.8846155">
<ele>1397.33</ele>
<time>2020-06-25T12:07:40Z</time>
</trkpt>
<trkpt lat="44.3857049" lon="3.8846282">
<ele>1396.26</ele>
<time>2020-06-25T12:07:44Z</time>
</trkpt>
<trkpt lat="44.3858944" lon="3.8846395">
<ele>1395.17</ele>
<time>2020-06-25T12:07:48Z</time>
</trkpt>
<trkpt lat="44.3860773" lon="3.8846098">
<ele>1394.84</ele>
<time>2020-06-25T12:07:52Z</time>
</trkpt>
<trkpt lat="44.3862733" lon="3.8845482">
<ele>1393.70</ele>
<time>2020-06-25T12:07:56Z</time>
</trkpt>
<trkpt lat="44.3865024" lon="3.8845290">
<ele>1392.37</ele>
<time>2020-06-25T12:08:00Z</time>
</trkpt>
<trkpt lat="44.3866869" lon="3.8845941">
<ele>1392.05</ele>
<time>2020-06-25T12:08:04Z</time>
</trkpt>
<trkpt lat="44.3868358" lon="3.8847395">
<ele>1390.69</ele>
<time>2020-06-25T12:08:11Z</time>
</trkpt>
<trkpt lat="44.3868403" lon="3.8850114">
<ele>1390.15</ele>
<time>2020-06-25T12:08:18Z</time>
</trkpt>
<trkpt lat="44.3867088" lon="3.8851918">
<ele>1388.57</ele>
<time>2020-06-25T12:08:23Z</time>
</trkpt>
<trkpt lat="44.3866486" lon="3.8854673">
<ele>1387.17</ele>
<time>2020-06-25T12:08:28Z</time>
</trkpt>
<trkpt lat="44.3867199" lon="3.8852104">
<ele>1387.91</ele>
<time>2020-06-25T12:08:50Z</time>
</trkpt>
<trkpt lat="44.3868357" lon="3.8849868">
<ele>1390.00</ele>
<time>2020-06-25T12:08:57Z</time>
</trkpt>
<trkpt lat="44.3868280" lon="3.8847248">
<ele>1390.94</ele>
<time>2020-06-25T12:09:07Z</time>
</trkpt>
<trkpt lat="44.3869517" lon="3.8845396">
<ele>1392.77</ele>
<time>2020-06-25T12:09:40Z</time>
</trkpt>
<trkpt lat="44.3871440" lon="3.8845261">
<ele>1395.38</ele>
<time>2020-06-25T12:09:54Z</time>
</trkpt>
<trkpt lat="44.3873310" lon="3.8845678">
<ele>1398.67</ele>
<time>2020-06-25T12:10:23Z</time>
</trkpt>
<trkpt lat="44.3871521" lon="3.8845267">
<ele>1400.35</ele>
<time>2020-06-25T12:11:20Z</time>
</trkpt>
<trkpt lat="44.3871672" lon="3.8842495">
<ele>1392.61</ele>
<time>2020-06-25T12:12:09Z</time>
</trkpt>
<trkpt lat="44.3872626" lon="3.8840297">
<ele>1394.04</ele>
<time>2020-06-25T12:12:18Z</time>
</trkpt>
<trkpt lat="44.3874170" lon="3.8838835">
<ele>1394.58</ele>
<time>2020-06-25T12:12:24Z</time>
</trkpt>
<trkpt lat="44.3874814" lon="3.8836313">
<ele>1396.22</ele>
<time>2020-06-25T12:12:32Z</time>
</trkpt>
<trkpt lat="44.3875556" lon="3.8833894">
<ele>1397.75</ele>
<time>2020-06-25T12:12:43Z</time>
</trkpt>
<trkpt lat="44.3876269" lon="3.8831479">
<ele>1398.42</ele>
<time>2020-06-25T12:12:50Z</time>
</trkpt>
<trkpt lat="44.3877634" lon="3.8829782">
<ele>1398.95</ele>
<time>2020-06-25T12:12:59Z</time>
</trkpt>
<trkpt lat="44.3879456" lon="3.8828736">
<ele>1398.74</ele>
<time>2020-06-25T12:13:10Z</time>
</trkpt>
<trkpt lat="44.3880976" lon="3.8827206">
<ele>1401.09</ele>
<time>2020-06-25T12:13:19Z</time>
</trkpt>
<trkpt lat="44.3882665" lon="3.8825884">
<ele>1399.21</ele>
<time>2020-06-25T12:13:28Z</time>
</trkpt>
<trkpt lat="44.3884283" lon="3.8824205">
<ele>1399.68</ele>
<time>2020-06-25T12:13:34Z</time>
</trkpt>
<trkpt lat="44.3886028" lon="3.8823438">
<ele>1401.15</ele>
<time>2020-06-25T12:13:40Z</time>
</trkpt>
<trkpt lat="44.3887842" lon="3.8823176">
<ele>1402.42</ele>
<time>2020-06-25T12:13:48Z</time>
</trkpt>
<trkpt lat="44.3887470" lon="3.8825673">
<ele>1404.52</ele>
<time>2020-06-25T12:14:19Z</time>
</trkpt>
<trkpt lat="44.3886036" lon="3.8827688">
<ele>1402.91</ele>
<time>2020-06-25T12:14:25Z</time>
</trkpt>
<trkpt lat="44.3886288" lon="3.8830343">
<ele>1402.68</ele>
<time>2020-06-25T12:14:33Z</time>
</trkpt>
<trkpt lat="44.3887079" lon="3.8832664">
<ele>1401.45</ele>
<time>2020-06-25T12:14:41Z</time>
</trkpt>
<trkpt lat="44.3888361" lon="3.8834431">
<ele>1401.51</ele>
<time>2020-06-25T12:14:48Z</time>
</trkpt>
<trkpt lat="44.3890150" lon="3.8835674">
<ele>1403.12</ele>
<time>2020-06-25T12:14:56Z</time>
</trkpt>
<trkpt lat="44.3891318" lon="3.8837592">
<ele>1400.46</ele>
<time>2020-06-25T12:15:21Z</time>
</trkpt>
<trkpt lat="44.3891289" lon="3.8840174">
<ele>1403.39</ele>
<time>2020-06-25T12:15:59Z</time>
</trkpt>
<trkpt lat="44.3891333" lon="3.8842702">
<ele>1403.56</ele>
<time>2020-06-25T12:16:09Z</time>
</trkpt>
<trkpt lat="44.3892083" lon="3.8845270">
<ele>1401.44</ele>
<time>2020-06-25T12:16:21Z</time>
</trkpt>
<trkpt lat="44.3892124" lon="3.8847972">
<ele>1406.43</ele>
<time>2020-06-25T12:16:33Z</time>
</trkpt>
<trkpt lat="44.3892078" lon="3.8850634">
<ele>1407.17</ele>
<time>2020-06-25T12:16:43Z</time>
</trkpt>
<trkpt lat="44.3892592" lon="3.8853287">
<ele>1406.99</ele>
<time>2020-06-25T12:16:54Z</time>
</trkpt>
<trkpt lat="44.3893320" lon="3.8855835">
<ele>1408.16</ele>
<time>2020-06-25T12:17:06Z</time>
</trkpt>
<trkpt lat="44.3894481" lon="3.8857832">
<ele>1409.19</ele>
<time>2020-06-25T12:17:21Z</time>
</trkpt>
<trkpt lat="44.3895753" lon="3.8859743">
<ele>1411.11</ele>
<time>2020-06-25T12:17:47Z</time>
</trkpt>
<trkpt lat="44.3897074" lon="3.8861790">
<ele>1412.02</ele>
<time>2020-06-25T12:17:57Z</time>
</trkpt>
<trkpt lat="44.3898562" lon="3.8863524">
<ele>1411.26</ele>
<time>2020-06-25T12:18:09Z</time>
</trkpt>
<trkpt lat="44.3900063" lon="3.8865339">
<ele>1412.54</ele>
<time>2020-06-25T12:18:18Z</time>
</trkpt>
<trkpt lat="44.3901240" lon="3.8867516">
<ele>1410.82</ele>
<time>2020-06-25T12:18:29Z</time>
</trkpt>
<trkpt lat="44.3901897" lon="3.8870104">
<ele>1413.26</ele>
<time>2020-06-25T12:18:39Z</time>
</trkpt>
<trkpt lat="44.3902553" lon="3.8872539">
<ele>1418.17</ele>
<time>2020-06-25T12:18:50Z</time>
</trkpt>
<trkpt lat="44.3904063" lon="3.8874266">
<ele>1421.49</ele>
<time>2020-06-25T12:19:03Z</time>
</trkpt>
<trkpt lat="44.3904040" lon="3.8876974">
<ele>1421.47</ele>
<time>2020-06-25T12:19:14Z</time>
</trkpt>
<trkpt lat="44.3904944" lon="3.8879220">
<ele>1416.97</ele>
<time>2020-06-25T12:19:24Z</time>
</trkpt>
<trkpt lat="44.3905705" lon="3.8881576">
<ele>1415.08</ele>
<time>2020-06-25T12:19:35Z</time>
</trkpt>
<trkpt lat="44.3906418" lon="3.8883936">
<ele>1413.40</ele>
<time>2020-06-25T12:19:44Z</time>
</trkpt>
<trkpt lat="44.3907230" lon="3.8886239">
<ele>1415.57</ele>
<time>2020-06-25T12:19:52Z</time>
</trkpt>
<trkpt lat="44.3908686" lon="3.8887894">
<ele>1415.41</ele>
<time>2020-06-25T12:19:59Z</time>
</trkpt>
<trkpt lat="44.3910154" lon="3.8889526">
<ele>1414.01</ele>
<time>2020-06-25T12:20:05Z</time>
</trkpt>
<trkpt lat="44.3911550" lon="3.8891531">
<ele>1420.68</ele>
<time>2020-06-25T12:20:12Z</time>
</trkpt>
<trkpt lat="44.3912875" lon="3.8893243">
<ele>1423.05</ele>
<time>2020-06-25T12:20:20Z</time>
</trkpt>
<trkpt lat="44.3914727" lon="3.8894287">
<ele>1423.77</ele>
<time>2020-06-25T12:20:30Z</time>
</trkpt>
<trkpt lat="44.3916636" lon="3.8894586">
<ele>1427.07</ele>
<time>2020-06-25T12:20:38Z</time>
</trkpt>
<trkpt lat="44.3918448" lon="3.8894683">
<ele>1433.27</ele>
<time>2020-06-25T12:20:53Z</time>
</trkpt>
<trkpt lat="44.3919841" lon="3.8896562">
<ele>1435.02</ele>
<time>2020-06-25T12:21:21Z</time>
</trkpt>
<trkpt lat="44.3920714" lon="3.8898837">
<ele>1433.82</ele>
<time>2020-06-25T12:21:30Z</time>
</trkpt>
<trkpt lat="44.3921483" lon="3.8901293">
<ele>1435.07</ele>
<time>2020-06-25T12:21:40Z</time>
</trkpt>
<trkpt lat="44.3922213" lon="3.8903612">
<ele>1437.71</ele>
<time>2020-06-25T12:21:48Z</time>
</trkpt>
<trkpt lat="44.3922871" lon="3.8906012">
<ele>1437.96</ele>
<time>2020-06-25T12:21:58Z</time>
</trkpt>
<trkpt lat="44.3924260" lon="3.8907719">
<ele>1442.18</ele>
<time>2020-06-25T12:22:09Z</time>
</trkpt>
<trkpt lat="44.3925015" lon="3.8910048">
<ele>1448.60</ele>
<time>2020-06-25T12:27:03Z</time>
</trkpt>
<trkpt lat="44.3924581" lon="3.8912558">
<ele>1448.19</ele>
<time>2020-06-25T12:27:12Z</time>
</trkpt>
<trkpt lat="44.3923832" lon="3.8915146">
<ele>1447.88</ele>
<time>2020-06-25T12:27:22Z</time>
</trkpt>
<trkpt lat="44.3923101" lon="3.8917609">
<ele>1447.22</ele>
<time>2020-06-25T12:27:30Z</time>
</trkpt>
<trkpt lat="44.3922565" lon="3.8920171">
<ele>1448.32</ele>
<time>2020-06-25T12:27:38Z</time>
</trkpt>
<trkpt lat="44.3922298" lon="3.8922669">
<ele>1447.61</ele>
<time>2020-06-25T12:27:45Z</time>
</trkpt>
<trkpt lat="44.3921762" lon="3.8925364">
<ele>1448.14</ele>
<time>2020-06-25T12:27:51Z</time>
</trkpt>
<trkpt lat="44.3921473" lon="3.8928193">
<ele>1446.32</ele>
<time>2020-06-25T12:27:56Z</time>
</trkpt>
<trkpt lat="44.3920708" lon="3.8931130">
<ele>1445.37</ele>
<time>2020-06-25T12:28:00Z</time>
</trkpt>
<trkpt lat="44.3919618" lon="3.8933641">
<ele>1444.07</ele>
<time>2020-06-25T12:28:03Z</time>
</trkpt>
<trkpt lat="44.3918433" lon="3.8936564">
<ele>1441.57</ele>
<time>2020-06-25T12:28:06Z</time>
</trkpt>
<trkpt lat="44.3917122" lon="3.8939348">
<ele>1440.41</ele>
<time>2020-06-25T12:28:09Z</time>
</trkpt>
<trkpt lat="44.3915705" lon="3.8942063">
<ele>1438.61</ele>
<time>2020-06-25T12:28:12Z</time>
</trkpt>
<trkpt lat="44.3914240" lon="3.8944231">
<ele>1435.67</ele>
<time>2020-06-25T12:28:16Z</time>
</trkpt>
<trkpt lat="44.3915481" lon="3.8946055">
<ele>1432.94</ele>
<time>2020-06-25T12:28:22Z</time>
</trkpt>
<trkpt lat="44.3917017" lon="3.8943758">
<ele>1434.66</ele>
<time>2020-06-25T12:28:27Z</time>
</trkpt>
<trkpt lat="44.3918910" lon="3.8941737">
<ele>1433.24</ele>
<time>2020-06-25T12:28:31Z</time>
</trkpt>
<trkpt lat="44.3920837" lon="3.8940146">
<ele>1431.62</ele>
<time>2020-06-25T12:28:34Z</time>
</trkpt>
<trkpt lat="44.3923077" lon="3.8938278">
<ele>1430.09</ele>
<time>2020-06-25T12:28:37Z</time>
</trkpt>
<trkpt lat="44.3924752" lon="3.8937011">
<ele>1428.17</ele>
<time>2020-06-25T12:28:39Z</time>
</trkpt>
<trkpt lat="44.3926503" lon="3.8935625">
<ele>1426.80</ele>
<time>2020-06-25T12:28:41Z</time>
</trkpt>
<trkpt lat="44.3928306" lon="3.8934162">
<ele>1424.99</ele>
<time>2020-06-25T12:28:43Z</time>
</trkpt>
<trkpt lat="44.3930149" lon="3.8932457">
<ele>1422.94</ele>
<time>2020-06-25T12:28:45Z</time>
</trkpt>
<trkpt lat="44.3932138" lon="3.8930824">
<ele>1421.12</ele>
<time>2020-06-25T12:28:47Z</time>
</trkpt>
<trkpt lat="44.3934277" lon="3.8929323">
<ele>1418.64</ele>
<time>2020-06-25T12:28:49Z</time>
</trkpt>
<trkpt lat="44.3936410" lon="3.8927719">
<ele>1416.65</ele>
<time>2020-06-25T12:28:51Z</time>
</trkpt>
<trkpt lat="44.3938565" lon="3.8926082">
<ele>1415.40</ele>
<time>2020-06-25T12:28:53Z</time>
</trkpt>
<trkpt lat="44.3940748" lon="3.8924524">
<ele>1412.07</ele>
<time>2020-06-25T12:28:55Z</time>
</trkpt>
<trkpt lat="44.3942613" lon="3.8922993">
<ele>1410.05</ele>
<time>2020-06-25T12:28:57Z</time>
</trkpt>
<trkpt lat="44.3944249" lon="3.8921935">
<ele>1408.94</ele>
<time>2020-06-25T12:28:59Z</time>
</trkpt>
<trkpt lat="44.3946500" lon="3.8920606">
<ele>1406.64</ele>
<time>2020-06-25T12:29:02Z</time>
</trkpt>
<trkpt lat="44.3948500" lon="3.8918690">
<ele>1404.81</ele>
<time>2020-06-25T12:29:05Z</time>
</trkpt>
<trkpt lat="44.3950020" lon="3.8916409">
<ele>1400.14</ele>
<time>2020-06-25T12:29:08Z</time>
</trkpt>
<trkpt lat="44.3951405" lon="3.8913492">
<ele>1397.64</ele>
<time>2020-06-25T12:29:11Z</time>
</trkpt>
<trkpt lat="44.3952460" lon="3.8911354">
<ele>1395.49</ele>
<time>2020-06-25T12:29:13Z</time>
</trkpt>
<trkpt lat="44.3953614" lon="3.8908980">
<ele>1394.21</ele>
<time>2020-06-25T12:29:15Z</time>
</trkpt>
<trkpt lat="44.3955115" lon="3.8906844">
<ele>1392.48</ele>
<time>2020-06-25T12:29:17Z</time>
</trkpt>
<trkpt lat="44.3956881" lon="3.8905022">
<ele>1391.05</ele>
<time>2020-06-25T12:29:19Z</time>
</trkpt>
<trkpt lat="44.3958630" lon="3.8903226">
<ele>1389.50</ele>
<time>2020-06-25T12:29:21Z</time>
</trkpt>
<trkpt lat="44.3959743" lon="3.8901211">
<ele>1387.33</ele>
<time>2020-06-25T12:29:23Z</time>
</trkpt>
<trkpt lat="44.3960548" lon="3.8897992">
<ele>1385.12</ele>
<time>2020-06-25T12:29:26Z</time>
</trkpt>
<trkpt lat="44.3961657" lon="3.8895347">
<ele>1383.41</ele>
<time>2020-06-25T12:29:29Z</time>
</trkpt>
<trkpt lat="44.3962990" lon="3.8892741">
<ele>1381.48</ele>
<time>2020-06-25T12:29:32Z</time>
</trkpt>
<trkpt lat="44.3964236" lon="3.8890016">
<ele>1378.98</ele>
<time>2020-06-25T12:29:35Z</time>
</trkpt>
<trkpt lat="44.3964989" lon="3.8887535">
<ele>1377.07</ele>
<time>2020-06-25T12:29:39Z</time>
</trkpt>
<trkpt lat="44.3964997" lon="3.8884794">
<ele>1379.50</ele>
<time>2020-06-25T12:30:59Z</time>
</trkpt>
<trkpt lat="44.3965133" lon="3.8882216">
<ele>1379.62</ele>
<time>2020-06-25T12:31:06Z</time>
</trkpt>
<trkpt lat="44.3965177" lon="3.8879589">
<ele>1380.99</ele>
<time>2020-06-25T12:31:13Z</time>
</trkpt>
<trkpt lat="44.3965104" lon="3.8876962">
<ele>1382.26</ele>
<time>2020-06-25T12:31:20Z</time>
</trkpt>
<trkpt lat="44.3964947" lon="3.8874246">
<ele>1383.21</ele>
<time>2020-06-25T12:31:27Z</time>
</trkpt>
<trkpt lat="44.3964719" lon="3.8871502">
<ele>1385.26</ele>
<time>2020-06-25T12:31:34Z</time>
</trkpt>
<trkpt lat="44.3963629" lon="3.8869043">
<ele>1385.46</ele>
<time>2020-06-25T12:31:42Z</time>
</trkpt>
<trkpt lat="44.3962774" lon="3.8866561">
<ele>1386.08</ele>
<time>2020-06-25T12:31:50Z</time>
</trkpt>
<trkpt lat="44.3961677" lon="3.8864216">
<ele>1390.51</ele>
<time>2020-06-25T12:31:58Z</time>
</trkpt>
<trkpt lat="44.3960873" lon="3.8861815">
<ele>1392.41</ele>
<time>2020-06-25T12:32:05Z</time>
</trkpt>
<trkpt lat="44.3960340" lon="3.8859328">
<ele>1395.70</ele>
<time>2020-06-25T12:32:12Z</time>
</trkpt>
<trkpt lat="44.3960986" lon="3.8856933">
<ele>1397.85</ele>
<time>2020-06-25T12:32:19Z</time>
</trkpt>
<trkpt lat="44.3961969" lon="3.8854816">
<ele>1399.11</ele>
<time>2020-06-25T12:32:26Z</time>
</trkpt>
<trkpt lat="44.3962661" lon="3.8852392">
<ele>1400.57</ele>
<time>2020-06-25T12:32:33Z</time>
</trkpt>
<trkpt lat="44.3963337" lon="3.8849978">
<ele>1402.07</ele>
<time>2020-06-25T12:32:40Z</time>
</trkpt>
<trkpt lat="44.3963974" lon="3.8847480">
<ele>1403.97</ele>
<time>2020-06-25T12:32:47Z</time>
</trkpt>
<trkpt lat="44.3964919" lon="3.8845248">
<ele>1407.36</ele>
<time>2020-06-25T12:32:54Z</time>
</trkpt>
<trkpt lat="44.3965429" lon="3.8842552">
<ele>1408.27</ele>
<time>2020-06-25T12:33:01Z</time>
</trkpt>
<trkpt lat="44.3965314" lon="3.8839861">
<ele>1408.97</ele>
<time>2020-06-25T12:33:06Z</time>
</trkpt>
<trkpt lat="44.3964192" lon="3.8837632">
<ele>1411.81</ele>
<time>2020-06-25T12:33:12Z</time>
</trkpt>
<trkpt lat="44.3962683" lon="3.8835886">
<ele>1415.78</ele>
<time>2020-06-25T12:33:20Z</time>
</trkpt>
<trkpt lat="44.3961163" lon="3.8834506">
<ele>1417.83</ele>
<time>2020-06-25T12:33:26Z</time>
</trkpt>
<trkpt lat="44.3959550" lon="3.8832683">
<ele>1415.56</ele>
<time>2020-06-25T12:33:33Z</time>
</trkpt>
<trkpt lat="44.3959745" lon="3.8829721">
<ele>1415.96</ele>
<time>2020-06-25T12:33:41Z</time>
</trkpt>
<trkpt lat="44.3960969" lon="3.8827406">
<ele>1415.88</ele>
<time>2020-06-25T12:33:47Z</time>
</trkpt>
<trkpt lat="44.3961763" lon="3.8824741">
<ele>1415.64</ele>
<time>2020-06-25T12:33:52Z</time>
</trkpt>
<trkpt lat="44.3962720" lon="3.8822354">
<ele>1419.47</ele>
<time>2020-06-25T12:33:59Z</time>
</trkpt>
<trkpt lat="44.3963570" lon="3.8819885">
<ele>1418.83</ele>
<time>2020-06-25T12:34:04Z</time>
</trkpt>
<trkpt lat="44.3964385" lon="3.8817386">
<ele>1418.52</ele>
<time>2020-06-25T12:34:09Z</time>
</trkpt>
<trkpt lat="44.3964751" lon="3.8814761">
<ele>1417.00</ele>
<time>2020-06-25T12:34:15Z</time>
</trkpt>
<trkpt lat="44.3965297" lon="3.8812227">
<ele>1421.42</ele>
<time>2020-06-25T12:34:23Z</time>
</trkpt>
<trkpt lat="44.3966348" lon="3.8809848">
<ele>1424.17</ele>
<time>2020-06-25T12:34:31Z</time>
</trkpt>
<trkpt lat="44.3967038" lon="3.8807404">
<ele>1423.37</ele>
<time>2020-06-25T12:34:38Z</time>
</trkpt>
<trkpt lat="44.3967922" lon="3.8804959">
<ele>1427.38</ele>
<time>2020-06-25T12:34:45Z</time>
</trkpt>
<trkpt lat="44.3968740" lon="3.8802715">
<ele>1430.43</ele>
<time>2020-06-25T12:34:53Z</time>
</trkpt>
<trkpt lat="44.3969818" lon="3.8800525">
<ele>1435.56</ele>
<time>2020-06-25T12:35:00Z</time>
</trkpt>
<trkpt lat="44.3970803" lon="3.8798018">
<ele>1431.74</ele>
<time>2020-06-25T12:35:08Z</time>
</trkpt>
<trkpt lat="44.3971667" lon="3.8795792">
<ele>1432.05</ele>
<time>2020-06-25T12:35:14Z</time>
</trkpt>
<trkpt lat="44.3972420" lon="3.8793449">
<ele>1433.11</ele>
<time>2020-06-25T12:35:20Z</time>
</trkpt>
<trkpt lat="44.3973043" lon="3.8791009">
<ele>1439.60</ele>
<time>2020-06-25T12:35:27Z</time>
</trkpt>
<trkpt lat="44.3973715" lon="3.8788537">
<ele>1442.32</ele>
<time>2020-06-25T12:35:34Z</time>
</trkpt>
<trkpt lat="44.3974261" lon="3.8786129">
<ele>1446.87</ele>
<time>2020-06-25T12:35:41Z</time>
</trkpt>
<trkpt lat="44.3973907" lon="3.8783651">
<ele>1450.99</ele>
<time>2020-06-25T12:35:49Z</time>
</trkpt>
<trkpt lat="44.3972706" lon="3.8781468">
<ele>1451.56</ele>
<time>2020-06-25T12:35:57Z</time>
</trkpt>
<trkpt lat="44.3970968" lon="3.8780174">
<ele>1453.25</ele>
<time>2020-06-25T12:36:05Z</time>
</trkpt>
<trkpt lat="44.3969109" lon="3.8778684">
<ele>1454.81</ele>
<time>2020-06-25T12:36:11Z</time>
</trkpt>
<trkpt lat="44.3967827" lon="3.8776448">
<ele>1457.08</ele>
<time>2020-06-25T12:36:16Z</time>
</trkpt>
<trkpt lat="44.3967169" lon="3.8774058">
<ele>1462.67</ele>
<time>2020-06-25T12:36:24Z</time>
</trkpt>
<trkpt lat="44.3966457" lon="3.8771651">
<ele>1462.49</ele>
<time>2020-06-25T12:36:30Z</time>
</trkpt>
<trkpt lat="44.3965636" lon="3.8769376">
<ele>1463.92</ele>
<time>2020-06-25T12:36:36Z</time>
</trkpt>
<trkpt lat="44.3964761" lon="3.8767080">
<ele>1464.01</ele>
<time>2020-06-25T12:36:42Z</time>
</trkpt>
<trkpt lat="44.3964266" lon="3.8764464">
<ele>1464.89</ele>
<time>2020-06-25T12:36:48Z</time>
</trkpt>
<trkpt lat="44.3963616" lon="3.8761914">
<ele>1467.85</ele>
<time>2020-06-25T12:36:55Z</time>
</trkpt>
<trkpt lat="44.3962593" lon="3.8759206">
<ele>1469.52</ele>
<time>2020-06-25T12:37:01Z</time>
</trkpt>
<trkpt lat="44.3961689" lon="3.8756913">
<ele>1468.75</ele>
<time>2020-06-25T12:37:07Z</time>
</trkpt>
<trkpt lat="44.3960673" lon="3.8754427">
<ele>1473.13</ele>
<time>2020-06-25T12:37:15Z</time>
</trkpt>
<trkpt lat="44.3959159" lon="3.8752887">
<ele>1474.46</ele>
<time>2020-06-25T12:37:21Z</time>
</trkpt>
<trkpt lat="44.3957745" lon="3.8751271">
<ele>1476.47</ele>
<time>2020-06-25T12:37:29Z</time>
</trkpt>
<trkpt lat="44.3956593" lon="3.8749298">
<ele>1480.05</ele>
<time>2020-06-25T12:37:36Z</time>
</trkpt>
<trkpt lat="44.3956961" lon="3.8746491">
<ele>1477.43</ele>
<time>2020-06-25T12:37:43Z</time>
</trkpt>
<trkpt lat="44.3957659" lon="3.8743935">
<ele>1480.68</ele>
<time>2020-06-25T12:37:50Z</time>
</trkpt>
<trkpt lat="44.3958773" lon="3.8741635">
<ele>1484.47</ele>
<time>2020-06-25T12:37:57Z</time>
</trkpt>
<trkpt lat="44.3960017" lon="3.8739808">
<ele>1482.28</ele>
<time>2020-06-25T12:38:03Z</time>
</trkpt>
<trkpt lat="44.3961344" lon="3.8738078">
<ele>1481.18</ele>
<time>2020-06-25T12:38:11Z</time>
</trkpt>
<trkpt lat="44.3962652" lon="3.8735917">
<ele>1483.07</ele>
<time>2020-06-25T12:38:18Z</time>
</trkpt>
<trkpt lat="44.3962886" lon="3.8733140">
<ele>1486.85</ele>
<time>2020-06-25T12:38:25Z</time>
</trkpt>
<trkpt lat="44.3964176" lon="3.8731138">
<ele>1489.55</ele>
<time>2020-06-25T12:38:32Z</time>
</trkpt>
<trkpt lat="44.3965825" lon="3.8732261">
<ele>1491.07</ele>
<time>2020-06-25T12:38:38Z</time>
</trkpt>
<trkpt lat="44.3967583" lon="3.8733240">
<ele>1493.23</ele>
<time>2020-06-25T12:38:48Z</time>
</trkpt>
<trkpt lat="44.3969396" lon="3.8733321">
<ele>1495.52</ele>
<time>2020-06-25T12:38:56Z</time>
</trkpt>
<trkpt lat="44.3971226" lon="3.8733842">
<ele>1495.34</ele>
<time>2020-06-25T12:39:05Z</time>
</trkpt>
<trkpt lat="44.3973173" lon="3.8734472">
<ele>1497.73</ele>
<time>2020-06-25T12:39:15Z</time>
</trkpt>
<trkpt lat="44.3974994" lon="3.8735098">
<ele>1499.94</ele>
<time>2020-06-25T12:39:22Z</time>
</trkpt>
<trkpt lat="44.3976988" lon="3.8735143">
<ele>1499.32</ele>
<time>2020-06-25T12:39:29Z</time>
</trkpt>
<trkpt lat="44.3978912" lon="3.8734827">
<ele>1500.58</ele>
<time>2020-06-25T12:39:35Z</time>
</trkpt>
<trkpt lat="44.3980774" lon="3.8733759">
<ele>1498.20</ele>
<time>2020-06-25T12:39:42Z</time>
</trkpt>
<trkpt lat="44.3982543" lon="3.8732921">
<ele>1498.43</ele>
<time>2020-06-25T12:39:48Z</time>
</trkpt>
<trkpt lat="44.3984254" lon="3.8731738">
<ele>1500.57</ele>
<time>2020-06-25T12:39:56Z</time>
</trkpt>
<trkpt lat="44.3985657" lon="3.8729875">
<ele>1502.95</ele>
<time>2020-06-25T12:40:05Z</time>
</trkpt>
<trkpt lat="44.3986529" lon="3.8727501">
<ele>1497.55</ele>
<time>2020-06-25T12:40:12Z</time>
</trkpt>
<trkpt lat="44.3987102" lon="3.8724836">
<ele>1499.17</ele>
<time>2020-06-25T12:40:18Z</time>
</trkpt>
<trkpt lat="44.3987350" lon="3.8722038">
<ele>1498.02</ele>
<time>2020-06-25T12:40:24Z</time>
</trkpt>
<trkpt lat="44.3987409" lon="3.8719508">
<ele>1496.35</ele>
<time>2020-06-25T12:40:29Z</time>
</trkpt>
<trkpt lat="44.3987676" lon="3.8716568">
<ele>1495.15</ele>
<time>2020-06-25T12:40:34Z</time>
</trkpt>
<trkpt lat="44.3988079" lon="3.8713529">
<ele>1494.01</ele>
<time>2020-06-25T12:40:38Z</time>
</trkpt>
<trkpt lat="44.3988351" lon="3.8710454">
<ele>1493.79</ele>
<time>2020-06-25T12:40:42Z</time>
</trkpt>
<trkpt lat="44.3988485" lon="3.8707878">
<ele>1492.68</ele>
<time>2020-06-25T12:40:45Z</time>
</trkpt>
<trkpt lat="44.3988693" lon="3.8705199">
<ele>1492.47</ele>
<time>2020-06-25T12:40:48Z</time>
</trkpt>
<trkpt lat="44.3989063" lon="3.8702409">
<ele>1491.96</ele>
<time>2020-06-25T12:40:51Z</time>
</trkpt>
<trkpt lat="44.3989323" lon="3.8699303">
<ele>1493.60</ele>
<time>2020-06-25T12:40:54Z</time>
</trkpt>
<trkpt lat="44.3989333" lon="3.8696244">
<ele>1493.10</ele>
<time>2020-06-25T12:40:57Z</time>
</trkpt>
<trkpt lat="44.3988892" lon="3.8693257">
<ele>1492.07</ele>
<time>2020-06-25T12:41:00Z</time>
</trkpt>
<trkpt lat="44.3988430" lon="3.8690118">
<ele>1492.53</ele>
<time>2020-06-25T12:41:03Z</time>
</trkpt>
<trkpt lat="44.3987677" lon="3.8687389">
<ele>1488.37</ele>
<time>2020-06-25T12:41:06Z</time>
</trkpt>
<trkpt lat="44.3986978" lon="3.8684831">
<ele>1481.22</ele>
<time>2020-06-25T12:41:09Z</time>
</trkpt>
<trkpt lat="44.3986221" lon="3.8682289">
<ele>1478.81</ele>
<time>2020-06-25T12:41:12Z</time>
</trkpt>
<trkpt lat="44.3985836" lon="3.8679685">
<ele>1479.52</ele>
<time>2020-06-25T12:41:15Z</time>
</trkpt>
<trkpt lat="44.3985564" lon="3.8677167">
<ele>1481.71</ele>
<time>2020-06-25T12:41:18Z</time>
</trkpt>
<trkpt lat="44.3985280" lon="3.8674057">
<ele>1481.82</ele>
<time>2020-06-25T12:41:21Z</time>
</trkpt>
<trkpt lat="44.3984893" lon="3.8670969">
<ele>1480.63</ele>
<time>2020-06-25T12:41:24Z</time>
</trkpt>
<trkpt lat="44.3984517" lon="3.8668482">
<ele>1477.88</ele>
<time>2020-06-25T12:41:26Z</time>
</trkpt>
<trkpt lat="44.3984496" lon="3.8665601">
<ele>1474.73</ele>
<time>2020-06-25T12:41:29Z</time>
</trkpt>
<trkpt lat="44.3984570" lon="3.8662561">
<ele>1473.39</ele>
<time>2020-06-25T12:41:32Z</time>
</trkpt>
<trkpt lat="44.3985013" lon="3.8659677">
<ele>1474.57</ele>
<time>2020-06-25T12:41:35Z</time>
</trkpt>
<trkpt lat="44.3985732" lon="3.8657063">
<ele>1475.53</ele>
<time>2020-06-25T12:41:38Z</time>
</trkpt>
<trkpt lat="44.3986662" lon="3.8654697">
<ele>1474.81</ele>
<time>2020-06-25T12:41:41Z</time>
</trkpt>
<trkpt lat="44.3987543" lon="3.8652340">
<ele>1472.95</ele>
<time>2020-06-25T12:41:44Z</time>
</trkpt>
<trkpt lat="44.3988432" lon="3.8649962">
<ele>1471.58</ele>
<time>2020-06-25T12:41:47Z</time>
</trkpt>
<trkpt lat="44.3989351" lon="3.8647297">
<ele>1469.98</ele>
<time>2020-06-25T12:41:50Z</time>
</trkpt>
<trkpt lat="44.3989877" lon="3.8644118">
<ele>1468.86</ele>
<time>2020-06-25T12:41:53Z</time>
</trkpt>
<trkpt lat="44.3990074" lon="3.8640745">
<ele>1466.33</ele>
<time>2020-06-25T12:41:56Z</time>
</trkpt>
<trkpt lat="44.3989964" lon="3.8637118">
<ele>1464.15</ele>
<time>2020-06-25T12:41:59Z</time>
</trkpt>
<trkpt lat="44.3989892" lon="3.8634602">
<ele>1462.61</ele>
<time>2020-06-25T12:42:01Z</time>
</trkpt>
<trkpt lat="44.3990104" lon="3.8632044">
<ele>1461.59</ele>
<time>2020-06-25T12:42:03Z</time>
</trkpt>
<trkpt lat="44.3990365" lon="3.8629470">
<ele>1460.20</ele>
<time>2020-06-25T12:42:05Z</time>
</trkpt>
<trkpt lat="44.3990720" lon="3.8626915">
<ele>1458.89</ele>
<time>2020-06-25T12:42:07Z</time>
</trkpt>
<trkpt lat="44.3991318" lon="3.8624396">
<ele>1458.14</ele>
<time>2020-06-25T12:42:09Z</time>
</trkpt>
<trkpt lat="44.3992171" lon="3.8621997">
<ele>1457.19</ele>
<time>2020-06-25T12:42:11Z</time>
</trkpt>
<trkpt lat="44.3992997" lon="3.8619555">
<ele>1455.69</ele>
<time>2020-06-25T12:42:13Z</time>
</trkpt>
<trkpt lat="44.3994118" lon="3.8617387">
<ele>1452.25</ele>
<time>2020-06-25T12:42:15Z</time>
</trkpt>
<trkpt lat="44.3995483" lon="3.8615600">
<ele>1450.09</ele>
<time>2020-06-25T12:42:17Z</time>
</trkpt>
<trkpt lat="44.3997157" lon="3.8613940">
<ele>1448.11</ele>
<time>2020-06-25T12:42:19Z</time>
</trkpt>
<trkpt lat="44.3999080" lon="3.8612584">
<ele>1446.05</ele>
<time>2020-06-25T12:42:21Z</time>
</trkpt>
<trkpt lat="44.4001126" lon="3.8611276">
<ele>1444.09</ele>
<time>2020-06-25T12:42:23Z</time>
</trkpt>
<trkpt lat="44.4002948" lon="3.8609878">
<ele>1441.69</ele>
<time>2020-06-25T12:42:25Z</time>
</trkpt>
<trkpt lat="44.4005230" lon="3.8608656">
<ele>1439.21</ele>
<time>2020-06-25T12:42:28Z</time>
</trkpt>
<trkpt lat="44.4007478" lon="3.8608111">
<ele>1436.84</ele>
<time>2020-06-25T12:42:31Z</time>
</trkpt>
<trkpt lat="44.4009218" lon="3.8607179">
<ele>1436.52</ele>
<time>2020-06-25T12:42:34Z</time>
</trkpt>
<trkpt lat="44.4010834" lon="3.8604962">
<ele>1437.52</ele>
<time>2020-06-25T12:42:38Z</time>
</trkpt>
<trkpt lat="44.4011995" lon="3.8603020">
<ele>1444.35</ele>
<time>2020-06-25T12:42:59Z</time>
</trkpt>
<trkpt lat="44.4013144" lon="3.8600794">
<ele>1443.14</ele>
<time>2020-06-25T12:45:31Z</time>
</trkpt>
<trkpt lat="44.4014243" lon="3.8598549">
<ele>1443.20</ele>
<time>2020-06-25T12:45:40Z</time>
</trkpt>
<trkpt lat="44.4014957" lon="3.8596005">
<ele>1443.17</ele>
<time>2020-06-25T12:45:49Z</time>
</trkpt>
<trkpt lat="44.4015586" lon="3.8593571">
<ele>1444.81</ele>
<time>2020-06-25T12:45:57Z</time>
</trkpt>
<trkpt lat="44.4015915" lon="3.8590986">
<ele>1447.54</ele>
<time>2020-06-25T12:46:06Z</time>
</trkpt>
<trkpt lat="44.4016533" lon="3.8588563">
<ele>1450.69</ele>
<time>2020-06-25T12:46:14Z</time>
</trkpt>
<trkpt lat="44.4017597" lon="3.8586301">
<ele>1453.37</ele>
<time>2020-06-25T12:46:23Z</time>
</trkpt>
<trkpt lat="44.4018540" lon="3.8583849">
<ele>1455.30</ele>
<time>2020-06-25T12:46:32Z</time>
</trkpt>
<trkpt lat="44.4019102" lon="3.8581390">
<ele>1457.39</ele>
<time>2020-06-25T12:46:40Z</time>
</trkpt>
<trkpt lat="44.4019333" lon="3.8578578">
<ele>1459.25</ele>
<time>2020-06-25T12:46:49Z</time>
</trkpt>
<trkpt lat="44.4019148" lon="3.8575912">
<ele>1460.86</ele>
<time>2020-06-25T12:46:58Z</time>
</trkpt>
<trkpt lat="44.4019548" lon="3.8573333">
<ele>1462.73</ele>
<time>2020-06-25T12:47:07Z</time>
</trkpt>
<trkpt lat="44.4020326" lon="3.8571000">
<ele>1462.24</ele>
<time>2020-06-25T12:47:16Z</time>
</trkpt>
<trkpt lat="44.4021060" lon="3.8568653">
<ele>1466.29</ele>
<time>2020-06-25T12:47:24Z</time>
</trkpt>
<trkpt lat="44.4021717" lon="3.8565985">
<ele>1468.67</ele>
<time>2020-06-25T12:47:33Z</time>
</trkpt>
<trkpt lat="44.4023279" lon="3.8564455">
<ele>1468.44</ele>
<time>2020-06-25T12:47:41Z</time>
</trkpt>
<trkpt lat="44.4024868" lon="3.8562982">
<ele>1468.09</ele>
<time>2020-06-25T12:47:48Z</time>
</trkpt>
<trkpt lat="44.4026680" lon="3.8562188">
<ele>1470.89</ele>
<time>2020-06-25T12:47:57Z</time>
</trkpt>
<trkpt lat="44.4028536" lon="3.8562530">
<ele>1476.63</ele>
<time>2020-06-25T12:48:04Z</time>
</trkpt>
<trkpt lat="44.4030393" lon="3.8563855">
<ele>1479.20</ele>
<time>2020-06-25T12:48:09Z</time>
</trkpt>
<trkpt lat="44.4032258" lon="3.8564816">
<ele>1477.89</ele>
<time>2020-06-25T12:48:14Z</time>
</trkpt>
<trkpt lat="44.4034058" lon="3.8565449">
<ele>1478.06</ele>
<time>2020-06-25T12:48:21Z</time>
</trkpt>
<trkpt lat="44.4036024" lon="3.8564868">
<ele>1478.51</ele>
<time>2020-06-25T12:48:28Z</time>
</trkpt>
<trkpt lat="44.4037925" lon="3.8564832">
<ele>1482.85</ele>
<time>2020-06-25T12:48:34Z</time>
</trkpt>
<trkpt lat="44.4039825" lon="3.8564786">
<ele>1486.60</ele>
<time>2020-06-25T12:48:41Z</time>
</trkpt>
<trkpt lat="44.4041804" lon="3.8564594">
<ele>1488.28</ele>
<time>2020-06-25T12:48:50Z</time>
</trkpt>
<trkpt lat="44.4043523" lon="3.8565680">
<ele>1488.75</ele>
<time>2020-06-25T12:48:58Z</time>
</trkpt>
<trkpt lat="44.4045069" lon="3.8567290">
<ele>1494.61</ele>
<time>2020-06-25T12:49:09Z</time>
</trkpt>
<trkpt lat="44.4046795" lon="3.8568331">
<ele>1496.97</ele>
<time>2020-06-25T12:49:20Z</time>
</trkpt>
<trkpt lat="44.4048617" lon="3.8569504">
<ele>1497.20</ele>
<time>2020-06-25T12:49:29Z</time>
</trkpt>
<trkpt lat="44.4050545" lon="3.8569825">
<ele>1497.52</ele>
<time>2020-06-25T12:49:37Z</time>
</trkpt>
<trkpt lat="44.4052348" lon="3.8570195">
<ele>1499.15</ele>
<time>2020-06-25T12:49:44Z</time>
</trkpt>
<trkpt lat="44.4054039" lon="3.8571445">
<ele>1501.09</ele>
<time>2020-06-25T12:49:52Z</time>
</trkpt>
<trkpt lat="44.4054772" lon="3.8573848">
<ele>1502.27</ele>
<time>2020-06-25T12:50:00Z</time>
</trkpt>
<trkpt lat="44.4055655" lon="3.8576322">
<ele>1503.49</ele>
<time>2020-06-25T12:50:09Z</time>
</trkpt>
<trkpt lat="44.4057220" lon="3.8577994">
<ele>1505.24</ele>
<time>2020-06-25T12:50:18Z</time>
</trkpt>
<trkpt lat="44.4058512" lon="3.8579819">
<ele>1507.08</ele>
<time>2020-06-25T12:50:26Z</time>
</trkpt>
<trkpt lat="44.4060032" lon="3.8581452">
<ele>1509.21</ele>
<time>2020-06-25T12:50:35Z</time>
</trkpt>
<trkpt lat="44.4061612" lon="3.8583009">
<ele>1511.29</ele>
<time>2020-06-25T12:50:44Z</time>
</trkpt>
<trkpt lat="44.4063078" lon="3.8585001">
<ele>1512.91</ele>
<time>2020-06-25T12:50:52Z</time>
</trkpt>
<trkpt lat="44.4064495" lon="3.8587235">
<ele>1516.98</ele>
<time>2020-06-25T12:51:00Z</time>
</trkpt>
<trkpt lat="44.4066025" lon="3.8589151">
<ele>1517.97</ele>
<time>2020-06-25T12:51:06Z</time>
</trkpt>
<trkpt lat="44.4067424" lon="3.8590828">
<ele>1517.94</ele>
<time>2020-06-25T12:51:12Z</time>
</trkpt>
<trkpt lat="44.4069020" lon="3.8592133">
<ele>1520.74</ele>
<time>2020-06-25T12:51:18Z</time>
</trkpt>
<trkpt lat="44.4070641" lon="3.8593244">
<ele>1522.89</ele>
<time>2020-06-25T12:51:24Z</time>
</trkpt>
<trkpt lat="44.4072492" lon="3.8594641">
<ele>1524.32</ele>
<time>2020-06-25T12:51:31Z</time>
</trkpt>
<trkpt lat="44.4074338" lon="3.8594425">
<ele>1525.08</ele>
<time>2020-06-25T12:52:19Z</time>
</trkpt>
<trkpt lat="44.4076296" lon="3.8593672">
<ele>1527.02</ele>
<time>2020-06-25T12:52:27Z</time>
</trkpt>
<trkpt lat="44.4078182" lon="3.8593538">
<ele>1528.72</ele>
<time>2020-06-25T12:52:34Z</time>
</trkpt>
<trkpt lat="44.4080138" lon="3.8593993">
<ele>1528.12</ele>
<time>2020-06-25T12:52:43Z</time>
</trkpt>
<trkpt lat="44.4081962" lon="3.8593102">
<ele>1528.66</ele>
<time>2020-06-25T12:52:51Z</time>
</trkpt>
<trkpt lat="44.4083505" lon="3.8591458">
<ele>1529.18</ele>
<time>2020-06-25T12:52:57Z</time>
</trkpt>
<trkpt lat="44.4084921" lon="3.8589414">
<ele>1529.43</ele>
<time>2020-06-25T12:53:04Z</time>
</trkpt>
<trkpt lat="44.4086150" lon="3.8587093">
<ele>1532.60</ele>
<time>2020-06-25T12:53:11Z</time>
</trkpt>
<trkpt lat="44.4087648" lon="3.8585161">
<ele>1533.48</ele>
<time>2020-06-25T12:53:18Z</time>
</trkpt>
<trkpt lat="44.4089331" lon="3.8583534">
<ele>1532.34</ele>
<time>2020-06-25T12:53:25Z</time>
</trkpt>
<trkpt lat="44.4090740" lon="3.8581682">
<ele>1531.75</ele>
<time>2020-06-25T12:53:31Z</time>
</trkpt>
<trkpt lat="44.4092114" lon="3.8579597">
<ele>1533.40</ele>
<time>2020-06-25T12:53:39Z</time>
</trkpt>
<trkpt lat="44.4093695" lon="3.8577678">
<ele>1535.93</ele>
<time>2020-06-25T12:53:44Z</time>
</trkpt>
<trkpt lat="44.4095166" lon="3.8575640">
<ele>1535.48</ele>
<time>2020-06-25T12:53:50Z</time>
</trkpt>
<trkpt lat="44.4096465" lon="3.8573774">
<ele>1535.96</ele>
<time>2020-06-25T12:53:57Z</time>
</trkpt>
<trkpt lat="44.4097515" lon="3.8571585">
<ele>1538.42</ele>
<time>2020-06-25T12:54:03Z</time>
</trkpt>
<trkpt lat="44.4098795" lon="3.8569805">
<ele>1538.34</ele>
<time>2020-06-25T12:54:09Z</time>
</trkpt>
<trkpt lat="44.4100202" lon="3.8568056">
<ele>1539.87</ele>
<time>2020-06-25T12:54:15Z</time>
</trkpt>
<trkpt lat="44.4101857" lon="3.8566135">
<ele>1541.35</ele>
<time>2020-06-25T12:54:23Z</time>
</trkpt>
<trkpt lat="44.4103445" lon="3.8564204">
<ele>1540.93</ele>
<time>2020-06-25T12:54:28Z</time>
</trkpt>
<trkpt lat="44.4104907" lon="3.8562653">
<ele>1542.34</ele>
<time>2020-06-25T12:54:34Z</time>
</trkpt>
<trkpt lat="44.4106834" lon="3.8561511">
<ele>1542.55</ele>
<time>2020-06-25T12:54:41Z</time>
</trkpt>
<trkpt lat="44.4108626" lon="3.8560849">
<ele>1543.33</ele>
<time>2020-06-25T12:54:47Z</time>
</trkpt>
<trkpt lat="44.4110591" lon="3.8560019">
<ele>1543.94</ele>
<time>2020-06-25T12:54:54Z</time>
</trkpt>
<trkpt lat="44.4112504" lon="3.8559784">
<ele>1544.90</ele>
<time>2020-06-25T12:55:00Z</time>
</trkpt>
<trkpt lat="44.4114342" lon="3.8559132">
<ele>1546.07</ele>
<time>2020-06-25T12:55:06Z</time>
</trkpt>
<trkpt lat="44.4116168" lon="3.8558082">
<ele>1546.71</ele>
<time>2020-06-25T12:55:12Z</time>
</trkpt>
<trkpt lat="44.4117757" lon="3.8556887">
<ele>1547.44</ele>
<time>2020-06-25T12:55:17Z</time>
</trkpt>
<trkpt lat="44.4119431" lon="3.8555059">
<ele>1549.69</ele>
<time>2020-06-25T12:55:23Z</time>
</trkpt>
<trkpt lat="44.4121337" lon="3.8553758">
<ele>1550.06</ele>
<time>2020-06-25T12:55:30Z</time>
</trkpt>
<trkpt lat="44.4123159" lon="3.8552680">
<ele>1550.33</ele>
<time>2020-06-25T12:55:37Z</time>
</trkpt>
<trkpt lat="44.4124379" lon="3.8550667">
<ele>1550.72</ele>
<time>2020-06-25T12:55:44Z</time>
</trkpt>
<trkpt lat="44.4125810" lon="3.8548924">
<ele>1552.66</ele>
<time>2020-06-25T12:55:51Z</time>
</trkpt>
<trkpt lat="44.4127368" lon="3.8547159">
<ele>1549.34</ele>
<time>2020-06-25T12:57:15Z</time>
</trkpt>
<trkpt lat="44.4128626" lon="3.8545186">
<ele>1551.24</ele>
<time>2020-06-25T12:57:21Z</time>
</trkpt>
<trkpt lat="44.4129791" lon="3.8542901">
<ele>1552.31</ele>
<time>2020-06-25T12:57:28Z</time>
</trkpt>
<trkpt lat="44.4131114" lon="3.8540645">
<ele>1553.07</ele>
<time>2020-06-25T12:57:35Z</time>
</trkpt>
<trkpt lat="44.4132363" lon="3.8538297">
<ele>1554.76</ele>
<time>2020-06-25T12:57:42Z</time>
</trkpt>
<trkpt lat="44.4133210" lon="3.8535918">
<ele>1555.95</ele>
<time>2020-06-25T12:57:48Z</time>
</trkpt>
<trkpt lat="44.4134066" lon="3.8533636">
<ele>1557.35</ele>
<time>2020-06-25T12:57:55Z</time>
</trkpt>
<trkpt lat="44.4134808" lon="3.8531219">
<ele>1558.22</ele>
<time>2020-06-25T12:58:01Z</time>
</trkpt>
<trkpt lat="44.4135423" lon="3.8528790">
<ele>1558.81</ele>
<time>2020-06-25T12:58:08Z</time>
</trkpt>
<trkpt lat="44.4135809" lon="3.8526211">
<ele>1559.23</ele>
<time>2020-06-25T12:58:14Z</time>
</trkpt>
<trkpt lat="44.4136472" lon="3.8523733">
<ele>1560.23</ele>
<time>2020-06-25T12:58:25Z</time>
</trkpt>
<trkpt lat="44.4137039" lon="3.8521210">
<ele>1561.68</ele>
<time>2020-06-25T12:58:38Z</time>
</trkpt>
<trkpt lat="44.4137679" lon="3.8518775">
<ele>1562.59</ele>
<time>2020-06-25T12:59:36Z</time>
</trkpt>
<trkpt lat="44.4138232" lon="3.8516284">
<ele>1564.01</ele>
<time>2020-06-25T12:59:43Z</time>
</trkpt>
<trkpt lat="44.4138725" lon="3.8513696">
<ele>1564.93</ele>
<time>2020-06-25T12:59:49Z</time>
</trkpt>
<trkpt lat="44.4139331" lon="3.8511018">
<ele>1565.92</ele>
<time>2020-06-25T12:59:56Z</time>
</trkpt>
<trkpt lat="44.4139669" lon="3.8508251">
<ele>1566.76</ele>
<time>2020-06-25T13:00:02Z</time>
</trkpt>
<trkpt lat="44.4139972" lon="3.8505660">
<ele>1567.17</ele>
<time>2020-06-25T13:00:08Z</time>
</trkpt>
<trkpt lat="44.4140407" lon="3.8502673">
<ele>1568.05</ele>
<time>2020-06-25T13:00:15Z</time>
</trkpt>
<trkpt lat="44.4140931" lon="3.8500258">
<ele>1569.68</ele>
<time>2020-06-25T13:00:21Z</time>
</trkpt>
<trkpt lat="44.4141381" lon="3.8497626">
<ele>1571.45</ele>
<time>2020-06-25T13:00:28Z</time>
</trkpt>
<trkpt lat="44.4141557" lon="3.8495045">
<ele>1571.89</ele>
<time>2020-06-25T13:00:35Z</time>
</trkpt>
<trkpt lat="44.4141642" lon="3.8492252">
<ele>1572.35</ele>
<time>2020-06-25T13:00:41Z</time>
</trkpt>
<trkpt lat="44.4141567" lon="3.8489461">
<ele>1572.17</ele>
<time>2020-06-25T13:00:48Z</time>
</trkpt>
<trkpt lat="44.4141106" lon="3.8486695">
<ele>1572.67</ele>
<time>2020-06-25T13:00:54Z</time>
</trkpt>
<trkpt lat="44.4140373" lon="3.8484115">
<ele>1572.21</ele>
<time>2020-06-25T13:01:00Z</time>
</trkpt>
<trkpt lat="44.4139424" lon="3.8481523">
<ele>1573.01</ele>
<time>2020-06-25T13:01:06Z</time>
</trkpt>
<trkpt lat="44.4138444" lon="3.8479288">
<ele>1573.68</ele>
<time>2020-06-25T13:01:12Z</time>
</trkpt>
<trkpt lat="44.4137656" lon="3.8476861">
<ele>1574.33</ele>
<time>2020-06-25T13:01:18Z</time>
</trkpt>
<trkpt lat="44.4137285" lon="3.8474253">
<ele>1574.30</ele>
<time>2020-06-25T13:01:24Z</time>
</trkpt>
<trkpt lat="44.4137147" lon="3.8471228">
<ele>1573.85</ele>
<time>2020-06-25T13:01:30Z</time>
</trkpt>
<trkpt lat="44.4137175" lon="3.8468432">
<ele>1574.68</ele>
<time>2020-06-25T13:01:35Z</time>
</trkpt>
<trkpt lat="44.4137020" lon="3.8465668">
<ele>1575.20</ele>
<time>2020-06-25T13:01:40Z</time>
</trkpt>
<trkpt lat="44.4136624" lon="3.8462983">
<ele>1576.19</ele>
<time>2020-06-25T13:01:47Z</time>
</trkpt>
<trkpt lat="44.4136266" lon="3.8460134">
<ele>1577.32</ele>
<time>2020-06-25T13:01:54Z</time>
</trkpt>
<trkpt lat="44.4135856" lon="3.8457382">
<ele>1576.78</ele>
<time>2020-06-25T13:02:00Z</time>
</trkpt>
<trkpt lat="44.4135412" lon="3.8454806">
<ele>1577.54</ele>
<time>2020-06-25T13:02:05Z</time>
</trkpt>
<trkpt lat="44.4134846" lon="3.8452366">
<ele>1577.49</ele>
<time>2020-06-25T13:02:10Z</time>
</trkpt>
<trkpt lat="44.4133939" lon="3.8449740">
<ele>1576.76</ele>
<time>2020-06-25T13:02:17Z</time>
</trkpt>
<trkpt lat="44.4132745" lon="3.8447622">
<ele>1577.29</ele>
<time>2020-06-25T13:02:24Z</time>
</trkpt>
<trkpt lat="44.4131672" lon="3.8445556">
<ele>1577.32</ele>
<time>2020-06-25T13:02:30Z</time>
</trkpt>
<trkpt lat="44.4130597" lon="3.8443119">
<ele>1576.26</ele>
<time>2020-06-25T13:02:36Z</time>
</trkpt>
<trkpt lat="44.4129479" lon="3.8440870">
<ele>1575.93</ele>
<time>2020-06-25T13:02:42Z</time>
</trkpt>
<trkpt lat="44.4128380" lon="3.8438173">
<ele>1575.68</ele>
<time>2020-06-25T13:02:48Z</time>
</trkpt>
<trkpt lat="44.4127510" lon="3.8435489">
<ele>1577.24</ele>
<time>2020-06-25T13:02:54Z</time>
</trkpt>
<trkpt lat="44.4126995" lon="3.8433066">
<ele>1578.06</ele>
<time>2020-06-25T13:02:59Z</time>
</trkpt>
<trkpt lat="44.4126588" lon="3.8430184">
<ele>1578.83</ele>
<time>2020-06-25T13:03:05Z</time>
</trkpt>
<trkpt lat="44.4126093" lon="3.8427615">
<ele>1579.64</ele>
<time>2020-06-25T13:03:11Z</time>
</trkpt>
<trkpt lat="44.4126016" lon="3.8424789">
<ele>1580.27</ele>
<time>2020-06-25T13:03:17Z</time>
</trkpt>
<trkpt lat="44.4126024" lon="3.8422265">
<ele>1580.93</ele>
<time>2020-06-25T13:03:22Z</time>
</trkpt>
<trkpt lat="44.4125990" lon="3.8419719">
<ele>1581.31</ele>
<time>2020-06-25T13:03:27Z</time>
</trkpt>
<trkpt lat="44.4126050" lon="3.8416912">
<ele>1580.91</ele>
<time>2020-06-25T13:03:33Z</time>
</trkpt>
<trkpt lat="44.4126658" lon="3.8414386">
<ele>1580.23</ele>
<time>2020-06-25T13:03:38Z</time>
</trkpt>
<trkpt lat="44.4127192" lon="3.8411493">
<ele>1579.42</ele>
<time>2020-06-25T13:03:43Z</time>
</trkpt>
<trkpt lat="44.4127616" lon="3.8408615">
<ele>1578.78</ele>
<time>2020-06-25T13:03:48Z</time>
</trkpt>
<trkpt lat="44.4128019" lon="3.8406053">
<ele>1578.03</ele>
<time>2020-06-25T13:03:54Z</time>
</trkpt>
<trkpt lat="44.4128473" lon="3.8403478">
<ele>1577.75</ele>
<time>2020-06-25T13:03:56Z</time>
</trkpt>
<trkpt lat="44.4129163" lon="3.8400868">
<ele>1577.22</ele>
<time>2020-06-25T13:04:00Z</time>
</trkpt>
<trkpt lat="44.4129756" lon="3.8397922">
<ele>1576.82</ele>
<time>2020-06-25T13:04:05Z</time>
</trkpt>
<trkpt lat="44.4130294" lon="3.8395364">
<ele>1575.84</ele>
<time>2020-06-25T13:04:09Z</time>
</trkpt>
<trkpt lat="44.4131042" lon="3.8392690">
<ele>1575.08</ele>
<time>2020-06-25T13:04:13Z</time>
</trkpt>
<trkpt lat="44.4131834" lon="3.8389877">
<ele>1574.75</ele>
<time>2020-06-25T13:04:17Z</time>
</trkpt>
<trkpt lat="44.4132546" lon="3.8386981">
<ele>1573.40</ele>
<time>2020-06-25T13:04:21Z</time>
</trkpt>
<trkpt lat="44.4133158" lon="3.8384304">
<ele>1573.53</ele>
<time>2020-06-25T13:04:25Z</time>
</trkpt>
<trkpt lat="44.4133839" lon="3.8381894">
<ele>1573.46</ele>
<time>2020-06-25T13:04:29Z</time>
</trkpt>
<trkpt lat="44.4134723" lon="3.8379360">
<ele>1573.95</ele>
<time>2020-06-25T13:04:34Z</time>
</trkpt>
<trkpt lat="44.4135540" lon="3.8377063">
<ele>1574.09</ele>
<time>2020-06-25T13:04:39Z</time>
</trkpt>
<trkpt lat="44.4136553" lon="3.8374847">
<ele>1574.84</ele>
<time>2020-06-25T13:04:44Z</time>
</trkpt>
<trkpt lat="44.4137585" lon="3.8372525">
<ele>1574.28</ele>
<time>2020-06-25T13:04:49Z</time>
</trkpt>
<trkpt lat="44.4138579" lon="3.8370134">
<ele>1572.94</ele>
<time>2020-06-25T13:04:54Z</time>
</trkpt>
<trkpt lat="44.4139717" lon="3.8367677">
<ele>1572.50</ele>
<time>2020-06-25T13:04:59Z</time>
</trkpt>
<trkpt lat="44.4140803" lon="3.8365341">
<ele>1571.42</ele>
<time>2020-06-25T13:05:04Z</time>
</trkpt>
<trkpt lat="44.4141763" lon="3.8363075">
<ele>1570.40</ele>
<time>2020-06-25T13:05:08Z</time>
</trkpt>
<trkpt lat="44.4142921" lon="3.8360597">
<ele>1569.70</ele>
<time>2020-06-25T13:05:12Z</time>
</trkpt>
<trkpt lat="44.4143755" lon="3.8358254">
<ele>1570.80</ele>
<time>2020-06-25T13:05:16Z</time>
</trkpt>
<trkpt lat="44.4144480" lon="3.8355525">
<ele>1571.19</ele>
<time>2020-06-25T13:05:21Z</time>
</trkpt>
<trkpt lat="44.4145122" lon="3.8352696">
<ele>1571.52</ele>
<time>2020-06-25T13:05:26Z</time>
</trkpt>
<trkpt lat="44.4146059" lon="3.8350308">
<ele>1572.43</ele>
<time>2020-06-25T13:05:31Z</time>
</trkpt>
<trkpt lat="44.4147788" lon="3.8349555">
<ele>1572.71</ele>
<time>2020-06-25T13:05:36Z</time>
</trkpt>
<trkpt lat="44.4149768" lon="3.8351090">
<ele>1572.37</ele>
<time>2020-06-25T13:05:41Z</time>
</trkpt>
<trkpt lat="44.4151517" lon="3.8351879">
<ele>1569.81</ele>
<time>2020-06-25T13:21:37Z</time>
</trkpt>
<trkpt lat="44.4153344" lon="3.8351779">
<ele>1569.83</ele>
<time>2020-06-25T13:21:47Z</time>
</trkpt>
<trkpt lat="44.4155340" lon="3.8351171">
<ele>1569.32</ele>
<time>2020-06-25T13:21:53Z</time>
</trkpt>
<trkpt lat="44.4157126" lon="3.8349878">
<ele>1569.32</ele>
<time>2020-06-25T13:21:57Z</time>
</trkpt>
<trkpt lat="44.4158980" lon="3.8348422">
<ele>1568.93</ele>
<time>2020-06-25T13:22:01Z</time>
</trkpt>
<trkpt lat="44.4160575" lon="3.8346617">
<ele>1568.51</ele>
<time>2020-06-25T13:22:04Z</time>
</trkpt>
<trkpt lat="44.4162222" lon="3.8344432">
<ele>1568.08</ele>
<time>2020-06-25T13:22:08Z</time>
</trkpt>
<trkpt lat="44.4163821" lon="3.8342870">
<ele>1568.06</ele>
<time>2020-06-25T13:22:11Z</time>
</trkpt>
<trkpt lat="44.4165674" lon="3.8341210">
<ele>1567.93</ele>
<time>2020-06-25T13:22:14Z</time>
</trkpt>
<trkpt lat="44.4167519" lon="3.8339557">
<ele>1567.36</ele>
<time>2020-06-25T13:22:17Z</time>
</trkpt>
<trkpt lat="44.4169230" lon="3.8337742">
<ele>1567.06</ele>
<time>2020-06-25T13:22:20Z</time>
</trkpt>
<trkpt lat="44.4170838" lon="3.8335775">
<ele>1565.28</ele>
<time>2020-06-25T13:22:23Z</time>
</trkpt>
<trkpt lat="44.4172400" lon="3.8333612">
<ele>1564.15</ele>
<time>2020-06-25T13:22:26Z</time>
</trkpt>
<trkpt lat="44.4173966" lon="3.8331359">
<ele>1563.96</ele>
<time>2020-06-25T13:22:29Z</time>
</trkpt>
<trkpt lat="44.4175471" lon="3.8329122">
<ele>1563.27</ele>
<time>2020-06-25T13:22:32Z</time>
</trkpt>
<trkpt lat="44.4176812" lon="3.8326863">
<ele>1563.05</ele>
<time>2020-06-25T13:22:35Z</time>
</trkpt>
<trkpt lat="44.4178218" lon="3.8324844">
<ele>1562.61</ele>
<time>2020-06-25T13:22:38Z</time>
</trkpt>
<trkpt lat="44.4179634" lon="3.8323011">
<ele>1562.68</ele>
<time>2020-06-25T13:22:41Z</time>
</trkpt>
<trkpt lat="44.4180966" lon="3.8321066">
<ele>1562.50</ele>
<time>2020-06-25T13:22:44Z</time>
</trkpt>
<trkpt lat="44.4182446" lon="3.8319265">
<ele>1561.82</ele>
<time>2020-06-25T13:22:47Z</time>
</trkpt>
<trkpt lat="44.4184062" lon="3.8317578">
<ele>1561.69</ele>
<time>2020-06-25T13:22:50Z</time>
</trkpt>
<trkpt lat="44.4185669" lon="3.8315620">
<ele>1561.08</ele>
<time>2020-06-25T13:22:53Z</time>
</trkpt>
<trkpt lat="44.4187347" lon="3.8313645">
<ele>1560.19</ele>
<time>2020-06-25T13:22:56Z</time>
</trkpt>
<trkpt lat="44.4188976" lon="3.8311356">
<ele>1560.02</ele>
<time>2020-06-25T13:22:59Z</time>
</trkpt>
<trkpt lat="44.4190320" lon="3.8308885">
<ele>1559.72</ele>
<time>2020-06-25T13:23:02Z</time>
</trkpt>
<trkpt lat="44.4191715" lon="3.8306392">
<ele>1559.09</ele>
<time>2020-06-25T13:23:05Z</time>
</trkpt>
<trkpt lat="44.4192490" lon="3.8303653">
<ele>1558.88</ele>
<time>2020-06-25T13:23:08Z</time>
</trkpt>
<trkpt lat="44.4193081" lon="3.8300684">
<ele>1558.57</ele>
<time>2020-06-25T13:23:11Z</time>
</trkpt>
<trkpt lat="44.4193460" lon="3.8297674">
<ele>1558.40</ele>
<time>2020-06-25T13:23:14Z</time>
</trkpt>
<trkpt lat="44.4193381" lon="3.8294814">
<ele>1558.03</ele>
<time>2020-06-25T13:23:17Z</time>
</trkpt>
<trkpt lat="44.4192978" lon="3.8292162">
<ele>1557.77</ele>
<time>2020-06-25T13:23:20Z</time>
</trkpt>
<trkpt lat="44.4192303" lon="3.8289139">
<ele>1558.22</ele>
<time>2020-06-25T13:23:24Z</time>
</trkpt>
<trkpt lat="44.4191604" lon="3.8286395">
<ele>1558.32</ele>
<time>2020-06-25T13:23:28Z</time>
</trkpt>
<trkpt lat="44.4191077" lon="3.8283966">
<ele>1558.47</ele>
<time>2020-06-25T13:23:32Z</time>
</trkpt>
<trkpt lat="44.4190393" lon="3.8281593">
<ele>1558.32</ele>
<time>2020-06-25T13:23:37Z</time>
</trkpt>
<trkpt lat="44.4189877" lon="3.8278871">
<ele>1556.51</ele>
<time>2020-06-25T13:23:52Z</time>
</trkpt>
<trkpt lat="44.4189399" lon="3.8276132">
<ele>1555.00</ele>
<time>2020-06-25T13:23:57Z</time>
</trkpt>
<trkpt lat="44.4188992" lon="3.8273586">
<ele>1554.29</ele>
<time>2020-06-25T13:24:01Z</time>
</trkpt>
<trkpt lat="44.4188498" lon="3.8271001">
<ele>1554.46</ele>
<time>2020-06-25T13:24:05Z</time>
</trkpt>
<trkpt lat="44.4187825" lon="3.8268563">
<ele>1555.03</ele>
<time>2020-06-25T13:24:09Z</time>
</trkpt>
<trkpt lat="44.4186708" lon="3.8265881">
<ele>1554.20</ele>
<time>2020-06-25T13:24:14Z</time>
</trkpt>
<trkpt lat="44.4185325" lon="3.8263562">
<ele>1553.94</ele>
<time>2020-06-25T13:24:19Z</time>
</trkpt>
<trkpt lat="44.4184054" lon="3.8261673">
<ele>1556.56</ele>
<time>2020-06-25T13:24:23Z</time>
</trkpt>
<trkpt lat="44.4182502" lon="3.8259483">
<ele>1554.84</ele>
<time>2020-06-25T13:24:28Z</time>
</trkpt>
<trkpt lat="44.4180791" lon="3.8257487">
<ele>1553.13</ele>
<time>2020-06-25T13:24:33Z</time>
</trkpt>
<trkpt lat="44.4179319" lon="3.8255859">
<ele>1552.28</ele>
<time>2020-06-25T13:24:37Z</time>
</trkpt>
<trkpt lat="44.4177934" lon="3.8254086">
<ele>1552.29</ele>
<time>2020-06-25T13:24:41Z</time>
</trkpt>
<trkpt lat="44.4176449" lon="3.8252505">
<ele>1551.89</ele>
<time>2020-06-25T13:24:45Z</time>
</trkpt>
<trkpt lat="44.4174689" lon="3.8250513">
<ele>1552.14</ele>
<time>2020-06-25T13:24:50Z</time>
</trkpt>
<trkpt lat="44.4173321" lon="3.8248816">
<ele>1551.93</ele>
<time>2020-06-25T13:24:54Z</time>
</trkpt>
<trkpt lat="44.4171890" lon="3.8247121">
<ele>1551.52</ele>
<time>2020-06-25T13:24:58Z</time>
</trkpt>
<trkpt lat="44.4170411" lon="3.8245584">
<ele>1551.74</ele>
<time>2020-06-25T13:25:02Z</time>
</trkpt>
<trkpt lat="44.4168876" lon="3.8243445">
<ele>1552.54</ele>
<time>2020-06-25T13:25:07Z</time>
</trkpt>
<trkpt lat="44.4167522" lon="3.8241566">
<ele>1552.02</ele>
<time>2020-06-25T13:25:12Z</time>
</trkpt>
<trkpt lat="44.4166405" lon="3.8239392">
<ele>1552.42</ele>
<time>2020-06-25T13:25:18Z</time>
</trkpt>
<trkpt lat="44.4166038" lon="3.8236648">
<ele>1554.63</ele>
<time>2020-06-25T13:25:25Z</time>
</trkpt>
<trkpt lat="44.4166646" lon="3.8234027">
<ele>1555.01</ele>
<time>2020-06-25T13:25:31Z</time>
</trkpt>
<trkpt lat="44.4167639" lon="3.8231767">
<ele>1554.46</ele>
<time>2020-06-25T13:25:36Z</time>
</trkpt>
<trkpt lat="44.4169008" lon="3.8229879">
<ele>1554.71</ele>
<time>2020-06-25T13:25:41Z</time>
</trkpt>
<trkpt lat="44.4170413" lon="3.8227836">
<ele>1555.28</ele>
<time>2020-06-25T13:25:47Z</time>
</trkpt>
<trkpt lat="44.4171511" lon="3.8225553">
<ele>1555.16</ele>
<time>2020-06-25T13:25:53Z</time>
</trkpt>
<trkpt lat="44.4172353" lon="3.8222950">
<ele>1555.94</ele>
<time>2020-06-25T13:26:00Z</time>
</trkpt>
<trkpt lat="44.4173220" lon="3.8220553">
<ele>1555.92</ele>
<time>2020-06-25T13:26:07Z</time>
</trkpt>
<trkpt lat="44.4174760" lon="3.8218557">
<ele>1555.80</ele>
<time>2020-06-25T13:26:13Z</time>
</trkpt>
<trkpt lat="44.4176352" lon="3.8216673">
<ele>1556.14</ele>
<time>2020-06-25T13:26:19Z</time>
</trkpt>
<trkpt lat="44.4177686" lon="3.8214870">
<ele>1556.75</ele>
<time>2020-06-25T13:26:25Z</time>
</trkpt>
<trkpt lat="44.4179166" lon="3.8213187">
<ele>1556.80</ele>
<time>2020-06-25T13:26:32Z</time>
</trkpt>
<trkpt lat="44.4180638" lon="3.8211375">
<ele>1557.79</ele>
<time>2020-06-25T13:26:39Z</time>
</trkpt>
<trkpt lat="44.4182114" lon="3.8209467">
<ele>1558.93</ele>
<time>2020-06-25T13:26:46Z</time>
</trkpt>
<trkpt lat="44.4183718" lon="3.8207640">
<ele>1559.68</ele>
<time>2020-06-25T13:26:53Z</time>
</trkpt>
<trkpt lat="44.4185207" lon="3.8205926">
<ele>1560.04</ele>
<time>2020-06-25T13:26:59Z</time>
</trkpt>
<trkpt lat="44.4186718" lon="3.8204238">
<ele>1560.04</ele>
<time>2020-06-25T13:27:05Z</time>
</trkpt>
<trkpt lat="44.4188314" lon="3.8202963">
<ele>1560.44</ele>
<time>2020-06-25T13:27:11Z</time>
</trkpt>
<trkpt lat="44.4190141" lon="3.8202933">
<ele>1561.43</ele>
<time>2020-06-25T13:27:17Z</time>
</trkpt>
<trkpt lat="44.4192125" lon="3.8203906">
<ele>1561.62</ele>
<time>2020-06-25T13:27:23Z</time>
</trkpt>
<trkpt lat="44.4193900" lon="3.8204583">
<ele>1561.70</ele>
<time>2020-06-25T13:27:28Z</time>
</trkpt>
<trkpt lat="44.4195952" lon="3.8204707">
<ele>1561.44</ele>
<time>2020-06-25T13:27:34Z</time>
</trkpt>
<trkpt lat="44.4198082" lon="3.8204750">
<ele>1561.10</ele>
<time>2020-06-25T13:27:40Z</time>
</trkpt>
<trkpt lat="44.4200109" lon="3.8205035">
<ele>1561.23</ele>
<time>2020-06-25T13:27:46Z</time>
</trkpt>
<trkpt lat="44.4202059" lon="3.8205661">
<ele>1561.10</ele>
<time>2020-06-25T13:27:52Z</time>
</trkpt>
<trkpt lat="44.4204224" lon="3.8205830">
<ele>1560.69</ele>
<time>2020-06-25T13:27:58Z</time>
</trkpt>
<trkpt lat="44.4206109" lon="3.8205143">
<ele>1560.26</ele>
<time>2020-06-25T13:28:03Z</time>
</trkpt>
<trkpt lat="44.4208015" lon="3.8204298">
<ele>1559.91</ele>
<time>2020-06-25T13:28:08Z</time>
</trkpt>
<trkpt lat="44.4209811" lon="3.8203350">
<ele>1559.96</ele>
<time>2020-06-25T13:28:13Z</time>
</trkpt>
<trkpt lat="44.4211436" lon="3.8201926">
<ele>1559.85</ele>
<time>2020-06-25T13:28:18Z</time>
</trkpt>
<trkpt lat="44.4212895" lon="3.8200383">
<ele>1560.10</ele>
<time>2020-06-25T13:28:23Z</time>
</trkpt>
<trkpt lat="44.4214432" lon="3.8198474">
<ele>1560.44</ele>
<time>2020-06-25T13:28:29Z</time>
</trkpt>
<trkpt lat="44.4215868" lon="3.8196195">
<ele>1560.51</ele>
<time>2020-06-25T13:28:35Z</time>
</trkpt>
<trkpt lat="44.4216800" lon="3.8193935">
<ele>1560.53</ele>
<time>2020-06-25T13:28:40Z</time>
</trkpt>
<trkpt lat="44.4218141" lon="3.8187910">
<ele>1560.14</ele>
<time>2020-06-25T13:30:03Z</time>
</trkpt>
<trkpt lat="44.4218320" lon="3.8184979">
<ele>1561.75</ele>
<time>2020-06-25T13:30:24Z</time>
</trkpt>
<trkpt lat="44.4218363" lon="3.8182335">
<ele>1562.29</ele>
<time>2020-06-25T13:30:28Z</time>
</trkpt>
<trkpt lat="44.4218664" lon="3.8179595">
<ele>1562.25</ele>
<time>2020-06-25T13:30:32Z</time>
</trkpt>
<trkpt lat="44.4218732" lon="3.8176708">
<ele>1562.27</ele>
<time>2020-06-25T13:30:36Z</time>
</trkpt>
<trkpt lat="44.4218943" lon="3.8173968">
<ele>1562.63</ele>
<time>2020-06-25T13:30:40Z</time>
</trkpt>
<trkpt lat="44.4219153" lon="3.8171292">
<ele>1563.57</ele>
<time>2020-06-25T13:30:44Z</time>
</trkpt>
<trkpt lat="44.4219442" lon="3.8168521">
<ele>1563.99</ele>
<time>2020-06-25T13:30:48Z</time>
</trkpt>
<trkpt lat="44.4219680" lon="3.8165761">
<ele>1564.92</ele>
<time>2020-06-25T13:30:52Z</time>
</trkpt>
<trkpt lat="44.4219866" lon="3.8162938">
<ele>1565.13</ele>
<time>2020-06-25T13:30:56Z</time>
</trkpt>
<trkpt lat="44.4220151" lon="3.8160025">
<ele>1564.48</ele>
<time>2020-06-25T13:31:00Z</time>
</trkpt>
<trkpt lat="44.4220397" lon="3.8157114">
<ele>1563.97</ele>
<time>2020-06-25T13:31:04Z</time>
</trkpt>
<trkpt lat="44.4220751" lon="3.8154207">
<ele>1563.54</ele>
<time>2020-06-25T13:31:08Z</time>
</trkpt>
<trkpt lat="44.4221230" lon="3.8151465">
<ele>1564.02</ele>
<time>2020-06-25T13:31:12Z</time>
</trkpt>
<trkpt lat="44.4221652" lon="3.8148914">
<ele>1564.22</ele>
<time>2020-06-25T13:31:16Z</time>
</trkpt>
<trkpt lat="44.4222080" lon="3.8146054">
<ele>1565.10</ele>
<time>2020-06-25T13:31:21Z</time>
</trkpt>
<trkpt lat="44.4222163" lon="3.8143321">
<ele>1565.69</ele>
<time>2020-06-25T13:31:26Z</time>
</trkpt>
<trkpt lat="44.4222866" lon="3.8140477">
<ele>1566.33</ele>
<time>2020-06-25T13:31:31Z</time>
</trkpt>
<trkpt lat="44.4224021" lon="3.8137942">
<ele>1566.63</ele>
<time>2020-06-25T13:31:36Z</time>
</trkpt>
<trkpt lat="44.4225095" lon="3.8135647">
<ele>1566.48</ele>
<time>2020-06-25T13:31:40Z</time>
</trkpt>
<trkpt lat="44.4226327" lon="3.8133767">
<ele>1566.37</ele>
<time>2020-06-25T13:31:43Z</time>
</trkpt>
<trkpt lat="44.4227736" lon="3.8131739">
<ele>1565.54</ele>
<time>2020-06-25T13:31:46Z</time>
</trkpt>
<trkpt lat="44.4228968" lon="3.8129614">
<ele>1565.34</ele>
<time>2020-06-25T13:31:49Z</time>
</trkpt>
<trkpt lat="44.4230294" lon="3.8127705">
<ele>1565.07</ele>
<time>2020-06-25T13:31:52Z</time>
</trkpt>
<trkpt lat="44.4231570" lon="3.8125715">
<ele>1565.29</ele>
<time>2020-06-25T13:31:55Z</time>
</trkpt>
<trkpt lat="44.4232922" lon="3.8123860">
<ele>1565.27</ele>
<time>2020-06-25T13:31:58Z</time>
</trkpt>
<trkpt lat="44.4234286" lon="3.8121944">
<ele>1564.71</ele>
<time>2020-06-25T13:32:01Z</time>
</trkpt>
<trkpt lat="44.4235594" lon="3.8119951">
<ele>1564.47</ele>
<time>2020-06-25T13:32:04Z</time>
</trkpt>
<trkpt lat="44.4236895" lon="3.8117973">
<ele>1564.02</ele>
<time>2020-06-25T13:32:07Z</time>
</trkpt>
<trkpt lat="44.4238143" lon="3.8116016">
<ele>1563.89</ele>
<time>2020-06-25T13:32:10Z</time>
</trkpt>
<trkpt lat="44.4239359" lon="3.8113937">
<ele>1564.12</ele>
<time>2020-06-25T13:32:13Z</time>
</trkpt>
<trkpt lat="44.4240559" lon="3.8111953">
<ele>1564.54</ele>
<time>2020-06-25T13:32:16Z</time>
</trkpt>
<trkpt lat="44.4242095" lon="3.8109383">
<ele>1564.46</ele>
<time>2020-06-25T13:32:20Z</time>
</trkpt>
<trkpt lat="44.4243207" lon="3.8107269">
<ele>1564.46</ele>
<time>2020-06-25T13:32:23Z</time>
</trkpt>
<trkpt lat="44.4244300" lon="3.8105082">
<ele>1563.68</ele>
<time>2020-06-25T13:32:26Z</time>
</trkpt>
<trkpt lat="44.4245224" lon="3.8102802">
<ele>1563.44</ele>
<time>2020-06-25T13:32:29Z</time>
</trkpt>
<trkpt lat="44.4245711" lon="3.8100298">
<ele>1563.88</ele>
<time>2020-06-25T13:32:32Z</time>
</trkpt>
<trkpt lat="44.4245386" lon="3.8097442">
<ele>1564.42</ele>
<time>2020-06-25T13:32:36Z</time>
</trkpt>
<trkpt lat="44.4244845" lon="3.8094728">
<ele>1565.02</ele>
<time>2020-06-25T13:32:40Z</time>
</trkpt>
<trkpt lat="44.4244388" lon="3.8092168">
<ele>1565.65</ele>
<time>2020-06-25T13:32:44Z</time>
</trkpt>
<trkpt lat="44.4243832" lon="3.8089719">
<ele>1566.34</ele>
<time>2020-06-25T13:32:48Z</time>
</trkpt>
<trkpt lat="44.4243231" lon="3.8087259">
<ele>1566.75</ele>
<time>2020-06-25T13:32:52Z</time>
</trkpt>
<trkpt lat="44.4242744" lon="3.8084684">
<ele>1566.85</ele>
<time>2020-06-25T13:32:56Z</time>
</trkpt>
<trkpt lat="44.4242115" lon="3.8082038">
<ele>1567.22</ele>
<time>2020-06-25T13:33:00Z</time>
</trkpt>
<trkpt lat="44.4241420" lon="3.8079495">
<ele>1567.12</ele>
<time>2020-06-25T13:33:04Z</time>
</trkpt>
<trkpt lat="44.4240619" lon="3.8076902">
<ele>1567.19</ele>
<time>2020-06-25T13:33:08Z</time>
</trkpt>
<trkpt lat="44.4239808" lon="3.8074152">
<ele>1567.78</ele>
<time>2020-06-25T13:33:13Z</time>
</trkpt>
<trkpt lat="44.4239102" lon="3.8071625">
<ele>1567.82</ele>
<time>2020-06-25T13:33:23Z</time>
</trkpt>
<trkpt lat="44.4238490" lon="3.8069017">
<ele>1568.36</ele>
<time>2020-06-25T13:33:32Z</time>
</trkpt>
<trkpt lat="44.4237894" lon="3.8066401">
<ele>1569.80</ele>
<time>2020-06-25T13:33:40Z</time>
</trkpt>
<trkpt lat="44.4237182" lon="3.8063862">
<ele>1571.00</ele>
<time>2020-06-25T13:33:48Z</time>
</trkpt>
<trkpt lat="44.4236350" lon="3.8061307">
<ele>1571.98</ele>
<time>2020-06-25T13:33:57Z</time>
</trkpt>
<trkpt lat="44.4235633" lon="3.8058739">
<ele>1573.27</ele>
<time>2020-06-25T13:34:06Z</time>
</trkpt>
<trkpt lat="44.4235364" lon="3.8056221">
<ele>1573.56</ele>
<time>2020-06-25T13:34:14Z</time>
</trkpt>
<trkpt lat="44.4235487" lon="3.8053335">
<ele>1574.29</ele>
<time>2020-06-25T13:34:22Z</time>
</trkpt>
<trkpt lat="44.4235808" lon="3.8050646">
<ele>1574.64</ele>
<time>2020-06-25T13:34:29Z</time>
</trkpt>
<trkpt lat="44.4236309" lon="3.8048147">
<ele>1574.32</ele>
<time>2020-06-25T13:34:34Z</time>
</trkpt>
<trkpt lat="44.4236705" lon="3.8045404">
<ele>1574.39</ele>
<time>2020-06-25T13:34:39Z</time>
</trkpt>
<trkpt lat="44.4237194" lon="3.8042635">
<ele>1575.02</ele>
<time>2020-06-25T13:34:44Z</time>
</trkpt>
<trkpt lat="44.4237832" lon="3.8039781">
<ele>1574.62</ele>
<time>2020-06-25T13:34:49Z</time>
</trkpt>
<trkpt lat="44.4238489" lon="3.8036938">
<ele>1574.47</ele>
<time>2020-06-25T13:34:54Z</time>
</trkpt>
<trkpt lat="44.4239231" lon="3.8034335">
<ele>1574.01</ele>
<time>2020-06-25T13:34:59Z</time>
</trkpt>
<trkpt lat="44.4239879" lon="3.8031520">
<ele>1573.31</ele>
<time>2020-06-25T13:35:04Z</time>
</trkpt>
<trkpt lat="44.4240364" lon="3.8029085">
<ele>1573.15</ele>
<time>2020-06-25T13:35:08Z</time>
</trkpt>
<trkpt lat="44.4240853" lon="3.8026314">
<ele>1573.75</ele>
<time>2020-06-25T13:35:13Z</time>
</trkpt>
<trkpt lat="44.4241582" lon="3.8023663">
<ele>1573.67</ele>
<time>2020-06-25T13:35:18Z</time>
</trkpt>
<trkpt lat="44.4242167" lon="3.8021066">
<ele>1574.12</ele>
<time>2020-06-25T13:35:23Z</time>
</trkpt>
<trkpt lat="44.4242666" lon="3.8018221">
<ele>1574.22</ele>
<time>2020-06-25T13:35:28Z</time>
</trkpt>
<trkpt lat="44.4242738" lon="3.8015242">
<ele>1573.56</ele>
<time>2020-06-25T13:35:33Z</time>
</trkpt>
<trkpt lat="44.4242681" lon="3.8012357">
<ele>1573.59</ele>
<time>2020-06-25T13:35:38Z</time>
</trkpt>
<trkpt lat="44.4242343" lon="3.8009751">
<ele>1573.63</ele>
<time>2020-06-25T13:35:43Z</time>
</trkpt>
<trkpt lat="44.4241956" lon="3.8007171">
<ele>1573.83</ele>
<time>2020-06-25T13:35:48Z</time>
</trkpt>
<trkpt lat="44.4241360" lon="3.8004422">
<ele>1574.43</ele>
<time>2020-06-25T13:35:54Z</time>
</trkpt>
<trkpt lat="44.4240983" lon="3.8001563">
<ele>1575.24</ele>
<time>2020-06-25T13:36:00Z</time>
</trkpt>
<trkpt lat="44.4240862" lon="3.7998807">
<ele>1575.58</ele>
<time>2020-06-25T13:36:06Z</time>
</trkpt>
<trkpt lat="44.4240991" lon="3.7995940">
<ele>1575.56</ele>
<time>2020-06-25T13:36:12Z</time>
</trkpt>
<trkpt lat="44.4241573" lon="3.7993494">
<ele>1575.29</ele>
<time>2020-06-25T13:36:17Z</time>
</trkpt>
<trkpt lat="44.4242795" lon="3.7990959">
<ele>1575.52</ele>
<time>2020-06-25T13:36:22Z</time>
</trkpt>
<trkpt lat="44.4244052" lon="3.7988410">
<ele>1575.68</ele>
<time>2020-06-25T13:36:27Z</time>
</trkpt>
<trkpt lat="44.4245238" lon="3.7986343">
<ele>1575.30</ele>
<time>2020-06-25T13:36:31Z</time>
</trkpt>
<trkpt lat="44.4246330" lon="3.7984286">
<ele>1575.04</ele>
<time>2020-06-25T13:36:35Z</time>
</trkpt>
<trkpt lat="44.4247566" lon="3.7981737">
<ele>1574.47</ele>
<time>2020-06-25T13:36:40Z</time>
</trkpt>
<trkpt lat="44.4248476" lon="3.7979544">
<ele>1574.69</ele>
<time>2020-06-25T13:36:44Z</time>
</trkpt>
<trkpt lat="44.4249544" lon="3.7977079">
<ele>1574.90</ele>
<time>2020-06-25T13:36:48Z</time>
</trkpt>
<trkpt lat="44.4250604" lon="3.7974375">
<ele>1575.24</ele>
<time>2020-06-25T13:36:52Z</time>
</trkpt>
<trkpt lat="44.4251464" lon="3.7972153">
<ele>1575.11</ele>
<time>2020-06-25T13:36:55Z</time>
</trkpt>
<trkpt lat="44.4252380" lon="3.7969963">
<ele>1574.97</ele>
<time>2020-06-25T13:36:58Z</time>
</trkpt>
<trkpt lat="44.4253373" lon="3.7967743">
<ele>1574.76</ele>
<time>2020-06-25T13:37:01Z</time>
</trkpt>
<trkpt lat="44.4254311" lon="3.7965430">
<ele>1574.95</ele>
<time>2020-06-25T13:37:04Z</time>
</trkpt>
<trkpt lat="44.4255254" lon="3.7963129">
<ele>1574.84</ele>
<time>2020-06-25T13:37:07Z</time>
</trkpt>
<trkpt lat="44.4256207" lon="3.7960948">
<ele>1574.65</ele>
<time>2020-06-25T13:37:10Z</time>
</trkpt>
<trkpt lat="44.4257138" lon="3.7958734">
<ele>1574.32</ele>
<time>2020-06-25T13:37:13Z</time>
</trkpt>
<trkpt lat="44.4258084" lon="3.7956471">
<ele>1573.93</ele>
<time>2020-06-25T13:37:16Z</time>
</trkpt>
<trkpt lat="44.4259104" lon="3.7954211">
<ele>1573.25</ele>
<time>2020-06-25T13:37:19Z</time>
</trkpt>
<trkpt lat="44.4259896" lon="3.7951584">
<ele>1572.72</ele>
<time>2020-06-25T13:37:22Z</time>
</trkpt>
<trkpt lat="44.4260454" lon="3.7949009">
<ele>1572.23</ele>
<time>2020-06-25T13:37:25Z</time>
</trkpt>
<trkpt lat="44.4260619" lon="3.7946433">
<ele>1571.86</ele>
<time>2020-06-25T13:37:28Z</time>
</trkpt>
<trkpt lat="44.4260504" lon="3.7943847">
<ele>1571.49</ele>
<time>2020-06-25T13:37:31Z</time>
</trkpt>
<trkpt lat="44.4260093" lon="3.7941363">
<ele>1571.21</ele>
<time>2020-06-25T13:37:34Z</time>
</trkpt>
<trkpt lat="44.4259139" lon="3.7938459">
<ele>1571.22</ele>
<time>2020-06-25T13:37:38Z</time>
</trkpt>
<trkpt lat="44.4257609" lon="3.7936282">
<ele>1571.30</ele>
<time>2020-06-25T13:37:42Z</time>
</trkpt>
<trkpt lat="44.4255975" lon="3.7934805">
<ele>1571.75</ele>
<time>2020-06-25T13:37:46Z</time>
</trkpt>
<trkpt lat="44.4254163" lon="3.7933966">
<ele>1572.85</ele>
<time>2020-06-25T13:37:51Z</time>
</trkpt>
<trkpt lat="44.4251990" lon="3.7933381">
<ele>1572.37</ele>
<time>2020-06-25T13:37:56Z</time>
</trkpt>
<trkpt lat="44.4250015" lon="3.7932844">
<ele>1571.90</ele>
<time>2020-06-25T13:38:01Z</time>
</trkpt>
<trkpt lat="44.4247991" lon="3.7932476">
<ele>1571.83</ele>
<time>2020-06-25T13:38:06Z</time>
</trkpt>
<trkpt lat="44.4246007" lon="3.7932607">
<ele>1572.24</ele>
<time>2020-06-25T13:38:11Z</time>
</trkpt>
<trkpt lat="44.4244176" lon="3.7932795">
<ele>1572.89</ele>
<time>2020-06-25T13:38:16Z</time>
</trkpt>
<trkpt lat="44.4242065" lon="3.7932891">
<ele>1573.38</ele>
<time>2020-06-25T13:38:22Z</time>
</trkpt>
<trkpt lat="44.4240229" lon="3.7932720">
<ele>1574.36</ele>
<time>2020-06-25T13:38:27Z</time>
</trkpt>
<trkpt lat="44.4238208" lon="3.7932358">
<ele>1574.92</ele>
<time>2020-06-25T13:38:33Z</time>
</trkpt>
<trkpt lat="44.4236230" lon="3.7931854">
<ele>1575.38</ele>
<time>2020-06-25T13:38:39Z</time>
</trkpt>
<trkpt lat="44.4234416" lon="3.7931381">
<ele>1574.72</ele>
<time>2020-06-25T13:38:45Z</time>
</trkpt>
<trkpt lat="44.4232389" lon="3.7930872">
<ele>1575.32</ele>
<time>2020-06-25T13:38:52Z</time>
</trkpt>
<trkpt lat="44.4230589" lon="3.7930562">
<ele>1576.21</ele>
<time>2020-06-25T13:38:58Z</time>
</trkpt>
<trkpt lat="44.4228839" lon="3.7929362">
<ele>1575.77</ele>
<time>2020-06-25T13:39:04Z</time>
</trkpt>
<trkpt lat="44.4227927" lon="3.7926932">
<ele>1575.55</ele>
<time>2020-06-25T13:39:09Z</time>
</trkpt>
<trkpt lat="44.4228611" lon="3.7924246">
<ele>1576.19</ele>
<time>2020-06-25T13:39:15Z</time>
</trkpt>
<trkpt lat="44.4230321" lon="3.7923390">
<ele>1577.05</ele>
<time>2020-06-25T13:39:20Z</time>
</trkpt>
<trkpt lat="44.4232322" lon="3.7922504">
<ele>1576.75</ele>
<time>2020-06-25T13:39:25Z</time>
</trkpt>
<trkpt lat="44.4234302" lon="3.7921393">
<ele>1575.27</ele>
<time>2020-06-25T13:39:30Z</time>
</trkpt>
<trkpt lat="44.4235973" lon="3.7919909">
<ele>1574.65</ele>
<time>2020-06-25T13:39:34Z</time>
</trkpt>
<trkpt lat="44.4237706" lon="3.7917994">
<ele>1574.39</ele>
<time>2020-06-25T13:39:38Z</time>
</trkpt>
<trkpt lat="44.4239582" lon="3.7915990">
<ele>1573.60</ele>
<time>2020-06-25T13:39:42Z</time>
</trkpt>
<trkpt lat="44.4241097" lon="3.7914368">
<ele>1572.26</ele>
<time>2020-06-25T13:39:45Z</time>
</trkpt>
<trkpt lat="44.4242553" lon="3.7912491">
<ele>1571.41</ele>
<time>2020-06-25T13:39:48Z</time>
</trkpt>
<trkpt lat="44.4243827" lon="3.7910314">
<ele>1570.70</ele>
<time>2020-06-25T13:39:51Z</time>
</trkpt>
<trkpt lat="44.4244713" lon="3.7907991">
<ele>1570.07</ele>
<time>2020-06-25T13:39:54Z</time>
</trkpt>
<trkpt lat="44.4245310" lon="3.7905601">
<ele>1570.06</ele>
<time>2020-06-25T13:39:57Z</time>
</trkpt>
<trkpt lat="44.4245899" lon="3.7902535">
<ele>1568.80</ele>
<time>2020-06-25T13:40:01Z</time>
</trkpt>
<trkpt lat="44.4246391" lon="3.7899329">
<ele>1567.89</ele>
<time>2020-06-25T13:40:05Z</time>
</trkpt>
<trkpt lat="44.4246711" lon="3.7896034">
<ele>1567.49</ele>
<time>2020-06-25T13:40:09Z</time>
</trkpt>
<trkpt lat="44.4246608" lon="3.7892758">
<ele>1567.05</ele>
<time>2020-06-25T13:40:13Z</time>
</trkpt>
<trkpt lat="44.4246060" lon="3.7889717">
<ele>1567.43</ele>
<time>2020-06-25T13:40:17Z</time>
</trkpt>
<trkpt lat="44.4245386" lon="3.7886902">
<ele>1568.28</ele>
<time>2020-06-25T13:40:21Z</time>
</trkpt>
<trkpt lat="44.4244700" lon="3.7884231">
<ele>1568.66</ele>
<time>2020-06-25T13:40:25Z</time>
</trkpt>
<trkpt lat="44.4244003" lon="3.7881611">
<ele>1568.44</ele>
<time>2020-06-25T13:40:29Z</time>
</trkpt>
<trkpt lat="44.4243308" lon="3.7879148">
<ele>1568.76</ele>
<time>2020-06-25T13:40:33Z</time>
</trkpt>
<trkpt lat="44.4242721" lon="3.7876230">
<ele>1568.87</ele>
<time>2020-06-25T13:40:38Z</time>
</trkpt>
<trkpt lat="44.4242223" lon="3.7873418">
<ele>1568.92</ele>
<time>2020-06-25T13:40:43Z</time>
</trkpt>
<trkpt lat="44.4241858" lon="3.7870421">
<ele>1569.61</ele>
<time>2020-06-25T13:40:48Z</time>
</trkpt>
<trkpt lat="44.4241781" lon="3.7867581">
<ele>1570.32</ele>
<time>2020-06-25T13:40:53Z</time>
</trkpt>
<trkpt lat="44.4242783" lon="3.7865185">
<ele>1570.42</ele>
<time>2020-06-25T13:40:58Z</time>
</trkpt>
<trkpt lat="44.4244898" lon="3.7864253">
<ele>1569.62</ele>
<time>2020-06-25T13:41:03Z</time>
</trkpt>
<trkpt lat="44.4246841" lon="3.7864034">
<ele>1568.16</ele>
<time>2020-06-25T13:41:07Z</time>
</trkpt>
<trkpt lat="44.4248943" lon="3.7864189">
<ele>1568.11</ele>
<time>2020-06-25T13:41:11Z</time>
</trkpt>
<trkpt lat="44.4251127" lon="3.7864050">
<ele>1568.23</ele>
<time>2020-06-25T13:41:15Z</time>
</trkpt>
<trkpt lat="44.4253375" lon="3.7862956">
<ele>1567.43</ele>
<time>2020-06-25T13:41:19Z</time>
</trkpt>
<trkpt lat="44.4255173" lon="3.7861417">
<ele>1567.63</ele>
<time>2020-06-25T13:41:23Z</time>
</trkpt>
<trkpt lat="44.4256786" lon="3.7859647">
<ele>1567.66</ele>
<time>2020-06-25T13:41:27Z</time>
</trkpt>
<trkpt lat="44.4258372" lon="3.7858025">
<ele>1567.88</ele>
<time>2020-06-25T13:41:31Z</time>
</trkpt>
<trkpt lat="44.4259704" lon="3.7856309">
<ele>1568.04</ele>
<time>2020-06-25T13:41:35Z</time>
</trkpt>
<trkpt lat="44.4261258" lon="3.7854137">
<ele>1567.73</ele>
<time>2020-06-25T13:41:40Z</time>
</trkpt>
<trkpt lat="44.4262548" lon="3.7852338">
<ele>1567.40</ele>
<time>2020-06-25T13:41:44Z</time>
</trkpt>
<trkpt lat="44.4264012" lon="3.7850050">
<ele>1567.79</ele>
<time>2020-06-25T13:41:49Z</time>
</trkpt>
<trkpt lat="44.4265235" lon="3.7847924">
<ele>1568.35</ele>
<time>2020-06-25T13:41:54Z</time>
</trkpt>
<trkpt lat="44.4266241" lon="3.7845819">
<ele>1568.00</ele>
<time>2020-06-25T13:41:59Z</time>
</trkpt>
<trkpt lat="44.4267391" lon="3.7843342">
<ele>1567.23</ele>
<time>2020-06-25T13:42:04Z</time>
</trkpt>
<trkpt lat="44.4268347" lon="3.7840651">
<ele>1567.43</ele>
<time>2020-06-25T13:42:09Z</time>
</trkpt>
<trkpt lat="44.4268955" lon="3.7838247">
<ele>1567.37</ele>
<time>2020-06-25T13:42:14Z</time>
</trkpt>
<trkpt lat="44.4269584" lon="3.7835784">
<ele>1568.08</ele>
<time>2020-06-25T13:42:19Z</time>
</trkpt>
<trkpt lat="44.4270285" lon="3.7833448">
<ele>1568.45</ele>
<time>2020-06-25T13:42:24Z</time>
</trkpt>
<trkpt lat="44.4270806" lon="3.7830957">
<ele>1568.47</ele>
<time>2020-06-25T13:42:29Z</time>
</trkpt>
<trkpt lat="44.4271340" lon="3.7828201">
<ele>1568.15</ele>
<time>2020-06-25T13:42:35Z</time>
</trkpt>
<trkpt lat="44.4271089" lon="3.7825399">
<ele>1565.97</ele>
<time>2020-06-25T13:46:03Z</time>
</trkpt>
<trkpt lat="44.4270982" lon="3.7822824">
<ele>1565.79</ele>
<time>2020-06-25T13:46:09Z</time>
</trkpt>
<trkpt lat="44.4270593" lon="3.7820043">
<ele>1565.15</ele>
<time>2020-06-25T13:46:15Z</time>
</trkpt>
<trkpt lat="44.4269837" lon="3.7817300">
<ele>1565.49</ele>
<time>2020-06-25T13:46:21Z</time>
</trkpt>
<trkpt lat="44.4269067" lon="3.7814602">
<ele>1565.55</ele>
<time>2020-06-25T13:46:27Z</time>
</trkpt>
<trkpt lat="44.4268208" lon="3.7811922">
<ele>1565.55</ele>
<time>2020-06-25T13:46:33Z</time>
</trkpt>
<trkpt lat="44.4267493" lon="3.7809255">
<ele>1565.52</ele>
<time>2020-06-25T13:46:39Z</time>
</trkpt>
<trkpt lat="44.4266987" lon="3.7806599">
<ele>1565.45</ele>
<time>2020-06-25T13:46:45Z</time>
</trkpt>
<trkpt lat="44.4266776" lon="3.7803900">
<ele>1565.28</ele>
<time>2020-06-25T13:46:51Z</time>
</trkpt>
<trkpt lat="44.4266818" lon="3.7800993">
<ele>1564.88</ele>
<time>2020-06-25T13:46:57Z</time>
</trkpt>
<trkpt lat="44.4267269" lon="3.7798165">
<ele>1564.79</ele>
<time>2020-06-25T13:47:03Z</time>
</trkpt>
<trkpt lat="44.4267821" lon="3.7795404">
<ele>1565.20</ele>
<time>2020-06-25T13:47:09Z</time>
</trkpt>
<trkpt lat="44.4268277" lon="3.7792525">
<ele>1565.09</ele>
<time>2020-06-25T13:47:15Z</time>
</trkpt>
<trkpt lat="44.4268583" lon="3.7789977">
<ele>1564.47</ele>
<time>2020-06-25T13:47:20Z</time>
</trkpt>
<trkpt lat="44.4268895" lon="3.7787326">
<ele>1564.40</ele>
<time>2020-06-25T13:47:25Z</time>
</trkpt>
<trkpt lat="44.4269160" lon="3.7784747">
<ele>1563.93</ele>
<time>2020-06-25T13:47:30Z</time>
</trkpt>
<trkpt lat="44.4269453" lon="3.7782102">
<ele>1563.89</ele>
<time>2020-06-25T13:47:35Z</time>
</trkpt>
<trkpt lat="44.4269787" lon="3.7779549">
<ele>1563.98</ele>
<time>2020-06-25T13:47:40Z</time>
</trkpt>
<trkpt lat="44.4270198" lon="3.7776806">
<ele>1562.95</ele>
<time>2020-06-25T13:47:45Z</time>
</trkpt>
<trkpt lat="44.4270531" lon="3.7773952">
<ele>1562.66</ele>
<time>2020-06-25T13:47:50Z</time>
</trkpt>
<trkpt lat="44.4271029" lon="3.7771028">
<ele>1562.67</ele>
<time>2020-06-25T13:47:55Z</time>
</trkpt>
<trkpt lat="44.4271391" lon="3.7768306">
<ele>1562.57</ele>
<time>2020-06-25T13:48:00Z</time>
</trkpt>
<trkpt lat="44.4271528" lon="3.7765794">
<ele>1562.96</ele>
<time>2020-06-25T13:48:05Z</time>
</trkpt>
<trkpt lat="44.4271799" lon="3.7762879">
<ele>1562.74</ele>
<time>2020-06-25T13:48:11Z</time>
</trkpt>
<trkpt lat="44.4271718" lon="3.7760362">
<ele>1563.02</ele>
<time>2020-06-25T13:48:16Z</time>
</trkpt>
<trkpt lat="44.4271821" lon="3.7757735">
<ele>1562.74</ele>
<time>2020-06-25T13:48:21Z</time>
</trkpt>
<trkpt lat="44.4272924" lon="3.7755292">
<ele>1562.49</ele>
<time>2020-06-25T13:48:26Z</time>
</trkpt>
<trkpt lat="44.4274224" lon="3.7752911">
<ele>1562.34</ele>
<time>2020-06-25T13:48:31Z</time>
</trkpt>
<trkpt lat="44.4275484" lon="3.7750582">
<ele>1562.18</ele>
<time>2020-06-25T13:48:36Z</time>
</trkpt>
<trkpt lat="44.4276827" lon="3.7748243">
<ele>1561.96</ele>
<time>2020-06-25T13:48:41Z</time>
</trkpt>
<trkpt lat="44.4277754" lon="3.7745964">
<ele>1561.81</ele>
<time>2020-06-25T13:48:46Z</time>
</trkpt>
<trkpt lat="44.4277546" lon="3.7743275">
<ele>1561.29</ele>
<time>2020-06-25T13:49:59Z</time>
</trkpt>
<trkpt lat="44.4276422" lon="3.7741071">
<ele>1561.52</ele>
<time>2020-06-25T13:50:07Z</time>
</trkpt>
<trkpt lat="44.4275185" lon="3.7738792">
<ele>1561.29</ele>
<time>2020-06-25T13:50:14Z</time>
</trkpt>
<trkpt lat="44.4273860" lon="3.7737016">
<ele>1561.03</ele>
<time>2020-06-25T13:50:20Z</time>
</trkpt>
<trkpt lat="44.4272459" lon="3.7734900">
<ele>1560.65</ele>
<time>2020-06-25T13:50:27Z</time>
</trkpt>
<trkpt lat="44.4271048" lon="3.7732933">
<ele>1560.44</ele>
<time>2020-06-25T13:50:33Z</time>
</trkpt>
<trkpt lat="44.4269809" lon="3.7731072">
<ele>1559.53</ele>
<time>2020-06-25T13:50:38Z</time>
</trkpt>
<trkpt lat="44.4268374" lon="3.7729231">
<ele>1558.76</ele>
<time>2020-06-25T13:50:43Z</time>
</trkpt>
<trkpt lat="44.4266926" lon="3.7727219">
<ele>1558.31</ele>
<time>2020-06-25T13:50:48Z</time>
</trkpt>
<trkpt lat="44.4265194" lon="3.7726020">
<ele>1557.57</ele>
<time>2020-06-25T13:50:53Z</time>
</trkpt>
<trkpt lat="44.4263338" lon="3.7725355">
<ele>1556.11</ele>
<time>2020-06-25T13:50:58Z</time>
</trkpt>
<trkpt lat="44.4261299" lon="3.7724674">
<ele>1555.49</ele>
<time>2020-06-25T13:51:02Z</time>
</trkpt>
<trkpt lat="44.4259224" lon="3.7723775">
<ele>1554.55</ele>
<time>2020-06-25T13:51:08Z</time>
</trkpt>
<trkpt lat="44.4257132" lon="3.7722907">
<ele>1552.84</ele>
<time>2020-06-25T13:51:12Z</time>
</trkpt>
<trkpt lat="44.4255291" lon="3.7722115">
<ele>1551.49</ele>
<time>2020-06-25T13:51:15Z</time>
</trkpt>
<trkpt lat="44.4253429" lon="3.7721444">
<ele>1550.21</ele>
<time>2020-06-25T13:51:17Z</time>
</trkpt>
<trkpt lat="44.4251390" lon="3.7720836">
<ele>1548.48</ele>
<time>2020-06-25T13:51:20Z</time>
</trkpt>
<trkpt lat="44.4249185" lon="3.7719720">
<ele>1547.08</ele>
<time>2020-06-25T13:51:23Z</time>
</trkpt>
<trkpt lat="44.4247300" lon="3.7717677">
<ele>1545.52</ele>
<time>2020-06-25T13:51:26Z</time>
</trkpt>
<trkpt lat="44.4245907" lon="3.7714880">
<ele>1544.64</ele>
<time>2020-06-25T13:51:29Z</time>
</trkpt>
<trkpt lat="44.4244893" lon="3.7711750">
<ele>1544.03</ele>
<time>2020-06-25T13:51:32Z</time>
</trkpt>
<trkpt lat="44.4243997" lon="3.7708654">
<ele>1543.05</ele>
<time>2020-06-25T13:51:35Z</time>
</trkpt>
<trkpt lat="44.4243127" lon="3.7705824">
<ele>1542.61</ele>
<time>2020-06-25T13:51:38Z</time>
</trkpt>
<trkpt lat="44.4242249" lon="3.7703158">
<ele>1542.15</ele>
<time>2020-06-25T13:51:41Z</time>
</trkpt>
<trkpt lat="44.4241607" lon="3.7700582">
<ele>1541.47</ele>
<time>2020-06-25T13:51:44Z</time>
</trkpt>
<trkpt lat="44.4240573" lon="3.7697631">
<ele>1541.82</ele>
<time>2020-06-25T13:51:48Z</time>
</trkpt>
<trkpt lat="44.4239898" lon="3.7694985">
<ele>1542.43</ele>
<time>2020-06-25T13:51:52Z</time>
</trkpt>
<trkpt lat="44.4239286" lon="3.7692521">
<ele>1543.70</ele>
<time>2020-06-25T13:51:57Z</time>
</trkpt>
<trkpt lat="44.4238980" lon="3.7689906">
<ele>1545.18</ele>
<time>2020-06-25T13:52:04Z</time>
</trkpt>
<trkpt lat="44.4239045" lon="3.7687213">
<ele>1544.77</ele>
<time>2020-06-25T13:52:15Z</time>
</trkpt>
<trkpt lat="44.4240777" lon="3.7685874">
<ele>1542.75</ele>
<time>2020-06-25T13:52:28Z</time>
</trkpt>
<trkpt lat="44.4241974" lon="3.7683952">
<ele>1541.74</ele>
<time>2020-06-25T13:52:35Z</time>
</trkpt>
<trkpt lat="44.4243026" lon="3.7681697">
<ele>1542.38</ele>
<time>2020-06-25T13:52:43Z</time>
</trkpt>
<trkpt lat="44.4243951" lon="3.7679327">
<ele>1541.60</ele>
<time>2020-06-25T13:52:52Z</time>
</trkpt>
<trkpt lat="44.4244873" lon="3.7676933">
<ele>1541.02</ele>
<time>2020-06-25T13:53:00Z</time>
</trkpt>
<trkpt lat="44.4245702" lon="3.7674459">
<ele>1541.34</ele>
<time>2020-06-25T13:53:07Z</time>
</trkpt>
<trkpt lat="44.4246381" lon="3.7672089">
<ele>1541.18</ele>
<time>2020-06-25T13:53:13Z</time>
</trkpt>
<trkpt lat="44.4247082" lon="3.7669363">
<ele>1541.49</ele>
<time>2020-06-25T13:53:20Z</time>
</trkpt>
<trkpt lat="44.4247344" lon="3.7666639">
<ele>1541.31</ele>
<time>2020-06-25T13:53:26Z</time>
</trkpt>
<trkpt lat="44.4247413" lon="3.7663953">
<ele>1540.93</ele>
<time>2020-06-25T13:53:32Z</time>
</trkpt>
<trkpt lat="44.4247485" lon="3.7661321">
<ele>1540.89</ele>
<time>2020-06-25T13:53:38Z</time>
</trkpt>
<trkpt lat="44.4247563" lon="3.7658637">
<ele>1541.59</ele>
<time>2020-06-25T13:53:44Z</time>
</trkpt>
<trkpt lat="44.4248375" lon="3.7655979">
<ele>1540.29</ele>
<time>2020-06-25T13:53:50Z</time>
</trkpt>
<trkpt lat="44.4250273" lon="3.7654462">
<ele>1539.08</ele>
<time>2020-06-25T13:53:56Z</time>
</trkpt>
<trkpt lat="44.4252235" lon="3.7653988">
<ele>1538.05</ele>
<time>2020-06-25T13:54:00Z</time>
</trkpt>
<trkpt lat="44.4254443" lon="3.7653799">
<ele>1536.67</ele>
<time>2020-06-25T13:54:04Z</time>
</trkpt>
<trkpt lat="44.4256406" lon="3.7653998">
<ele>1536.48</ele>
<time>2020-06-25T13:54:10Z</time>
</trkpt>
<trkpt lat="44.4258395" lon="3.7654020">
<ele>1534.52</ele>
<time>2020-06-25T13:55:17Z</time>
</trkpt>
<trkpt lat="44.4260431" lon="3.7653554">
<ele>1533.99</ele>
<time>2020-06-25T13:55:22Z</time>
</trkpt>
<trkpt lat="44.4262647" lon="3.7653082">
<ele>1532.98</ele>
<time>2020-06-25T13:55:26Z</time>
</trkpt>
<trkpt lat="44.4264470" lon="3.7652423">
<ele>1532.16</ele>
<time>2020-06-25T13:55:29Z</time>
</trkpt>
<trkpt lat="44.4266339" lon="3.7651200">
<ele>1531.20</ele>
<time>2020-06-25T13:55:32Z</time>
</trkpt>
<trkpt lat="44.4268215" lon="3.7649770">
<ele>1530.16</ele>
<time>2020-06-25T13:55:35Z</time>
</trkpt>
<trkpt lat="44.4270162" lon="3.7648238">
<ele>1529.19</ele>
<time>2020-06-25T13:55:38Z</time>
</trkpt>
<trkpt lat="44.4272249" lon="3.7646806">
<ele>1528.48</ele>
<time>2020-06-25T13:55:41Z</time>
</trkpt>
<trkpt lat="44.4274401" lon="3.7645538">
<ele>1527.97</ele>
<time>2020-06-25T13:55:44Z</time>
</trkpt>
<trkpt lat="44.4276618" lon="3.7645289">
<ele>1528.07</ele>
<time>2020-06-25T13:55:47Z</time>
</trkpt>
<trkpt lat="44.4278790" lon="3.7645274">
<ele>1528.30</ele>
<time>2020-06-25T13:55:50Z</time>
</trkpt>
<trkpt lat="44.4280835" lon="3.7645242">
<ele>1528.74</ele>
<time>2020-06-25T13:55:53Z</time>
</trkpt>
<trkpt lat="44.4282679" lon="3.7645428">
<ele>1528.75</ele>
<time>2020-06-25T13:55:56Z</time>
</trkpt>
<trkpt lat="44.4284535" lon="3.7645522">
<ele>1528.73</ele>
<time>2020-06-25T13:55:59Z</time>
</trkpt>
<trkpt lat="44.4286876" lon="3.7645514">
<ele>1528.67</ele>
<time>2020-06-25T13:56:03Z</time>
</trkpt>
<trkpt lat="44.4288687" lon="3.7645669">
<ele>1528.08</ele>
<time>2020-06-25T13:56:06Z</time>
</trkpt>
<trkpt lat="44.4290479" lon="3.7646083">
<ele>1528.07</ele>
<time>2020-06-25T13:56:09Z</time>
</trkpt>
<trkpt lat="44.4292698" lon="3.7646743">
<ele>1528.49</ele>
<time>2020-06-25T13:56:13Z</time>
</trkpt>
<trkpt lat="44.4294770" lon="3.7647672">
<ele>1528.43</ele>
<time>2020-06-25T13:56:17Z</time>
</trkpt>
<trkpt lat="44.4296821" lon="3.7648680">
<ele>1528.00</ele>
<time>2020-06-25T13:56:21Z</time>
</trkpt>
<trkpt lat="44.4299015" lon="3.7649626">
<ele>1528.06</ele>
<time>2020-06-25T13:56:25Z</time>
</trkpt>
<trkpt lat="44.4301142" lon="3.7650475">
<ele>1527.56</ele>
<time>2020-06-25T13:56:29Z</time>
</trkpt>
<trkpt lat="44.4303327" lon="3.7651061">
<ele>1527.89</ele>
<time>2020-06-25T13:56:33Z</time>
</trkpt>
<trkpt lat="44.4305481" lon="3.7650942">
<ele>1527.37</ele>
<time>2020-06-25T13:56:37Z</time>
</trkpt>
<trkpt lat="44.4307595" lon="3.7649887">
<ele>1526.61</ele>
<time>2020-06-25T13:56:41Z</time>
</trkpt>
<trkpt lat="44.4309514" lon="3.7648236">
<ele>1526.08</ele>
<time>2020-06-25T13:56:45Z</time>
</trkpt>
<trkpt lat="44.4311253" lon="3.7646590">
<ele>1525.62</ele>
<time>2020-06-25T13:56:49Z</time>
</trkpt>
<trkpt lat="44.4312961" lon="3.7645060">
<ele>1525.06</ele>
<time>2020-06-25T13:56:53Z</time>
</trkpt>
<trkpt lat="44.4314683" lon="3.7643468">
<ele>1524.23</ele>
<time>2020-06-25T13:56:57Z</time>
</trkpt>
<trkpt lat="44.4316326" lon="3.7641877">
<ele>1524.65</ele>
<time>2020-06-25T13:57:01Z</time>
</trkpt>
<trkpt lat="44.4317868" lon="3.7640242">
<ele>1524.17</ele>
<time>2020-06-25T13:57:05Z</time>
</trkpt>
<trkpt lat="44.4319612" lon="3.7638341">
<ele>1523.96</ele>
<time>2020-06-25T13:57:10Z</time>
</trkpt>
<trkpt lat="44.4321446" lon="3.7636744">
<ele>1523.40</ele>
<time>2020-06-25T13:57:15Z</time>
</trkpt>
<trkpt lat="44.4323021" lon="3.7634569">
<ele>1523.21</ele>
<time>2020-06-25T13:57:20Z</time>
</trkpt>
<trkpt lat="44.4323825" lon="3.7632315">
<ele>1523.47</ele>
<time>2020-06-25T13:57:24Z</time>
</trkpt>
<trkpt lat="44.4324475" lon="3.7629369">
<ele>1522.92</ele>
<time>2020-06-25T13:57:29Z</time>
</trkpt>
<trkpt lat="44.4324931" lon="3.7626443">
<ele>1522.69</ele>
<time>2020-06-25T13:57:34Z</time>
</trkpt>
<trkpt lat="44.4324984" lon="3.7623688">
<ele>1521.95</ele>
<time>2020-06-25T13:57:39Z</time>
</trkpt>
<trkpt lat="44.4324782" lon="3.7620521">
<ele>1521.36</ele>
<time>2020-06-25T13:57:44Z</time>
</trkpt>
<trkpt lat="44.4324886" lon="3.7617608">
<ele>1521.39</ele>
<time>2020-06-25T13:57:48Z</time>
</trkpt>
<trkpt lat="44.4325413" lon="3.7614611">
<ele>1520.95</ele>
<time>2020-06-25T13:57:52Z</time>
</trkpt>
<trkpt lat="44.4326092" lon="3.7611604">
<ele>1520.55</ele>
<time>2020-06-25T13:57:56Z</time>
</trkpt>
<trkpt lat="44.4326763" lon="3.7608523">
<ele>1520.61</ele>
<time>2020-06-25T13:58:00Z</time>
</trkpt>
<trkpt lat="44.4327459" lon="3.7605448">
<ele>1520.04</ele>
<time>2020-06-25T13:58:04Z</time>
</trkpt>
<trkpt lat="44.4328238" lon="3.7602511">
<ele>1519.65</ele>
<time>2020-06-25T13:58:08Z</time>
</trkpt>
<trkpt lat="44.4329292" lon="3.7599784">
<ele>1519.53</ele>
<time>2020-06-25T13:58:12Z</time>
</trkpt>
<trkpt lat="44.4330344" lon="3.7597095">
<ele>1518.99</ele>
<time>2020-06-25T13:58:16Z</time>
</trkpt>
<trkpt lat="44.4331498" lon="3.7594490">
<ele>1518.62</ele>
<time>2020-06-25T13:58:20Z</time>
</trkpt>
<trkpt lat="44.4332593" lon="3.7591989">
<ele>1518.22</ele>
<time>2020-06-25T13:58:24Z</time>
</trkpt>
<trkpt lat="44.4333426" lon="3.7589355">
<ele>1517.40</ele>
<time>2020-06-25T13:58:28Z</time>
</trkpt>
<trkpt lat="44.4334149" lon="3.7586622">
<ele>1516.65</ele>
<time>2020-06-25T13:58:32Z</time>
</trkpt>
<trkpt lat="44.4334710" lon="3.7583961">
<ele>1516.32</ele>
<time>2020-06-25T13:58:36Z</time>
</trkpt>
<trkpt lat="44.4335210" lon="3.7581105">
<ele>1516.15</ele>
<time>2020-06-25T13:58:40Z</time>
</trkpt>
<trkpt lat="44.4335428" lon="3.7578096">
<ele>1515.81</ele>
<time>2020-06-25T13:58:44Z</time>
</trkpt>
<trkpt lat="44.4335449" lon="3.7575045">
<ele>1515.74</ele>
<time>2020-06-25T13:58:48Z</time>
</trkpt>
<trkpt lat="44.4335252" lon="3.7571972">
<ele>1515.18</ele>
<time>2020-06-25T13:58:52Z</time>
</trkpt>
<trkpt lat="44.4335011" lon="3.7568855">
<ele>1514.04</ele>
<time>2020-06-25T13:58:56Z</time>
</trkpt>
<trkpt lat="44.4334905" lon="3.7565780">
<ele>1513.44</ele>
<time>2020-06-25T13:59:00Z</time>
</trkpt>
<trkpt lat="44.4335025" lon="3.7562760">
<ele>1512.78</ele>
<time>2020-06-25T13:59:04Z</time>
</trkpt>
<trkpt lat="44.4335717" lon="3.7559689">
<ele>1511.94</ele>
<time>2020-06-25T13:59:08Z</time>
</trkpt>
<trkpt lat="44.4337173" lon="3.7557247">
<ele>1512.44</ele>
<time>2020-06-25T13:59:12Z</time>
</trkpt>
<trkpt lat="44.4339016" lon="3.7555239">
<ele>1511.93</ele>
<time>2020-06-25T13:59:16Z</time>
</trkpt>
<trkpt lat="44.4340895" lon="3.7553191">
<ele>1511.11</ele>
<time>2020-06-25T13:59:20Z</time>
</trkpt>
<trkpt lat="44.4342372" lon="3.7551681">
<ele>1510.51</ele>
<time>2020-06-25T13:59:23Z</time>
</trkpt>
<trkpt lat="44.4343806" lon="3.7550003">
<ele>1509.59</ele>
<time>2020-06-25T13:59:26Z</time>
</trkpt>
<trkpt lat="44.4345283" lon="3.7548383">
<ele>1508.96</ele>
<time>2020-06-25T13:59:29Z</time>
</trkpt>
<trkpt lat="44.4346700" lon="3.7546679">
<ele>1508.30</ele>
<time>2020-06-25T13:59:32Z</time>
</trkpt>
<trkpt lat="44.4348196" lon="3.7545072">
<ele>1508.16</ele>
<time>2020-06-25T13:59:35Z</time>
</trkpt>
<trkpt lat="44.4349629" lon="3.7543338">
<ele>1507.89</ele>
<time>2020-06-25T13:59:38Z</time>
</trkpt>
<trkpt lat="44.4351341" lon="3.7541096">
<ele>1507.82</ele>
<time>2020-06-25T13:59:42Z</time>
</trkpt>
<trkpt lat="44.4352845" lon="3.7538479">
<ele>1507.56</ele>
<time>2020-06-25T13:59:46Z</time>
</trkpt>
<trkpt lat="44.4354413" lon="3.7535956">
<ele>1507.23</ele>
<time>2020-06-25T13:59:50Z</time>
</trkpt>
<trkpt lat="44.4356068" lon="3.7533841">
<ele>1506.80</ele>
<time>2020-06-25T13:59:54Z</time>
</trkpt>
<trkpt lat="44.4357685" lon="3.7532629">
<ele>1506.49</ele>
<time>2020-06-25T13:59:58Z</time>
</trkpt>
<trkpt lat="44.4359519" lon="3.7532051">
<ele>1506.11</ele>
<time>2020-06-25T14:00:02Z</time>
</trkpt>
<trkpt lat="44.4361735" lon="3.7531764">
<ele>1505.50</ele>
<time>2020-06-25T14:00:07Z</time>
</trkpt>
<trkpt lat="44.4363897" lon="3.7531660">
<ele>1505.16</ele>
<time>2020-06-25T14:00:12Z</time>
</trkpt>
<trkpt lat="44.4365771" lon="3.7531510">
<ele>1504.42</ele>
<time>2020-06-25T14:00:17Z</time>
</trkpt>
<trkpt lat="44.4367613" lon="3.7530798">
<ele>1503.17</ele>
<time>2020-06-25T14:00:23Z</time>
</trkpt>
<trkpt lat="44.4369292" lon="3.7531771">
<ele>1500.42</ele>
<time>2020-06-25T14:00:52Z</time>
</trkpt>
<trkpt lat="44.4371090" lon="3.7530380">
<ele>1500.98</ele>
<time>2020-06-25T14:00:59Z</time>
</trkpt>
<trkpt lat="44.4372703" lon="3.7528965">
<ele>1500.56</ele>
<time>2020-06-25T14:01:06Z</time>
</trkpt>
<trkpt lat="44.4374452" lon="3.7527577">
<ele>1499.15</ele>
<time>2020-06-25T14:01:49Z</time>
</trkpt>
<trkpt lat="44.4376238" lon="3.7526294">
<ele>1501.16</ele>
<time>2020-06-25T14:01:58Z</time>
</trkpt>
<trkpt lat="44.4377854" lon="3.7525131">
<ele>1500.17</ele>
<time>2020-06-25T14:02:05Z</time>
</trkpt>
<trkpt lat="44.4379778" lon="3.7523910">
<ele>1498.16</ele>
<time>2020-06-25T14:02:12Z</time>
</trkpt>
<trkpt lat="44.4381571" lon="3.7523016">
<ele>1496.94</ele>
<time>2020-06-25T14:02:18Z</time>
</trkpt>
<trkpt lat="44.4383613" lon="3.7522424">
<ele>1495.74</ele>
<time>2020-06-25T14:02:25Z</time>
</trkpt>
<trkpt lat="44.4385526" lon="3.7521981">
<ele>1494.57</ele>
<time>2020-06-25T14:02:30Z</time>
</trkpt>
<trkpt lat="44.4387381" lon="3.7522274">
<ele>1494.38</ele>
<time>2020-06-25T14:02:54Z</time>
</trkpt>
<trkpt lat="44.4389467" lon="3.7522708">
<ele>1491.81</ele>
<time>2020-06-25T14:03:01Z</time>
</trkpt>
<trkpt lat="44.4391257" lon="3.7523150">
<ele>1489.04</ele>
<time>2020-06-25T14:03:07Z</time>
</trkpt>
<trkpt lat="44.4393083" lon="3.7523039">
<ele>1487.56</ele>
<time>2020-06-25T14:03:11Z</time>
</trkpt>
<trkpt lat="44.4395107" lon="3.7523511">
<ele>1486.16</ele>
<time>2020-06-25T14:03:18Z</time>
</trkpt>
<trkpt lat="44.4397185" lon="3.7523688">
<ele>1486.03</ele>
<time>2020-06-25T14:03:24Z</time>
</trkpt>
<trkpt lat="44.4399277" lon="3.7524491">
<ele>1485.30</ele>
<time>2020-06-25T14:03:30Z</time>
</trkpt>
<trkpt lat="44.4401127" lon="3.7525106">
<ele>1485.32</ele>
<time>2020-06-25T14:03:35Z</time>
</trkpt>
<trkpt lat="44.4403273" lon="3.7525589">
<ele>1484.10</ele>
<time>2020-06-25T14:03:40Z</time>
</trkpt>
<trkpt lat="44.4405187" lon="3.7525930">
<ele>1482.94</ele>
<time>2020-06-25T14:03:45Z</time>
</trkpt>
<trkpt lat="44.4407008" lon="3.7525968">
<ele>1482.00</ele>
<time>2020-06-25T14:03:49Z</time>
</trkpt>
<trkpt lat="44.4409212" lon="3.7526545">
<ele>1482.44</ele>
<time>2020-06-25T14:03:54Z</time>
</trkpt>
<trkpt lat="44.4411173" lon="3.7526333">
<ele>1481.24</ele>
<time>2020-06-25T14:03:59Z</time>
</trkpt>
<trkpt lat="44.4413021" lon="3.7525881">
<ele>1478.38</ele>
<time>2020-06-25T14:05:16Z</time>
</trkpt>
<trkpt lat="44.4415289" lon="3.7524996">
<ele>1476.04</ele>
<time>2020-06-25T14:05:22Z</time>
</trkpt>
<trkpt lat="44.4417425" lon="3.7524091">
<ele>1474.33</ele>
<time>2020-06-25T14:05:27Z</time>
</trkpt>
<trkpt lat="44.4419239" lon="3.7523488">
<ele>1473.41</ele>
<time>2020-06-25T14:05:32Z</time>
</trkpt>
<trkpt lat="44.4421206" lon="3.7522938">
<ele>1473.29</ele>
<time>2020-06-25T14:05:39Z</time>
</trkpt>
<trkpt lat="44.4422879" lon="3.7521634">
<ele>1474.56</ele>
<time>2020-06-25T14:05:46Z</time>
</trkpt>
<trkpt lat="44.4424656" lon="3.7520955">
<ele>1477.31</ele>
<time>2020-06-25T14:05:52Z</time>
</trkpt>
<trkpt lat="44.4425786" lon="3.7518864">
<ele>1475.96</ele>
<time>2020-06-25T14:06:01Z</time>
</trkpt>
<trkpt lat="44.4427515" lon="3.7517713">
<ele>1474.91</ele>
<time>2020-06-25T14:06:09Z</time>
</trkpt>
<trkpt lat="44.4429168" lon="3.7516456">
<ele>1474.81</ele>
<time>2020-06-25T14:06:18Z</time>
</trkpt>
<trkpt lat="44.4431266" lon="3.7515167">
<ele>1471.88</ele>
<time>2020-06-25T14:06:23Z</time>
</trkpt>
<trkpt lat="44.4432971" lon="3.7513415">
<ele>1469.51</ele>
<time>2020-06-25T14:06:26Z</time>
</trkpt>
<trkpt lat="44.4434286" lon="3.7511349">
<ele>1467.92</ele>
<time>2020-06-25T14:06:29Z</time>
</trkpt>
<trkpt lat="44.4435206" lon="3.7508790">
<ele>1466.56</ele>
<time>2020-06-25T14:06:32Z</time>
</trkpt>
<trkpt lat="44.4436357" lon="3.7506591">
<ele>1466.18</ele>
<time>2020-06-25T14:06:35Z</time>
</trkpt>
<trkpt lat="44.4437760" lon="3.7504695">
<ele>1465.27</ele>
<time>2020-06-25T14:06:39Z</time>
</trkpt>
<trkpt lat="44.4439601" lon="3.7503341">
<ele>1471.14</ele>
<time>2020-06-25T14:08:43Z</time>
</trkpt>
<trkpt lat="44.4441212" lon="3.7501563">
<ele>1471.43</ele>
<time>2020-06-25T14:08:48Z</time>
</trkpt>
<trkpt lat="44.4442722" lon="3.7499727">
<ele>1470.59</ele>
<time>2020-06-25T14:08:53Z</time>
</trkpt>
<trkpt lat="44.4444175" lon="3.7497941">
<ele>1465.71</ele>
<time>2020-06-25T14:09:08Z</time>
</trkpt>
<trkpt lat="44.4446018" lon="3.7497285">
<ele>1464.53</ele>
<time>2020-06-25T14:09:14Z</time>
</trkpt>
<trkpt lat="44.4448167" lon="3.7496663">
<ele>1463.45</ele>
<time>2020-06-25T14:09:19Z</time>
</trkpt>
<trkpt lat="44.4450560" lon="3.7496262">
<ele>1461.24</ele>
<time>2020-06-25T14:09:23Z</time>
</trkpt>
<trkpt lat="44.4452626" lon="3.7496203">
<ele>1461.52</ele>
<time>2020-06-25T14:09:26Z</time>
</trkpt>
<trkpt lat="44.4454874" lon="3.7495558">
<ele>1460.41</ele>
<time>2020-06-25T14:09:29Z</time>
</trkpt>
<trkpt lat="44.4457341" lon="3.7494215">
<ele>1458.51</ele>
<time>2020-06-25T14:09:32Z</time>
</trkpt>
<trkpt lat="44.4459654" lon="3.7492187">
<ele>1456.88</ele>
<time>2020-06-25T14:09:35Z</time>
</trkpt>
<trkpt lat="44.4461212" lon="3.7490535">
<ele>1455.91</ele>
<time>2020-06-25T14:09:37Z</time>
</trkpt>
<trkpt lat="44.4462699" lon="3.7488844">
<ele>1454.66</ele>
<time>2020-06-25T14:09:39Z</time>
</trkpt>
<trkpt lat="44.4464194" lon="3.7487259">
<ele>1453.31</ele>
<time>2020-06-25T14:09:41Z</time>
</trkpt>
<trkpt lat="44.4466052" lon="3.7485217">
<ele>1451.25</ele>
<time>2020-06-25T14:09:44Z</time>
</trkpt>
<trkpt lat="44.4467549" lon="3.7483653">
<ele>1449.60</ele>
<time>2020-06-25T14:09:47Z</time>
</trkpt>
<trkpt lat="44.4469386" lon="3.7481782">
<ele>1448.63</ele>
<time>2020-06-25T14:09:51Z</time>
</trkpt>
<trkpt lat="44.4470938" lon="3.7480277">
<ele>1448.03</ele>
<time>2020-06-25T14:09:54Z</time>
</trkpt>
<trkpt lat="44.4472772" lon="3.7478864">
<ele>1446.73</ele>
<time>2020-06-25T14:09:57Z</time>
</trkpt>
<trkpt lat="44.4474499" lon="3.7477251">
<ele>1444.81</ele>
<time>2020-06-25T14:10:00Z</time>
</trkpt>
<trkpt lat="44.4476346" lon="3.7475913">
<ele>1442.41</ele>
<time>2020-06-25T14:10:03Z</time>
</trkpt>
<trkpt lat="44.4478577" lon="3.7475355">
<ele>1439.87</ele>
<time>2020-06-25T14:10:06Z</time>
</trkpt>
<trkpt lat="44.4481266" lon="3.7475167">
<ele>1437.36</ele>
<time>2020-06-25T14:10:09Z</time>
</trkpt>
<trkpt lat="44.4483111" lon="3.7475166">
<ele>1435.89</ele>
<time>2020-06-25T14:10:11Z</time>
</trkpt>
<trkpt lat="44.4485000" lon="3.7475214">
<ele>1435.33</ele>
<time>2020-06-25T14:10:13Z</time>
</trkpt>
<trkpt lat="44.4486991" lon="3.7475367">
<ele>1433.92</ele>
<time>2020-06-25T14:10:15Z</time>
</trkpt>
<trkpt lat="44.4489022" lon="3.7475725">
<ele>1431.68</ele>
<time>2020-06-25T14:10:17Z</time>
</trkpt>
<trkpt lat="44.4491105" lon="3.7475957">
<ele>1430.13</ele>
<time>2020-06-25T14:10:19Z</time>
</trkpt>
<trkpt lat="44.4493282" lon="3.7476407">
<ele>1428.34</ele>
<time>2020-06-25T14:10:21Z</time>
</trkpt>
<trkpt lat="44.4495454" lon="3.7476829">
<ele>1427.29</ele>
<time>2020-06-25T14:10:23Z</time>
</trkpt>
<trkpt lat="44.4497666" lon="3.7477091">
<ele>1425.79</ele>
<time>2020-06-25T14:10:25Z</time>
</trkpt>
<trkpt lat="44.4499607" lon="3.7477025">
<ele>1424.12</ele>
<time>2020-06-25T14:10:27Z</time>
</trkpt>
<trkpt lat="44.4501944" lon="3.7476456">
<ele>1421.99</ele>
<time>2020-06-25T14:10:30Z</time>
</trkpt>
<trkpt lat="44.4504190" lon="3.7476882">
<ele>1419.77</ele>
<time>2020-06-25T14:10:34Z</time>
</trkpt>
<trkpt lat="44.4506117" lon="3.7477864">
<ele>1418.13</ele>
<time>2020-06-25T14:10:37Z</time>
</trkpt>
<trkpt lat="44.4508357" lon="3.7478193">
<ele>1416.79</ele>
<time>2020-06-25T14:10:40Z</time>
</trkpt>
<trkpt lat="44.4510748" lon="3.7478454">
<ele>1416.04</ele>
<time>2020-06-25T14:10:43Z</time>
</trkpt>
<trkpt lat="44.4512887" lon="3.7478767">
<ele>1415.60</ele>
<time>2020-06-25T14:10:46Z</time>
</trkpt>
<trkpt lat="44.4514751" lon="3.7478958">
<ele>1415.23</ele>
<time>2020-06-25T14:10:49Z</time>
</trkpt>
<trkpt lat="44.4516862" lon="3.7478748">
<ele>1414.10</ele>
<time>2020-06-25T14:10:53Z</time>
</trkpt>
<trkpt lat="44.4518793" lon="3.7478170">
<ele>1413.39</ele>
<time>2020-06-25T14:10:58Z</time>
</trkpt>
<trkpt lat="44.4520442" lon="3.7479461">
<ele>1415.16</ele>
<time>2020-06-25T14:11:15Z</time>
</trkpt>
<trkpt lat="44.4522286" lon="3.7479151">
<ele>1416.23</ele>
<time>2020-06-25T14:11:59Z</time>
</trkpt>
<trkpt lat="44.4522792" lon="3.7476709">
<ele>1415.82</ele>
<time>2020-06-25T14:12:13Z</time>
</trkpt>
<trkpt lat="44.4524603" lon="3.7476075">
<ele>1415.60</ele>
<time>2020-06-25T14:16:59Z</time>
</trkpt>
</trkseg>
</trk>
</gpx>
